<?xml version="1.0" encoding="UTF-8"?>
<gpx version="1.1" creator="2bulu-scraper" xmlns="http://www.topografix.com/GPX/1/1">
  <metadata><name>2026-04-05 11:46:12</name><desc>source: 2bulu.com trackId=81680813; exported 2026-09-01T14:58:31.954Z</desc>
    <bounds minlat="29.001899" minlon="104.767069" maxlat="29.020028" maxlon="104.785026"/>
    <link href="https://www.2bulu.com/track/t-0Rx2%252BIHwHpvp%252FR2KBg5Tzw%253D%253D.htm"><text>2bulu 源页面</text></link>
  </metadata>
  <wpt lat="29.007795" lon="104.784412"><ele>400</ele><name>从这里下去</name></wpt>
  <wpt lat="29.008656" lon="104.784547"><ele>395</ele><name>往五龙场方向</name></wpt>
  <wpt lat="29.018572" lon="104.776927"><ele>356</ele><name>野生树莓</name></wpt>
  <wpt lat="29.016193" lon="104.774791"><ele>326</ele><name>正常是水泥路下去，我们上去看看</name></wpt>
  <wpt lat="29.012408" lon="104.772623"><ele>329</ele><name></name></wpt>
  <wpt lat="29.012336" lon="104.7727"><ele>329</ele><name></name></wpt>
  <wpt lat="29.010955" lon="104.772256"><ele>323</ele><name></name></wpt>
  <wpt lat="29.008088" lon="104.771415"><ele>313</ele><name>哪家龟儿徒步吃了乱丢，太坏了</name></wpt>
  <wpt lat="29.008046" lon="104.771311"><ele>313</ele><name>好看的小塘</name></wpt>
  <wpt lat="29.00804" lon="104.7711"><ele>316</ele><name></name></wpt>
  <wpt lat="29.007615" lon="104.770715"><ele>319</ele><name>开始爬坡</name></wpt>
  <wpt lat="29.007389" lon="104.770252"><ele>316</ele><name></name></wpt>
  <wpt lat="29.007011" lon="104.770272"><ele>319</ele><name></name></wpt>
  <wpt lat="29.006119" lon="104.770313"><ele>318</ele><name></name></wpt>
  <wpt lat="29.005597" lon="104.770401"><ele>319</ele><name>靠右</name></wpt>
  <wpt lat="29.004829" lon="104.770404"><ele>329</ele><name>到这里没有路了，返回</name></wpt>
  <wpt lat="29.005592" lon="104.770363"><ele>320</ele><name>上</name></wpt>
  <wpt lat="29.005305" lon="104.770728"><ele>330</ele><name>继续往前</name></wpt>
  <wpt lat="29.004977" lon="104.770873"><ele>340</ele><name>我们走在小路上，意气风发斗志昂扬</name></wpt>
  <wpt lat="29.004715" lon="104.776904"><ele>401</ele><name>继续</name></wpt>
  <wpt lat="29.004343" lon="104.776812"><ele>398</ele><name>正对棚子走右边</name></wpt>
  <wpt lat="29.004407" lon="104.776786"><ele>400</ele><name></name></wpt>
  <wpt lat="29.004613" lon="104.77716"><ele>399</ele><name></name></wpt>
  <wpt lat="29.003056" lon="104.778855"><ele>366</ele><name></name></wpt>
  <wpt lat="29.004592" lon="104.780667"><ele>373</ele><name></name></wpt>
  <wpt lat="29.005529" lon="104.78062"><ele>358</ele><name></name></wpt>
  <wpt lat="29.004626" lon="104.782447"><ele>373</ele><name></name></wpt>
  <wpt lat="29.004477" lon="104.782484"><ele>379</ele><name></name></wpt>
  <wpt lat="29.004435" lon="104.783876"><ele>394</ele><name></name></wpt>
  <wpt lat="29.005451" lon="104.784225"><ele>398</ele><name>快出去了</name></wpt>
  <wpt lat="29.006827" lon="104.784561"><ele>408</ele><name></name></wpt>
  <wpt lat="29.00752" lon="104.784541"><ele>403</ele><name>回到停车场🅿️</name></wpt>
  <trk><name>2026-04-05 11:46:12</name>
      <trkseg>
        <trkpt lat="29.007768" lon="104.784303"><ele>401.2595</ele><time>2026-04-04T19:46:35.000Z</time></trkpt>
        <trkpt lat="29.007742" lon="104.784246"><ele>400.5297</ele><time>2026-04-04T19:46:54.000Z</time></trkpt>
        <trkpt lat="29.007743" lon="104.784187"><ele>401.32736</ele><time>2026-04-04T19:47:53.000Z</time></trkpt>
        <trkpt lat="29.007732" lon="104.784133"><ele>401.63486</ele><time>2026-04-04T19:48:15.000Z</time></trkpt>
        <trkpt lat="29.007724" lon="104.784079"><ele>401.68652</ele><time>2026-04-04T19:48:33.000Z</time></trkpt>
        <trkpt lat="29.007713" lon="104.784021"><ele>402.5266</ele><time>2026-04-04T19:48:40.000Z</time></trkpt>
        <trkpt lat="29.007724" lon="104.784082"><ele>402.97186</ele><time>2026-04-04T19:49:26.000Z</time></trkpt>
        <trkpt lat="29.007735" lon="104.784139"><ele>402.18906</ele><time>2026-04-04T19:49:31.000Z</time></trkpt>
        <trkpt lat="29.007747" lon="104.784201"><ele>401.66556</ele><time>2026-04-04T19:49:36.000Z</time></trkpt>
        <trkpt lat="29.007753" lon="104.784253"><ele>401.4959</ele><time>2026-04-04T19:49:40.000Z</time></trkpt>
        <trkpt lat="29.007765" lon="104.784303"><ele>401.15103</ele><time>2026-04-04T19:49:44.000Z</time></trkpt>
        <trkpt lat="29.007779" lon="104.784354"><ele>401.0083</ele><time>2026-04-04T19:49:49.000Z</time></trkpt>
        <trkpt lat="29.007795" lon="104.784412"><ele>400.10556</ele><time>2026-04-04T19:49:55.000Z</time></trkpt>
        <trkpt lat="29.007819" lon="104.784461"><ele>400.6453</ele><time>2026-04-04T19:50:07.000Z</time></trkpt>
        <trkpt lat="29.007867" lon="104.784462"><ele>400.1394</ele><time>2026-04-04T19:50:18.000Z</time></trkpt>
        <trkpt lat="29.007916" lon="104.784467"><ele>399.80078</ele><time>2026-04-04T19:50:24.000Z</time></trkpt>
        <trkpt lat="29.007962" lon="104.784481"><ele>399.44974</ele><time>2026-04-04T19:50:28.000Z</time></trkpt>
        <trkpt lat="29.008017" lon="104.784493"><ele>398.88187</ele><time>2026-04-04T19:50:32.000Z</time></trkpt>
        <trkpt lat="29.008068" lon="104.784491"><ele>398.58337</ele><time>2026-04-04T19:50:36.000Z</time></trkpt>
        <trkpt lat="29.008119" lon="104.784481"><ele>397.963</ele><time>2026-04-04T19:50:40.000Z</time></trkpt>
        <trkpt lat="29.008169" lon="104.784475"><ele>398.76175</ele><time>2026-04-04T19:50:44.000Z</time></trkpt>
        <trkpt lat="29.008217" lon="104.784468"><ele>399.16104</ele><time>2026-04-04T19:50:48.000Z</time></trkpt>
        <trkpt lat="29.008266" lon="104.784467"><ele>398.8083</ele><time>2026-04-04T19:50:52.000Z</time></trkpt>
        <trkpt lat="29.008312" lon="104.784472"><ele>398.2995</ele><time>2026-04-04T19:50:56.000Z</time></trkpt>
        <trkpt lat="29.008357" lon="104.784482"><ele>398.26108</ele><time>2026-04-04T19:51:00.000Z</time></trkpt>
        <trkpt lat="29.008412" lon="104.784494"><ele>396.72763</ele><time>2026-04-04T19:51:10.000Z</time></trkpt>
        <trkpt lat="29.008465" lon="104.784498"><ele>397.97827</ele><time>2026-04-04T19:51:14.000Z</time></trkpt>
        <trkpt lat="29.008515" lon="104.784514"><ele>396.50174</ele><time>2026-04-04T19:51:19.000Z</time></trkpt>
        <trkpt lat="29.008565" lon="104.784519"><ele>396.43488</ele><time>2026-04-04T19:51:23.000Z</time></trkpt>
        <trkpt lat="29.008608" lon="104.784535"><ele>395.73602</ele><time>2026-04-04T19:51:27.000Z</time></trkpt>
        <trkpt lat="29.008656" lon="104.784547"><ele>395.12573</ele><time>2026-04-04T19:51:31.000Z</time></trkpt>
        <trkpt lat="29.008702" lon="104.784551"><ele>395.01733</ele><time>2026-04-04T19:51:36.000Z</time></trkpt>
        <trkpt lat="29.008748" lon="104.784568"><ele>394.57904</ele><time>2026-04-04T19:51:41.000Z</time></trkpt>
        <trkpt lat="29.008793" lon="104.784584"><ele>394.4757</ele><time>2026-04-04T19:51:46.000Z</time></trkpt>
        <trkpt lat="29.008842" lon="104.784598"><ele>393.95404</ele><time>2026-04-04T19:51:51.000Z</time></trkpt>
        <trkpt lat="29.008887" lon="104.784614"><ele>393.6146</ele><time>2026-04-04T19:51:56.000Z</time></trkpt>
        <trkpt lat="29.008932" lon="104.784632"><ele>392.8767</ele><time>2026-04-04T19:52:01.000Z</time></trkpt>
        <trkpt lat="29.008977" lon="104.784649"><ele>392.3211</ele><time>2026-04-04T19:52:06.000Z</time></trkpt>
        <trkpt lat="29.009022" lon="104.784667"><ele>391.54956</ele><time>2026-04-04T19:52:10.000Z</time></trkpt>
        <trkpt lat="29.009076" lon="104.784682"><ele>390.38614</ele><time>2026-04-04T19:52:14.000Z</time></trkpt>
        <trkpt lat="29.009125" lon="104.784697"><ele>389.9256</ele><time>2026-04-04T19:52:18.000Z</time></trkpt>
        <trkpt lat="29.009173" lon="104.784709"><ele>389.65543</ele><time>2026-04-04T19:52:22.000Z</time></trkpt>
        <trkpt lat="29.009218" lon="104.784712"><ele>388.38742</ele><time>2026-04-04T19:52:26.000Z</time></trkpt>
        <trkpt lat="29.009271" lon="104.78471"><ele>388.56314</ele><time>2026-04-04T19:52:30.000Z</time></trkpt>
        <trkpt lat="29.009318" lon="104.784726"><ele>387.81494</ele><time>2026-04-04T19:52:34.000Z</time></trkpt>
        <trkpt lat="29.009366" lon="104.784743"><ele>388.58206</ele><time>2026-04-04T19:52:38.000Z</time></trkpt>
        <trkpt lat="29.009412" lon="104.784738"><ele>387.75528</ele><time>2026-04-04T19:52:42.000Z</time></trkpt>
        <trkpt lat="29.00946" lon="104.784731"><ele>386.46527</ele><time>2026-04-04T19:52:47.000Z</time></trkpt>
        <trkpt lat="29.009504" lon="104.784711"><ele>386.90918</ele><time>2026-04-04T19:52:51.000Z</time></trkpt>
        <trkpt lat="29.009539" lon="104.784672"><ele>386.08102</ele><time>2026-04-04T19:52:55.000Z</time></trkpt>
        <trkpt lat="29.009579" lon="104.784631"><ele>386.98395</ele><time>2026-04-04T19:53:00.000Z</time></trkpt>
        <trkpt lat="29.009615" lon="104.784596"><ele>387.8653</ele><time>2026-04-04T19:53:07.000Z</time></trkpt>
        <trkpt lat="29.009649" lon="104.784551"><ele>388.87643</ele><time>2026-04-04T19:53:12.000Z</time></trkpt>
        <trkpt lat="29.009675" lon="104.784506"><ele>388.8959</ele><time>2026-04-04T19:53:16.000Z</time></trkpt>
        <trkpt lat="29.009712" lon="104.784464"><ele>388.2724</ele><time>2026-04-04T19:53:21.000Z</time></trkpt>
        <trkpt lat="29.009748" lon="104.784417"><ele>388.23956</ele><time>2026-04-04T19:53:26.000Z</time></trkpt>
        <trkpt lat="29.009778" lon="104.784373"><ele>387.747</ele><time>2026-04-04T19:53:32.000Z</time></trkpt>
        <trkpt lat="29.009811" lon="104.784317"><ele>386.97397</ele><time>2026-04-04T19:53:37.000Z</time></trkpt>
        <trkpt lat="29.009846" lon="104.784273"><ele>386.3346</ele><time>2026-04-04T19:53:43.000Z</time></trkpt>
        <trkpt lat="29.009877" lon="104.784235"><ele>386.10873</ele><time>2026-04-04T19:53:49.000Z</time></trkpt>
        <trkpt lat="29.009912" lon="104.7842"><ele>385.18634</ele><time>2026-04-04T19:53:56.000Z</time></trkpt>
        <trkpt lat="29.009956" lon="104.784174"><ele>384.47604</ele><time>2026-04-04T19:54:01.000Z</time></trkpt>
        <trkpt lat="29.009997" lon="104.784135"><ele>386.15323</ele><time>2026-04-04T19:54:06.000Z</time></trkpt>
        <trkpt lat="29.010042" lon="104.784114"><ele>386.7827</ele><time>2026-04-04T19:54:10.000Z</time></trkpt>
        <trkpt lat="29.01009" lon="104.7841"><ele>386.1803</ele><time>2026-04-04T19:54:15.000Z</time></trkpt>
        <trkpt lat="29.010142" lon="104.784102"><ele>385.69592</ele><time>2026-04-04T19:54:29.000Z</time></trkpt>
        <trkpt lat="29.010188" lon="104.784095"><ele>386.18393</ele><time>2026-04-04T19:54:34.000Z</time></trkpt>
        <trkpt lat="29.010241" lon="104.784097"><ele>385.8653</ele><time>2026-04-04T19:54:39.000Z</time></trkpt>
        <trkpt lat="29.010286" lon="104.784092"><ele>385.354</ele><time>2026-04-04T19:54:45.000Z</time></trkpt>
        <trkpt lat="29.010332" lon="104.784092"><ele>385.18875</ele><time>2026-04-04T19:54:49.000Z</time></trkpt>
        <trkpt lat="29.010379" lon="104.784105"><ele>384.5805</ele><time>2026-04-04T19:54:55.000Z</time></trkpt>
        <trkpt lat="29.010425" lon="104.784109"><ele>383.87128</ele><time>2026-04-04T19:54:59.000Z</time></trkpt>
        <trkpt lat="29.010474" lon="104.78411"><ele>383.80313</ele><time>2026-04-04T19:55:04.000Z</time></trkpt>
        <trkpt lat="29.010524" lon="104.784115"><ele>383.62634</ele><time>2026-04-04T19:55:09.000Z</time></trkpt>
        <trkpt lat="29.010571" lon="104.784127"><ele>383.14545</ele><time>2026-04-04T19:55:13.000Z</time></trkpt>
        <trkpt lat="29.010622" lon="104.784119"><ele>383.07504</ele><time>2026-04-04T19:55:17.000Z</time></trkpt>
        <trkpt lat="29.010675" lon="104.784113"><ele>382.65033</ele><time>2026-04-04T19:55:24.000Z</time></trkpt>
        <trkpt lat="29.010724" lon="104.784111"><ele>382.04047</ele><time>2026-04-04T19:55:28.000Z</time></trkpt>
        <trkpt lat="29.01077" lon="104.784096"><ele>381.06015</ele><time>2026-04-04T19:55:32.000Z</time></trkpt>
        <trkpt lat="29.010827" lon="104.784072"><ele>379.87177</ele><time>2026-04-04T19:55:37.000Z</time></trkpt>
        <trkpt lat="29.010871" lon="104.784061"><ele>379.11578</ele><time>2026-04-04T19:55:43.000Z</time></trkpt>
        <trkpt lat="29.010913" lon="104.78403"><ele>378.87122</ele><time>2026-04-04T19:55:47.000Z</time></trkpt>
        <trkpt lat="29.010953" lon="104.784001"><ele>380.21112</ele><time>2026-04-04T19:55:51.000Z</time></trkpt>
        <trkpt lat="29.010993" lon="104.783967"><ele>380.0508</ele><time>2026-04-04T19:55:55.000Z</time></trkpt>
        <trkpt lat="29.011032" lon="104.783932"><ele>380.6359</ele><time>2026-04-04T19:55:59.000Z</time></trkpt>
        <trkpt lat="29.011067" lon="104.783892"><ele>381.26953</ele><time>2026-04-04T19:56:03.000Z</time></trkpt>
        <trkpt lat="29.011066" lon="104.783838"><ele>382.19815</ele><time>2026-04-04T19:56:10.000Z</time></trkpt>
        <trkpt lat="29.011111" lon="104.783825"><ele>383.2166</ele><time>2026-04-04T19:56:20.000Z</time></trkpt>
        <trkpt lat="29.011115" lon="104.783757"><ele>385.03906</ele><time>2026-04-04T19:56:34.000Z</time></trkpt>
        <trkpt lat="29.011145" lon="104.783699"><ele>386.30646</ele><time>2026-04-04T19:56:42.000Z</time></trkpt>
        <trkpt lat="29.011156" lon="104.783644"><ele>387.60004</ele><time>2026-04-04T19:56:47.000Z</time></trkpt>
        <trkpt lat="29.011161" lon="104.783582"><ele>389.04346</ele><time>2026-04-04T19:56:52.000Z</time></trkpt>
        <trkpt lat="29.011197" lon="104.783541"><ele>389.77753</ele><time>2026-04-04T19:56:59.000Z</time></trkpt>
        <trkpt lat="29.011166" lon="104.783502"><ele>390.21518</ele><time>2026-04-04T19:57:09.000Z</time></trkpt>
        <trkpt lat="29.011207" lon="104.783455"><ele>390.20148</ele><time>2026-04-04T19:57:15.000Z</time></trkpt>
        <trkpt lat="29.011222" lon="104.783399"><ele>391.30893</ele><time>2026-04-04T19:58:18.000Z</time></trkpt>
        <trkpt lat="29.011235" lon="104.783329"><ele>392.15063</ele><time>2026-04-04T19:58:29.000Z</time></trkpt>
        <trkpt lat="29.011254" lon="104.78327"><ele>392.07812</ele><time>2026-04-04T19:58:35.000Z</time></trkpt>
        <trkpt lat="29.011282" lon="104.783227"><ele>392.13727</ele><time>2026-04-04T19:58:42.000Z</time></trkpt>
        <trkpt lat="29.011293" lon="104.783176"><ele>391.4489</ele><time>2026-04-04T19:58:47.000Z</time></trkpt>
        <trkpt lat="29.011285" lon="104.783125"><ele>390.91977</ele><time>2026-04-04T19:59:03.000Z</time></trkpt>
        <trkpt lat="29.01132" lon="104.783085"><ele>390.24188</ele><time>2026-04-04T19:59:10.000Z</time></trkpt>
        <trkpt lat="29.011345" lon="104.783036"><ele>390.88568</ele><time>2026-04-04T19:59:14.000Z</time></trkpt>
        <trkpt lat="29.011374" lon="104.78299"><ele>390.81143</ele><time>2026-04-04T19:59:19.000Z</time></trkpt>
        <trkpt lat="29.011428" lon="104.782966"><ele>390.64722</ele><time>2026-04-04T19:59:24.000Z</time></trkpt>
        <trkpt lat="29.011472" lon="104.782925"><ele>391.09702</ele><time>2026-04-04T19:59:29.000Z</time></trkpt>
        <trkpt lat="29.011522" lon="104.782906"><ele>390.7407</ele><time>2026-04-04T19:59:34.000Z</time></trkpt>
        <trkpt lat="29.011568" lon="104.782881"><ele>391.27405</ele><time>2026-04-04T19:59:40.000Z</time></trkpt>
        <trkpt lat="29.011615" lon="104.782872"><ele>391.50665</ele><time>2026-04-04T19:59:45.000Z</time></trkpt>
        <trkpt lat="29.011663" lon="104.782851"><ele>392.31186</ele><time>2026-04-04T19:59:49.000Z</time></trkpt>
        <trkpt lat="29.011713" lon="104.782831"><ele>392.93954</ele><time>2026-04-04T19:59:55.000Z</time></trkpt>
        <trkpt lat="29.011763" lon="104.78282"><ele>392.95364</ele><time>2026-04-04T20:00:00.000Z</time></trkpt>
        <trkpt lat="29.011809" lon="104.782794"><ele>393.48816</ele><time>2026-04-04T20:00:05.000Z</time></trkpt>
        <trkpt lat="29.011856" lon="104.782777"><ele>393.84314</ele><time>2026-04-04T20:00:12.000Z</time></trkpt>
        <trkpt lat="29.011906" lon="104.782768"><ele>394.358</ele><time>2026-04-04T20:00:26.000Z</time></trkpt>
        <trkpt lat="29.011959" lon="104.782752"><ele>394.4717</ele><time>2026-04-04T20:00:50.000Z</time></trkpt>
        <trkpt lat="29.012006" lon="104.782737"><ele>394.88757</ele><time>2026-04-04T20:00:55.000Z</time></trkpt>
        <trkpt lat="29.012052" lon="104.782721"><ele>395.2234</ele><time>2026-04-04T20:01:00.000Z</time></trkpt>
        <trkpt lat="29.012097" lon="104.782703"><ele>395.1312</ele><time>2026-04-04T20:01:05.000Z</time></trkpt>
        <trkpt lat="29.012133" lon="104.78267"><ele>395.27286</ele><time>2026-04-04T20:01:11.000Z</time></trkpt>
        <trkpt lat="29.01218" lon="104.782652"><ele>395.9153</ele><time>2026-04-04T20:01:14.000Z</time></trkpt>
        <trkpt lat="29.012232" lon="104.782651"><ele>396.09387</ele><time>2026-04-04T20:01:18.000Z</time></trkpt>
        <trkpt lat="29.012281" lon="104.782627"><ele>396.03494</ele><time>2026-04-04T20:01:24.000Z</time></trkpt>
        <trkpt lat="29.012338" lon="104.782628"><ele>396.38892</ele><time>2026-04-04T20:01:29.000Z</time></trkpt>
        <trkpt lat="29.012388" lon="104.782597"><ele>397.7445</ele><time>2026-04-04T20:01:35.000Z</time></trkpt>
        <trkpt lat="29.012445" lon="104.782575"><ele>397.74695</ele><time>2026-04-04T20:01:40.000Z</time></trkpt>
        <trkpt lat="29.012486" lon="104.782551"><ele>397.69733</ele><time>2026-04-04T20:01:45.000Z</time></trkpt>
        <trkpt lat="29.012522" lon="104.782514"><ele>398.5671</ele><time>2026-04-04T20:01:51.000Z</time></trkpt>
        <trkpt lat="29.012578" lon="104.782489"><ele>398.34332</ele><time>2026-04-04T20:01:57.000Z</time></trkpt>
        <trkpt lat="29.012628" lon="104.782469"><ele>397.57108</ele><time>2026-04-04T20:02:03.000Z</time></trkpt>
        <trkpt lat="29.012668" lon="104.782445"><ele>397.34256</ele><time>2026-04-04T20:02:08.000Z</time></trkpt>
        <trkpt lat="29.012708" lon="104.782411"><ele>396.99847</ele><time>2026-04-04T20:02:13.000Z</time></trkpt>
        <trkpt lat="29.012754" lon="104.782395"><ele>395.68845</ele><time>2026-04-04T20:02:17.000Z</time></trkpt>
        <trkpt lat="29.012791" lon="104.782355"><ele>395.37875</ele><time>2026-04-04T20:02:22.000Z</time></trkpt>
        <trkpt lat="29.012839" lon="104.782342"><ele>395.2446</ele><time>2026-04-04T20:02:26.000Z</time></trkpt>
        <trkpt lat="29.012882" lon="104.78231"><ele>395.37378</ele><time>2026-04-04T20:02:33.000Z</time></trkpt>
        <trkpt lat="29.01293" lon="104.782313"><ele>396.14893</ele><time>2026-04-04T20:02:54.000Z</time></trkpt>
        <trkpt lat="29.012972" lon="104.782269"><ele>396.46976</ele><time>2026-04-04T20:03:18.000Z</time></trkpt>
        <trkpt lat="29.01301" lon="104.782239"><ele>396.0106</ele><time>2026-04-04T20:03:23.000Z</time></trkpt>
        <trkpt lat="29.013052" lon="104.782213"><ele>396.52963</ele><time>2026-04-04T20:03:29.000Z</time></trkpt>
        <trkpt lat="29.013092" lon="104.782183"><ele>396.63522</ele><time>2026-04-04T20:03:34.000Z</time></trkpt>
        <trkpt lat="29.013144" lon="104.782182"><ele>396.44455</ele><time>2026-04-04T20:03:38.000Z</time></trkpt>
        <trkpt lat="29.013185" lon="104.782154"><ele>396.32947</ele><time>2026-04-04T20:03:43.000Z</time></trkpt>
        <trkpt lat="29.013224" lon="104.78212"><ele>396.21802</ele><time>2026-04-04T20:03:48.000Z</time></trkpt>
        <trkpt lat="29.013264" lon="104.782093"><ele>396.91974</ele><time>2026-04-04T20:03:53.000Z</time></trkpt>
        <trkpt lat="29.013311" lon="104.782075"><ele>397.31613</ele><time>2026-04-04T20:03:57.000Z</time></trkpt>
        <trkpt lat="29.013363" lon="104.782047"><ele>397.88297</ele><time>2026-04-04T20:04:01.000Z</time></trkpt>
        <trkpt lat="29.013403" lon="104.782022"><ele>397.7198</ele><time>2026-04-04T20:04:06.000Z</time></trkpt>
        <trkpt lat="29.013438" lon="104.781981"><ele>398.04907</ele><time>2026-04-04T20:04:11.000Z</time></trkpt>
        <trkpt lat="29.013489" lon="104.781956"><ele>398.60446</ele><time>2026-04-04T20:04:17.000Z</time></trkpt>
        <trkpt lat="29.013532" lon="104.781932"><ele>398.43835</ele><time>2026-04-04T20:04:21.000Z</time></trkpt>
        <trkpt lat="29.013583" lon="104.781895"><ele>397.64194</ele><time>2026-04-04T20:04:26.000Z</time></trkpt>
        <trkpt lat="29.013627" lon="104.781868"><ele>398.11008</ele><time>2026-04-04T20:04:31.000Z</time></trkpt>
        <trkpt lat="29.013673" lon="104.781834"><ele>397.809</ele><time>2026-04-04T20:04:36.000Z</time></trkpt>
        <trkpt lat="29.013724" lon="104.781816"><ele>398.2427</ele><time>2026-04-04T20:04:40.000Z</time></trkpt>
        <trkpt lat="29.013777" lon="104.781819"><ele>398.14746</ele><time>2026-04-04T20:04:45.000Z</time></trkpt>
        <trkpt lat="29.013818" lon="104.781788"><ele>397.2262</ele><time>2026-04-04T20:04:49.000Z</time></trkpt>
        <trkpt lat="29.013866" lon="104.781778"><ele>396.46097</ele><time>2026-04-04T20:04:54.000Z</time></trkpt>
        <trkpt lat="29.013917" lon="104.781789"><ele>396.3007</ele><time>2026-04-04T20:05:01.000Z</time></trkpt>
        <trkpt lat="29.013967" lon="104.781787"><ele>396.69852</ele><time>2026-04-04T20:05:06.000Z</time></trkpt>
        <trkpt lat="29.014015" lon="104.781809"><ele>396.49698</ele><time>2026-04-04T20:05:11.000Z</time></trkpt>
        <trkpt lat="29.01407" lon="104.781823"><ele>396.7832</ele><time>2026-04-04T20:05:16.000Z</time></trkpt>
        <trkpt lat="29.01412" lon="104.781816"><ele>396.40463</ele><time>2026-04-04T20:05:21.000Z</time></trkpt>
        <trkpt lat="29.014181" lon="104.781811"><ele>396.4547</ele><time>2026-04-04T20:05:26.000Z</time></trkpt>
        <trkpt lat="29.014233" lon="104.781808"><ele>395.80276</ele><time>2026-04-04T20:05:31.000Z</time></trkpt>
        <trkpt lat="29.014292" lon="104.781807"><ele>394.2551</ele><time>2026-04-04T20:05:36.000Z</time></trkpt>
        <trkpt lat="29.014342" lon="104.78181"><ele>392.9403</ele><time>2026-04-04T20:05:41.000Z</time></trkpt>
        <trkpt lat="29.01439" lon="104.78179"><ele>392.18875</ele><time>2026-04-04T20:05:46.000Z</time></trkpt>
        <trkpt lat="29.01444" lon="104.781777"><ele>390.9586</ele><time>2026-04-04T20:05:50.000Z</time></trkpt>
        <trkpt lat="29.014488" lon="104.781759"><ele>389.99478</ele><time>2026-04-04T20:05:56.000Z</time></trkpt>
        <trkpt lat="29.014532" lon="104.781738"><ele>388.03354</ele><time>2026-04-04T20:06:01.000Z</time></trkpt>
        <trkpt lat="29.014577" lon="104.781719"><ele>386.82227</ele><time>2026-04-04T20:06:05.000Z</time></trkpt>
        <trkpt lat="29.014631" lon="104.781696"><ele>385.62344</ele><time>2026-04-04T20:06:10.000Z</time></trkpt>
        <trkpt lat="29.014673" lon="104.781664"><ele>383.4346</ele><time>2026-04-04T20:06:16.000Z</time></trkpt>
        <trkpt lat="29.014722" lon="104.78164"><ele>381.88556</ele><time>2026-04-04T20:06:22.000Z</time></trkpt>
        <trkpt lat="29.014766" lon="104.78161"><ele>379.9109</ele><time>2026-04-04T20:06:38.000Z</time></trkpt>
        <trkpt lat="29.014804" lon="104.78158"><ele>380.08926</ele><time>2026-04-04T20:06:43.000Z</time></trkpt>
        <trkpt lat="29.014854" lon="104.78157"><ele>379.55194</ele><time>2026-04-04T20:06:51.000Z</time></trkpt>
        <trkpt lat="29.014905" lon="104.781549"><ele>379.96558</ele><time>2026-04-04T20:06:56.000Z</time></trkpt>
        <trkpt lat="29.01495" lon="104.781524"><ele>379.6364</ele><time>2026-04-04T20:07:01.000Z</time></trkpt>
        <trkpt lat="29.014993" lon="104.781507"><ele>380.5406</ele><time>2026-04-04T20:07:06.000Z</time></trkpt>
        <trkpt lat="29.015045" lon="104.781512"><ele>380.4996</ele><time>2026-04-04T20:07:14.000Z</time></trkpt>
        <trkpt lat="29.015088" lon="104.781528"><ele>380.27322</ele><time>2026-04-04T20:07:19.000Z</time></trkpt>
        <trkpt lat="29.015136" lon="104.781552"><ele>380.3044</ele><time>2026-04-04T20:07:24.000Z</time></trkpt>
        <trkpt lat="29.015177" lon="104.78158"><ele>380.32202</ele><time>2026-04-04T20:07:29.000Z</time></trkpt>
        <trkpt lat="29.01523" lon="104.781582"><ele>379.91638</ele><time>2026-04-04T20:07:33.000Z</time></trkpt>
        <trkpt lat="29.015279" lon="104.781609"><ele>380.20142</ele><time>2026-04-04T20:07:38.000Z</time></trkpt>
        <trkpt lat="29.015329" lon="104.781632"><ele>380.10947</ele><time>2026-04-04T20:07:44.000Z</time></trkpt>
        <trkpt lat="29.015368" lon="104.781672"><ele>379.9488</ele><time>2026-04-04T20:07:49.000Z</time></trkpt>
        <trkpt lat="29.015414" lon="104.781688"><ele>380.70337</ele><time>2026-04-04T20:07:55.000Z</time></trkpt>
        <trkpt lat="29.015458" lon="104.781704"><ele>380.3144</ele><time>2026-04-04T20:08:00.000Z</time></trkpt>
        <trkpt lat="29.015503" lon="104.781706"><ele>380.38358</ele><time>2026-04-04T20:08:04.000Z</time></trkpt>
        <trkpt lat="29.015552" lon="104.781723"><ele>380.70984</ele><time>2026-04-04T20:08:09.000Z</time></trkpt>
        <trkpt lat="29.015598" lon="104.781728"><ele>380.53864</ele><time>2026-04-04T20:08:29.000Z</time></trkpt>
        <trkpt lat="29.015648" lon="104.781742"><ele>380.48465</ele><time>2026-04-04T20:08:37.000Z</time></trkpt>
        <trkpt lat="29.015697" lon="104.781749"><ele>381.44632</ele><time>2026-04-04T20:08:48.000Z</time></trkpt>
        <trkpt lat="29.015738" lon="104.781775"><ele>382.03082</ele><time>2026-04-04T20:08:54.000Z</time></trkpt>
        <trkpt lat="29.015789" lon="104.781785"><ele>382.43237</ele><time>2026-04-04T20:09:05.000Z</time></trkpt>
        <trkpt lat="29.01583" lon="104.781819"><ele>382.15857</ele><time>2026-04-04T20:09:11.000Z</time></trkpt>
        <trkpt lat="29.015872" lon="104.781843"><ele>382.69867</ele><time>2026-04-04T20:09:16.000Z</time></trkpt>
        <trkpt lat="29.015912" lon="104.781883"><ele>383.26526</ele><time>2026-04-04T20:09:22.000Z</time></trkpt>
        <trkpt lat="29.015953" lon="104.781915"><ele>383.88983</ele><time>2026-04-04T20:09:28.000Z</time></trkpt>
        <trkpt lat="29.015996" lon="104.781945"><ele>384.56052</ele><time>2026-04-04T20:09:33.000Z</time></trkpt>
        <trkpt lat="29.016032" lon="104.781981"><ele>385.36545</ele><time>2026-04-04T20:09:38.000Z</time></trkpt>
        <trkpt lat="29.016076" lon="104.782003"><ele>386.14584</ele><time>2026-04-04T20:09:43.000Z</time></trkpt>
        <trkpt lat="29.016117" lon="104.782032"><ele>386.28598</ele><time>2026-04-04T20:09:50.000Z</time></trkpt>
        <trkpt lat="29.016142" lon="104.78208"><ele>386.20892</ele><time>2026-04-04T20:10:01.000Z</time></trkpt>
        <trkpt lat="29.016176" lon="104.782114"><ele>386.80087</ele><time>2026-04-04T20:10:07.000Z</time></trkpt>
        <trkpt lat="29.016212" lon="104.782149"><ele>387.01404</ele><time>2026-04-04T20:10:13.000Z</time></trkpt>
        <trkpt lat="29.016245" lon="104.782185"><ele>387.4782</ele><time>2026-04-04T20:10:18.000Z</time></trkpt>
        <trkpt lat="29.016283" lon="104.782221"><ele>388.40305</ele><time>2026-04-04T20:10:23.000Z</time></trkpt>
        <trkpt lat="29.01633" lon="104.782237"><ele>387.9866</ele><time>2026-04-04T20:10:29.000Z</time></trkpt>
        <trkpt lat="29.016379" lon="104.782267"><ele>388.37692</ele><time>2026-04-04T20:10:35.000Z</time></trkpt>
        <trkpt lat="29.016419" lon="104.782295"><ele>388.58957</ele><time>2026-04-04T20:10:39.000Z</time></trkpt>
        <trkpt lat="29.016455" lon="104.782342"><ele>388.94522</ele><time>2026-04-04T20:10:47.000Z</time></trkpt>
        <trkpt lat="29.016499" lon="104.78236"><ele>388.91724</ele><time>2026-04-04T20:10:52.000Z</time></trkpt>
        <trkpt lat="29.016551" lon="104.782381"><ele>389.19772</ele><time>2026-04-04T20:10:57.000Z</time></trkpt>
        <trkpt lat="29.0166" lon="104.782396"><ele>388.95602</ele><time>2026-04-04T20:11:01.000Z</time></trkpt>
        <trkpt lat="29.016651" lon="104.782412"><ele>388.84955</ele><time>2026-04-04T20:11:07.000Z</time></trkpt>
        <trkpt lat="29.016695" lon="104.782427"><ele>389.07846</ele><time>2026-04-04T20:11:12.000Z</time></trkpt>
        <trkpt lat="29.016749" lon="104.782419"><ele>389.08237</ele><time>2026-04-04T20:11:18.000Z</time></trkpt>
        <trkpt lat="29.016802" lon="104.782409"><ele>388.91476</ele><time>2026-04-04T20:11:23.000Z</time></trkpt>
        <trkpt lat="29.016853" lon="104.782402"><ele>387.19553</ele><time>2026-04-04T20:11:28.000Z</time></trkpt>
        <trkpt lat="29.016903" lon="104.782389"><ele>387.6511</ele><time>2026-04-04T20:11:32.000Z</time></trkpt>
        <trkpt lat="29.016949" lon="104.782373"><ele>386.4468</ele><time>2026-04-04T20:11:37.000Z</time></trkpt>
        <trkpt lat="29.017" lon="104.782374"><ele>386.4743</ele><time>2026-04-04T20:11:42.000Z</time></trkpt>
        <trkpt lat="29.01705" lon="104.782367"><ele>386.28275</ele><time>2026-04-04T20:11:47.000Z</time></trkpt>
        <trkpt lat="29.017097" lon="104.782359"><ele>387.27145</ele><time>2026-04-04T20:11:53.000Z</time></trkpt>
        <trkpt lat="29.017144" lon="104.782357"><ele>386.53247</ele><time>2026-04-04T20:11:58.000Z</time></trkpt>
        <trkpt lat="29.017192" lon="104.782348"><ele>386.84155</ele><time>2026-04-04T20:12:03.000Z</time></trkpt>
        <trkpt lat="29.017246" lon="104.782341"><ele>386.20483</ele><time>2026-04-04T20:12:08.000Z</time></trkpt>
        <trkpt lat="29.017296" lon="104.782338"><ele>385.72974</ele><time>2026-04-04T20:12:13.000Z</time></trkpt>
        <trkpt lat="29.017348" lon="104.782335"><ele>386.4335</ele><time>2026-04-04T20:12:18.000Z</time></trkpt>
        <trkpt lat="29.017398" lon="104.782332"><ele>387.11996</ele><time>2026-04-04T20:12:24.000Z</time></trkpt>
        <trkpt lat="29.017447" lon="104.782335"><ele>387.5573</ele><time>2026-04-04T20:12:37.000Z</time></trkpt>
        <trkpt lat="29.017501" lon="104.782328"><ele>388.42776</ele><time>2026-04-04T20:12:44.000Z</time></trkpt>
        <trkpt lat="29.017545" lon="104.782319"><ele>388.54538</ele><time>2026-04-04T20:12:54.000Z</time></trkpt>
        <trkpt lat="29.017592" lon="104.782314"><ele>389.93256</ele><time>2026-04-04T20:13:03.000Z</time></trkpt>
        <trkpt lat="29.017603" lon="104.782365"><ele>389.33063</ele><time>2026-04-04T20:13:08.000Z</time></trkpt>
        <trkpt lat="29.017592" lon="104.782416"><ele>389.33386</ele><time>2026-04-04T20:13:13.000Z</time></trkpt>
        <trkpt lat="29.017573" lon="104.782466"><ele>389.89673</ele><time>2026-04-04T20:13:18.000Z</time></trkpt>
        <trkpt lat="29.017558" lon="104.782524"><ele>388.76492</ele><time>2026-04-04T20:13:24.000Z</time></trkpt>
        <trkpt lat="29.017556" lon="104.782586"><ele>388.86432</ele><time>2026-04-04T20:13:30.000Z</time></trkpt>
        <trkpt lat="29.017605" lon="104.782598"><ele>389.41852</ele><time>2026-04-04T20:13:34.000Z</time></trkpt>
        <trkpt lat="29.017637" lon="104.782654"><ele>389.723</ele><time>2026-04-04T20:13:40.000Z</time></trkpt>
        <trkpt lat="29.01768" lon="104.782695"><ele>390.45883</ele><time>2026-04-04T20:13:45.000Z</time></trkpt>
        <trkpt lat="29.017722" lon="104.782729"><ele>388.7961</ele><time>2026-04-04T20:13:50.000Z</time></trkpt>
        <trkpt lat="29.017767" lon="104.78273"><ele>388.4098</ele><time>2026-04-04T20:13:55.000Z</time></trkpt>
        <trkpt lat="29.017813" lon="104.782706"><ele>389.15402</ele><time>2026-04-04T20:14:01.000Z</time></trkpt>
        <trkpt lat="29.017858" lon="104.782687"><ele>389.074</ele><time>2026-04-04T20:14:07.000Z</time></trkpt>
        <trkpt lat="29.017907" lon="104.78268"><ele>389.0484</ele><time>2026-04-04T20:14:12.000Z</time></trkpt>
        <trkpt lat="29.017942" lon="104.782646"><ele>390.4772</ele><time>2026-04-04T20:14:17.000Z</time></trkpt>
        <trkpt lat="29.017989" lon="104.782647"><ele>389.4855</ele><time>2026-04-04T20:14:22.000Z</time></trkpt>
        <trkpt lat="29.018038" lon="104.782632"><ele>389.68765</ele><time>2026-04-04T20:14:28.000Z</time></trkpt>
        <trkpt lat="29.018069" lon="104.782669"><ele>389.75238</ele><time>2026-04-04T20:14:48.000Z</time></trkpt>
        <trkpt lat="29.018121" lon="104.782653"><ele>389.06195</ele><time>2026-04-04T20:14:55.000Z</time></trkpt>
        <trkpt lat="29.018165" lon="104.782628"><ele>389.25995</ele><time>2026-04-04T20:14:59.000Z</time></trkpt>
        <trkpt lat="29.018211" lon="104.782603"><ele>390.60202</ele><time>2026-04-04T20:15:04.000Z</time></trkpt>
        <trkpt lat="29.018249" lon="104.782562"><ele>391.26904</ele><time>2026-04-04T20:15:08.000Z</time></trkpt>
        <trkpt lat="29.018293" lon="104.782532"><ele>391.0852</ele><time>2026-04-04T20:15:13.000Z</time></trkpt>
        <trkpt lat="29.018335" lon="104.782492"><ele>390.85226</ele><time>2026-04-04T20:15:18.000Z</time></trkpt>
        <trkpt lat="29.018381" lon="104.782488"><ele>391.09766</ele><time>2026-04-04T20:15:23.000Z</time></trkpt>
        <trkpt lat="29.018427" lon="104.782476"><ele>391.93155</ele><time>2026-04-04T20:15:29.000Z</time></trkpt>
        <trkpt lat="29.018479" lon="104.782453"><ele>389.7356</ele><time>2026-04-04T20:15:37.000Z</time></trkpt>
        <trkpt lat="29.018527" lon="104.782447"><ele>388.9825</ele><time>2026-04-04T20:15:42.000Z</time></trkpt>
        <trkpt lat="29.018576" lon="104.782421"><ele>389.54477</ele><time>2026-04-04T20:15:47.000Z</time></trkpt>
        <trkpt lat="29.018614" lon="104.782392"><ele>388.4559</ele><time>2026-04-04T20:16:03.000Z</time></trkpt>
        <trkpt lat="29.018662" lon="104.782367"><ele>388.03598</ele><time>2026-04-04T20:16:08.000Z</time></trkpt>
        <trkpt lat="29.018711" lon="104.782356"><ele>388.94162</ele><time>2026-04-04T20:16:12.000Z</time></trkpt>
        <trkpt lat="29.018757" lon="104.782353"><ele>388.35583</ele><time>2026-04-04T20:16:18.000Z</time></trkpt>
        <trkpt lat="29.018806" lon="104.782361"><ele>388.58383</ele><time>2026-04-04T20:16:23.000Z</time></trkpt>
        <trkpt lat="29.01885" lon="104.78233"><ele>387.1201</ele><time>2026-04-04T20:16:29.000Z</time></trkpt>
        <trkpt lat="29.018892" lon="104.782293"><ele>387.3006</ele><time>2026-04-04T20:16:33.000Z</time></trkpt>
        <trkpt lat="29.018918" lon="104.782243"><ele>386.78943</ele><time>2026-04-04T20:16:38.000Z</time></trkpt>
        <trkpt lat="29.018957" lon="104.782213"><ele>387.02707</ele><time>2026-04-04T20:16:42.000Z</time></trkpt>
        <trkpt lat="29.018991" lon="104.782174"><ele>387.6464</ele><time>2026-04-04T20:16:46.000Z</time></trkpt>
        <trkpt lat="29.019037" lon="104.782137"><ele>387.74377</ele><time>2026-04-04T20:16:51.000Z</time></trkpt>
        <trkpt lat="29.019081" lon="104.782103"><ele>387.18542</ele><time>2026-04-04T20:16:57.000Z</time></trkpt>
        <trkpt lat="29.019118" lon="104.782065"><ele>387.03677</ele><time>2026-04-04T20:17:01.000Z</time></trkpt>
        <trkpt lat="29.019165" lon="104.782041"><ele>385.68515</ele><time>2026-04-04T20:17:05.000Z</time></trkpt>
        <trkpt lat="29.019206" lon="104.782008"><ele>383.75592</ele><time>2026-04-04T20:17:10.000Z</time></trkpt>
        <trkpt lat="29.019243" lon="104.781958"><ele>384.51715</ele><time>2026-04-04T20:17:16.000Z</time></trkpt>
        <trkpt lat="29.019283" lon="104.781927"><ele>384.15448</ele><time>2026-04-04T20:17:20.000Z</time></trkpt>
        <trkpt lat="29.019327" lon="104.781909"><ele>384.07388</ele><time>2026-04-04T20:17:25.000Z</time></trkpt>
        <trkpt lat="29.019369" lon="104.781886"><ele>384.7085</ele><time>2026-04-04T20:17:30.000Z</time></trkpt>
        <trkpt lat="29.019417" lon="104.78188"><ele>382.93683</ele><time>2026-04-04T20:17:47.000Z</time></trkpt>
        <trkpt lat="29.019464" lon="104.781872"><ele>383.03204</ele><time>2026-04-04T20:17:52.000Z</time></trkpt>
        <trkpt lat="29.019517" lon="104.781863"><ele>382.86853</ele><time>2026-04-04T20:17:58.000Z</time></trkpt>
        <trkpt lat="29.019573" lon="104.781862"><ele>382.14087</ele><time>2026-04-04T20:18:03.000Z</time></trkpt>
        <trkpt lat="29.019624" lon="104.781862"><ele>382.29398</ele><time>2026-04-04T20:18:08.000Z</time></trkpt>
        <trkpt lat="29.01967" lon="104.781866"><ele>382.09647</ele><time>2026-04-04T20:18:14.000Z</time></trkpt>
        <trkpt lat="29.019719" lon="104.781879"><ele>381.68124</ele><time>2026-04-04T20:18:22.000Z</time></trkpt>
        <trkpt lat="29.019769" lon="104.781863"><ele>380.94516</ele><time>2026-04-04T20:18:34.000Z</time></trkpt>
        <trkpt lat="29.019818" lon="104.781847"><ele>380.23453</ele><time>2026-04-04T20:18:38.000Z</time></trkpt>
        <trkpt lat="29.019863" lon="104.781828"><ele>379.64468</ele><time>2026-04-04T20:18:43.000Z</time></trkpt>
        <trkpt lat="29.019909" lon="104.781812"><ele>378.10898</ele><time>2026-04-04T20:18:47.000Z</time></trkpt>
        <trkpt lat="29.019942" lon="104.78177"><ele>377.53464</ele><time>2026-04-04T20:18:52.000Z</time></trkpt>
        <trkpt lat="29.019973" lon="104.781724"><ele>379.11554</ele><time>2026-04-04T20:18:58.000Z</time></trkpt>
        <trkpt lat="29.020001" lon="104.781684"><ele>378.53592</ele><time>2026-04-04T20:19:03.000Z</time></trkpt>
        <trkpt lat="29.020028" lon="104.781635"><ele>379.27594</ele><time>2026-04-04T20:19:08.000Z</time></trkpt>
        <trkpt lat="29.020017" lon="104.781581"><ele>380.52722</ele><time>2026-04-04T20:19:12.000Z</time></trkpt>
        <trkpt lat="29.019975" lon="104.781547"><ele>380.5367</ele><time>2026-04-04T20:19:17.000Z</time></trkpt>
        <trkpt lat="29.019926" lon="104.781523"><ele>381.64343</ele><time>2026-04-04T20:19:23.000Z</time></trkpt>
        <trkpt lat="29.019889" lon="104.781482"><ele>381.3737</ele><time>2026-04-04T20:19:29.000Z</time></trkpt>
        <trkpt lat="29.019849" lon="104.781458"><ele>381.4607</ele><time>2026-04-04T20:19:33.000Z</time></trkpt>
        <trkpt lat="29.019807" lon="104.781418"><ele>382.0835</ele><time>2026-04-04T20:19:38.000Z</time></trkpt>
        <trkpt lat="29.019767" lon="104.781392"><ele>382.31668</ele><time>2026-04-04T20:19:42.000Z</time></trkpt>
        <trkpt lat="29.019723" lon="104.781359"><ele>381.51382</ele><time>2026-04-04T20:19:47.000Z</time></trkpt>
        <trkpt lat="29.019684" lon="104.781326"><ele>381.45276</ele><time>2026-04-04T20:19:51.000Z</time></trkpt>
        <trkpt lat="29.019669" lon="104.781273"><ele>382.0579</ele><time>2026-04-04T20:20:14.000Z</time></trkpt>
        <trkpt lat="29.019645" lon="104.781223"><ele>381.7108</ele><time>2026-04-04T20:20:20.000Z</time></trkpt>
        <trkpt lat="29.019627" lon="104.781173"><ele>381.2992</ele><time>2026-04-04T20:20:28.000Z</time></trkpt>
        <trkpt lat="29.019615" lon="104.781113"><ele>382.16473</ele><time>2026-04-04T20:20:34.000Z</time></trkpt>
        <trkpt lat="29.01961" lon="104.781059"><ele>382.26514</ele><time>2026-04-04T20:20:39.000Z</time></trkpt>
        <trkpt lat="29.019618" lon="104.781002"><ele>382.17188</ele><time>2026-04-04T20:20:44.000Z</time></trkpt>
        <trkpt lat="29.019636" lon="104.780947"><ele>381.73117</ele><time>2026-04-04T20:20:49.000Z</time></trkpt>
        <trkpt lat="29.019654" lon="104.780893"><ele>378.74036</ele><time>2026-04-04T20:20:54.000Z</time></trkpt>
        <trkpt lat="29.019673" lon="104.780841"><ele>380.6674</ele><time>2026-04-04T20:20:58.000Z</time></trkpt>
        <trkpt lat="29.01968" lon="104.78078"><ele>378.8785</ele><time>2026-04-04T20:21:03.000Z</time></trkpt>
        <trkpt lat="29.019683" lon="104.780728"><ele>377.54565</ele><time>2026-04-04T20:21:06.000Z</time></trkpt>
        <trkpt lat="29.0197" lon="104.78068"><ele>378.57654</ele><time>2026-04-04T20:21:09.000Z</time></trkpt>
        <trkpt lat="29.01971" lon="104.780626"><ele>377.2359</ele><time>2026-04-04T20:21:13.000Z</time></trkpt>
        <trkpt lat="29.019712" lon="104.780563"><ele>377.07455</ele><time>2026-04-04T20:21:18.000Z</time></trkpt>
        <trkpt lat="29.019708" lon="104.780506"><ele>375.96298</ele><time>2026-04-04T20:21:25.000Z</time></trkpt>
        <trkpt lat="29.019691" lon="104.780442"><ele>374.43314</ele><time>2026-04-04T20:21:31.000Z</time></trkpt>
        <trkpt lat="29.019672" lon="104.780391"><ele>373.70447</ele><time>2026-04-04T20:21:36.000Z</time></trkpt>
        <trkpt lat="29.019655" lon="104.780339"><ele>373.4656</ele><time>2026-04-04T20:21:41.000Z</time></trkpt>
        <trkpt lat="29.019639" lon="104.780286"><ele>372.9475</ele><time>2026-04-04T20:21:45.000Z</time></trkpt>
        <trkpt lat="29.01963" lon="104.780234"><ele>370.98065</ele><time>2026-04-04T20:21:49.000Z</time></trkpt>
        <trkpt lat="29.019616" lon="104.780176"><ele>369.4091</ele><time>2026-04-04T20:21:54.000Z</time></trkpt>
        <trkpt lat="29.019595" lon="104.780122"><ele>370.26376</ele><time>2026-04-04T20:22:00.000Z</time></trkpt>
        <trkpt lat="29.019567" lon="104.780069"><ele>371.87384</ele><time>2026-04-04T20:22:40.000Z</time></trkpt>
        <trkpt lat="29.019578" lon="104.780019"><ele>370.76483</ele><time>2026-04-04T20:22:44.000Z</time></trkpt>
        <trkpt lat="29.019572" lon="104.779958"><ele>370.32297</ele><time>2026-04-04T20:22:50.000Z</time></trkpt>
        <trkpt lat="29.019564" lon="104.779898"><ele>369.7962</ele><time>2026-04-04T20:22:57.000Z</time></trkpt>
        <trkpt lat="29.019555" lon="104.779841"><ele>370.3594</ele><time>2026-04-04T20:23:01.000Z</time></trkpt>
        <trkpt lat="29.019548" lon="104.779771"><ele>368.3611</ele><time>2026-04-04T20:23:07.000Z</time></trkpt>
        <trkpt lat="29.019544" lon="104.779712"><ele>369.21848</ele><time>2026-04-04T20:23:11.000Z</time></trkpt>
        <trkpt lat="29.019559" lon="104.77966"><ele>367.50134</ele><time>2026-04-04T20:23:15.000Z</time></trkpt>
        <trkpt lat="29.019564" lon="104.779607"><ele>368.47726</ele><time>2026-04-04T20:23:19.000Z</time></trkpt>
        <trkpt lat="29.019564" lon="104.77955"><ele>369.8868</ele><time>2026-04-04T20:23:24.000Z</time></trkpt>
        <trkpt lat="29.019574" lon="104.779498"><ele>369.12833</ele><time>2026-04-04T20:23:29.000Z</time></trkpt>
        <trkpt lat="29.019583" lon="104.779438"><ele>368.95035</ele><time>2026-04-04T20:23:36.000Z</time></trkpt>
        <trkpt lat="29.019596" lon="104.779386"><ele>369.70016</ele><time>2026-04-04T20:23:41.000Z</time></trkpt>
        <trkpt lat="29.019596" lon="104.779332"><ele>369.29788</ele><time>2026-04-04T20:23:46.000Z</time></trkpt>
        <trkpt lat="29.019585" lon="104.77928"><ele>368.17615</ele><time>2026-04-04T20:23:51.000Z</time></trkpt>
        <trkpt lat="29.019579" lon="104.779221"><ele>368.47574</ele><time>2026-04-04T20:23:58.000Z</time></trkpt>
        <trkpt lat="29.019564" lon="104.779164"><ele>367.64362</ele><time>2026-04-04T20:24:04.000Z</time></trkpt>
        <trkpt lat="29.019536" lon="104.779115"><ele>366.1928</ele><time>2026-04-04T20:24:09.000Z</time></trkpt>
        <trkpt lat="29.019491" lon="104.779087"><ele>366.341</ele><time>2026-04-04T20:24:14.000Z</time></trkpt>
        <trkpt lat="29.019448" lon="104.779062"><ele>366.23273</ele><time>2026-04-04T20:24:19.000Z</time></trkpt>
        <trkpt lat="29.019404" lon="104.779032"><ele>366.71182</ele><time>2026-04-04T20:24:24.000Z</time></trkpt>
        <trkpt lat="29.019359" lon="104.779013"><ele>366.3158</ele><time>2026-04-04T20:24:37.000Z</time></trkpt>
        <trkpt lat="29.019326" lon="104.778976"><ele>366.11343</ele><time>2026-04-04T20:24:43.000Z</time></trkpt>
        <trkpt lat="29.019309" lon="104.778926"><ele>366.13232</ele><time>2026-04-04T20:24:49.000Z</time></trkpt>
        <trkpt lat="29.019318" lon="104.778874"><ele>365.1508</ele><time>2026-04-04T20:24:54.000Z</time></trkpt>
        <trkpt lat="29.019323" lon="104.778823"><ele>364.56177</ele><time>2026-04-04T20:24:58.000Z</time></trkpt>
        <trkpt lat="29.019323" lon="104.778763"><ele>364.7574</ele><time>2026-04-04T20:25:04.000Z</time></trkpt>
        <trkpt lat="29.019318" lon="104.778707"><ele>364.87402</ele><time>2026-04-04T20:25:09.000Z</time></trkpt>
        <trkpt lat="29.019311" lon="104.778647"><ele>364.697</ele><time>2026-04-04T20:25:14.000Z</time></trkpt>
        <trkpt lat="29.019292" lon="104.778599"><ele>364.56305</ele><time>2026-04-04T20:25:18.000Z</time></trkpt>
        <trkpt lat="29.019277" lon="104.77854"><ele>364.6954</ele><time>2026-04-04T20:25:23.000Z</time></trkpt>
        <trkpt lat="29.019255" lon="104.778489"><ele>364.54147</ele><time>2026-04-04T20:25:28.000Z</time></trkpt>
        <trkpt lat="29.019225" lon="104.778443"><ele>364.267</ele><time>2026-04-04T20:25:33.000Z</time></trkpt>
        <trkpt lat="29.019189" lon="104.778398"><ele>363.9689</ele><time>2026-04-04T20:25:38.000Z</time></trkpt>
        <trkpt lat="29.019155" lon="104.778353"><ele>363.49976</ele><time>2026-04-04T20:25:43.000Z</time></trkpt>
        <trkpt lat="29.019123" lon="104.778312"><ele>363.46036</ele><time>2026-04-04T20:25:48.000Z</time></trkpt>
        <trkpt lat="29.019098" lon="104.778259"><ele>363.25632</ele><time>2026-04-04T20:25:53.000Z</time></trkpt>
        <trkpt lat="29.019077" lon="104.778206"><ele>362.7125</ele><time>2026-04-04T20:25:58.000Z</time></trkpt>
        <trkpt lat="29.019046" lon="104.778156"><ele>362.50427</ele><time>2026-04-04T20:26:03.000Z</time></trkpt>
        <trkpt lat="29.019018" lon="104.778101"><ele>362.9052</ele><time>2026-04-04T20:26:08.000Z</time></trkpt>
        <trkpt lat="29.018985" lon="104.778063"><ele>362.62674</ele><time>2026-04-04T20:26:12.000Z</time></trkpt>
        <trkpt lat="29.018946" lon="104.778026"><ele>362.83197</ele><time>2026-04-04T20:26:17.000Z</time></trkpt>
        <trkpt lat="29.018919" lon="104.777983"><ele>361.66885</ele><time>2026-04-04T20:26:30.000Z</time></trkpt>
        <trkpt lat="29.018887" lon="104.777942"><ele>362.15747</ele><time>2026-04-04T20:26:34.000Z</time></trkpt>
        <trkpt lat="29.018839" lon="104.777943"><ele>363.32117</ele><time>2026-04-04T20:26:46.000Z</time></trkpt>
        <trkpt lat="29.018794" lon="104.777915"><ele>362.96814</ele><time>2026-04-04T20:26:53.000Z</time></trkpt>
        <trkpt lat="29.018747" lon="104.777907"><ele>363.41656</ele><time>2026-04-04T20:26:58.000Z</time></trkpt>
        <trkpt lat="29.018699" lon="104.777901"><ele>363.03363</ele><time>2026-04-04T20:27:03.000Z</time></trkpt>
        <trkpt lat="29.018653" lon="104.777885"><ele>362.6529</ele><time>2026-04-04T20:27:08.000Z</time></trkpt>
        <trkpt lat="29.018606" lon="104.777878"><ele>361.50055</ele><time>2026-04-04T20:27:13.000Z</time></trkpt>
        <trkpt lat="29.018556" lon="104.777868"><ele>362.11438</ele><time>2026-04-04T20:27:19.000Z</time></trkpt>
        <trkpt lat="29.01851" lon="104.777857"><ele>362.10052</ele><time>2026-04-04T20:27:24.000Z</time></trkpt>
        <trkpt lat="29.018459" lon="104.777844"><ele>363.1414</ele><time>2026-04-04T20:27:30.000Z</time></trkpt>
        <trkpt lat="29.018412" lon="104.777811"><ele>363.2047</ele><time>2026-04-04T20:27:37.000Z</time></trkpt>
        <trkpt lat="29.01837" lon="104.777789"><ele>362.81256</ele><time>2026-04-04T20:27:42.000Z</time></trkpt>
        <trkpt lat="29.018326" lon="104.777768"><ele>363.34656</ele><time>2026-04-04T20:27:49.000Z</time></trkpt>
        <trkpt lat="29.018286" lon="104.777742"><ele>363.9494</ele><time>2026-04-04T20:27:53.000Z</time></trkpt>
        <trkpt lat="29.01825" lon="104.777711"><ele>363.88617</ele><time>2026-04-04T20:27:58.000Z</time></trkpt>
        <trkpt lat="29.018236" lon="104.777661"><ele>363.50702</ele><time>2026-04-04T20:28:03.000Z</time></trkpt>
        <trkpt lat="29.018224" lon="104.777605"><ele>363.4844</ele><time>2026-04-04T20:28:07.000Z</time></trkpt>
        <trkpt lat="29.018238" lon="104.77755"><ele>363.27405</ele><time>2026-04-04T20:28:12.000Z</time></trkpt>
        <trkpt lat="29.018249" lon="104.777484"><ele>362.0555</ele><time>2026-04-04T20:28:17.000Z</time></trkpt>
        <trkpt lat="29.01827" lon="104.777434"><ele>361.83292</ele><time>2026-04-04T20:28:22.000Z</time></trkpt>
        <trkpt lat="29.018287" lon="104.777374"><ele>361.6873</ele><time>2026-04-04T20:28:27.000Z</time></trkpt>
        <trkpt lat="29.018315" lon="104.777325"><ele>361.5551</ele><time>2026-04-04T20:28:32.000Z</time></trkpt>
        <trkpt lat="29.018338" lon="104.777276"><ele>361.97818</ele><time>2026-04-04T20:28:36.000Z</time></trkpt>
        <trkpt lat="29.018373" lon="104.777227"><ele>361.03482</ele><time>2026-04-04T20:28:41.000Z</time></trkpt>
        <trkpt lat="29.018391" lon="104.777176"><ele>360.72897</ele><time>2026-04-04T20:28:46.000Z</time></trkpt>
        <trkpt lat="29.018419" lon="104.777134"><ele>360.59436</ele><time>2026-04-04T20:28:51.000Z</time></trkpt>
        <trkpt lat="29.018443" lon="104.777088"><ele>360.063</ele><time>2026-04-04T20:28:56.000Z</time></trkpt>
        <trkpt lat="29.018477" lon="104.777053"><ele>359.91913</ele><time>2026-04-04T20:29:01.000Z</time></trkpt>
        <trkpt lat="29.018515" lon="104.777024"><ele>359.4759</ele><time>2026-04-04T20:29:18.000Z</time></trkpt>
        <trkpt lat="29.018539" lon="104.776979"><ele>358.46198</ele><time>2026-04-04T20:29:24.000Z</time></trkpt>
        <trkpt lat="29.018586" lon="104.776981"><ele>357.68994</ele><time>2026-04-04T20:29:31.000Z</time></trkpt>
        <trkpt lat="29.018547" lon="104.777013"><ele>356.28955</ele><time>2026-04-04T20:29:47.000Z</time></trkpt>
        <trkpt lat="29.018524" lon="104.777062"><ele>356.8874</ele><time>2026-04-04T20:29:54.000Z</time></trkpt>
        <trkpt lat="29.018521" lon="104.777113"><ele>356.15042</ele><time>2026-04-04T20:30:09.000Z</time></trkpt>
        <trkpt lat="29.018494" lon="104.777167"><ele>355.92316</ele><time>2026-04-04T20:30:19.000Z</time></trkpt>
        <trkpt lat="29.018522" lon="104.777211"><ele>357.0497</ele><time>2026-04-04T20:30:29.000Z</time></trkpt>
        <trkpt lat="29.01854" lon="104.777156"><ele>355.6372</ele><time>2026-04-04T20:30:35.000Z</time></trkpt>
        <trkpt lat="29.018561" lon="104.777108"><ele>355.41742</ele><time>2026-04-04T20:30:44.000Z</time></trkpt>
        <trkpt lat="29.01857" lon="104.777058"><ele>356.01743</ele><time>2026-04-04T20:31:03.000Z</time></trkpt>
        <trkpt lat="29.018585" lon="104.777008"><ele>356.21313</ele><time>2026-04-04T20:31:22.000Z</time></trkpt>
        <trkpt lat="29.018606" lon="104.776963"><ele>355.6589</ele><time>2026-04-04T20:32:08.000Z</time></trkpt>
        <trkpt lat="29.018572" lon="104.776927"><ele>355.75095</ele><time>2026-04-04T20:32:17.000Z</time></trkpt>
        <trkpt lat="29.018583" lon="104.77687"><ele>355.45978</ele><time>2026-04-04T20:32:33.000Z</time></trkpt>
        <trkpt lat="29.018604" lon="104.776807"><ele>354.58734</ele><time>2026-04-04T20:32:38.000Z</time></trkpt>
        <trkpt lat="29.018613" lon="104.776756"><ele>354.93457</ele><time>2026-04-04T20:32:42.000Z</time></trkpt>
        <trkpt lat="29.018606" lon="104.776703"><ele>353.98245</ele><time>2026-04-04T20:32:55.000Z</time></trkpt>
        <trkpt lat="29.018603" lon="104.776644"><ele>352.47614</ele><time>2026-04-04T20:33:01.000Z</time></trkpt>
        <trkpt lat="29.01859" lon="104.77659"><ele>351.48105</ele><time>2026-04-04T20:33:11.000Z</time></trkpt>
        <trkpt lat="29.018566" lon="104.77654"><ele>351.4398</ele><time>2026-04-04T20:33:17.000Z</time></trkpt>
        <trkpt lat="29.018537" lon="104.776477"><ele>353.07455</ele><time>2026-04-04T20:33:22.000Z</time></trkpt>
        <trkpt lat="29.018528" lon="104.776424"><ele>353.57956</ele><time>2026-04-04T20:33:26.000Z</time></trkpt>
        <trkpt lat="29.01852" lon="104.776373"><ele>355.22656</ele><time>2026-04-04T20:33:30.000Z</time></trkpt>
        <trkpt lat="29.018512" lon="104.776321"><ele>356.44232</ele><time>2026-04-04T20:33:34.000Z</time></trkpt>
        <trkpt lat="29.018514" lon="104.77626"><ele>356.13052</ele><time>2026-04-04T20:33:39.000Z</time></trkpt>
        <trkpt lat="29.018528" lon="104.776207"><ele>355.69043</ele><time>2026-04-04T20:33:44.000Z</time></trkpt>
        <trkpt lat="29.018526" lon="104.776144"><ele>354.9119</ele><time>2026-04-04T20:33:49.000Z</time></trkpt>
        <trkpt lat="29.018504" lon="104.776082"><ele>353.46558</ele><time>2026-04-04T20:33:56.000Z</time></trkpt>
        <trkpt lat="29.018479" lon="104.776029"><ele>352.6883</ele><time>2026-04-04T20:34:01.000Z</time></trkpt>
        <trkpt lat="29.018444" lon="104.775991"><ele>351.12222</ele><time>2026-04-04T20:34:06.000Z</time></trkpt>
        <trkpt lat="29.018397" lon="104.775974"><ele>350.4494</ele><time>2026-04-04T20:34:12.000Z</time></trkpt>
        <trkpt lat="29.018347" lon="104.775974"><ele>350.61194</ele><time>2026-04-04T20:34:17.000Z</time></trkpt>
        <trkpt lat="29.018294" lon="104.775988"><ele>349.837</ele><time>2026-04-04T20:34:26.000Z</time></trkpt>
        <trkpt lat="29.018257" lon="104.776025"><ele>350.18048</ele><time>2026-04-04T20:34:30.000Z</time></trkpt>
        <trkpt lat="29.01821" lon="104.77603"><ele>350.0723</ele><time>2026-04-04T20:34:43.000Z</time></trkpt>
        <trkpt lat="29.01817" lon="104.776078"><ele>349.08508</ele><time>2026-04-04T20:34:49.000Z</time></trkpt>
        <trkpt lat="29.018126" lon="104.776095"><ele>349.33777</ele><time>2026-04-04T20:34:53.000Z</time></trkpt>
        <trkpt lat="29.018077" lon="104.776129"><ele>348.3078</ele><time>2026-04-04T20:34:57.000Z</time></trkpt>
        <trkpt lat="29.018027" lon="104.776155"><ele>347.61276</ele><time>2026-04-04T20:35:03.000Z</time></trkpt>
        <trkpt lat="29.017984" lon="104.776173"><ele>347.7513</ele><time>2026-04-04T20:35:07.000Z</time></trkpt>
        <trkpt lat="29.017944" lon="104.7762"><ele>346.97458</ele><time>2026-04-04T20:35:12.000Z</time></trkpt>
        <trkpt lat="29.017902" lon="104.77623"><ele>347.68704</ele><time>2026-04-04T20:35:17.000Z</time></trkpt>
        <trkpt lat="29.017855" lon="104.776233"><ele>348.00302</ele><time>2026-04-04T20:35:24.000Z</time></trkpt>
        <trkpt lat="29.017805" lon="104.77621"><ele>348.13672</ele><time>2026-04-04T20:35:31.000Z</time></trkpt>
        <trkpt lat="29.017764" lon="104.776188"><ele>347.13498</ele><time>2026-04-04T20:35:37.000Z</time></trkpt>
        <trkpt lat="29.01772" lon="104.776154"><ele>345.56516</ele><time>2026-04-04T20:35:52.000Z</time></trkpt>
        <trkpt lat="29.017707" lon="104.776094"><ele>346.52124</ele><time>2026-04-04T20:35:58.000Z</time></trkpt>
        <trkpt lat="29.017695" lon="104.776042"><ele>346.51862</ele><time>2026-04-04T20:36:04.000Z</time></trkpt>
        <trkpt lat="29.017686" lon="104.775988"><ele>347.15582</ele><time>2026-04-04T20:36:09.000Z</time></trkpt>
        <trkpt lat="29.017678" lon="104.775928"><ele>347.91013</ele><time>2026-04-04T20:36:15.000Z</time></trkpt>
        <trkpt lat="29.017692" lon="104.775869"><ele>347.4163</ele><time>2026-04-04T20:36:23.000Z</time></trkpt>
        <trkpt lat="29.017717" lon="104.775817"><ele>346.0284</ele><time>2026-04-04T20:36:34.000Z</time></trkpt>
        <trkpt lat="29.017707" lon="104.775767"><ele>344.65076</ele><time>2026-04-04T20:36:43.000Z</time></trkpt>
        <trkpt lat="29.017712" lon="104.775714"><ele>344.05646</ele><time>2026-04-04T20:36:48.000Z</time></trkpt>
        <trkpt lat="29.01769" lon="104.775763"><ele>343.71924</ele><time>2026-04-04T20:37:10.000Z</time></trkpt>
        <trkpt lat="29.017718" lon="104.775824"><ele>345.42813</ele><time>2026-04-04T20:37:20.000Z</time></trkpt>
        <trkpt lat="29.017712" lon="104.775758"><ele>345.48087</ele><time>2026-04-04T20:37:23.000Z</time></trkpt>
        <trkpt lat="29.017711" lon="104.775705"><ele>344.8306</ele><time>2026-04-04T20:37:27.000Z</time></trkpt>
        <trkpt lat="29.017705" lon="104.77564"><ele>343.7579</ele><time>2026-04-04T20:37:32.000Z</time></trkpt>
        <trkpt lat="29.017704" lon="104.775578"><ele>342.60406</ele><time>2026-04-04T20:37:37.000Z</time></trkpt>
        <trkpt lat="29.017698" lon="104.775525"><ele>342.60492</ele><time>2026-04-04T20:37:44.000Z</time></trkpt>
        <trkpt lat="29.01768" lon="104.775467"><ele>341.24908</ele><time>2026-04-04T20:38:06.000Z</time></trkpt>
        <trkpt lat="29.017655" lon="104.775409"><ele>341.08194</ele><time>2026-04-04T20:38:10.000Z</time></trkpt>
        <trkpt lat="29.017623" lon="104.775372"><ele>340.16034</ele><time>2026-04-04T20:38:14.000Z</time></trkpt>
        <trkpt lat="29.017572" lon="104.77537"><ele>340.44278</ele><time>2026-04-04T20:38:19.000Z</time></trkpt>
        <trkpt lat="29.017527" lon="104.775355"><ele>340.8792</ele><time>2026-04-04T20:38:22.000Z</time></trkpt>
        <trkpt lat="29.017482" lon="104.775312"><ele>339.83218</ele><time>2026-04-04T20:38:26.000Z</time></trkpt>
        <trkpt lat="29.017435" lon="104.775294"><ele>339.8795</ele><time>2026-04-04T20:38:30.000Z</time></trkpt>
        <trkpt lat="29.017378" lon="104.775312"><ele>340.61703</ele><time>2026-04-04T20:38:34.000Z</time></trkpt>
        <trkpt lat="29.017329" lon="104.775325"><ele>340.87064</ele><time>2026-04-04T20:38:37.000Z</time></trkpt>
        <trkpt lat="29.017281" lon="104.775293"><ele>340.5415</ele><time>2026-04-04T20:38:41.000Z</time></trkpt>
        <trkpt lat="29.017258" lon="104.775244"><ele>340.53403</ele><time>2026-04-04T20:38:46.000Z</time></trkpt>
        <trkpt lat="29.017239" lon="104.775197"><ele>339.08704</ele><time>2026-04-04T20:38:55.000Z</time></trkpt>
        <trkpt lat="29.017225" lon="104.775139"><ele>337.65836</ele><time>2026-04-04T20:39:02.000Z</time></trkpt>
        <trkpt lat="29.017205" lon="104.775089"><ele>335.84842</ele><time>2026-04-04T20:39:07.000Z</time></trkpt>
        <trkpt lat="29.017191" lon="104.775037"><ele>334.12167</ele><time>2026-04-04T20:39:12.000Z</time></trkpt>
        <trkpt lat="29.017164" lon="104.774997"><ele>333.31216</ele><time>2026-04-04T20:39:28.000Z</time></trkpt>
        <trkpt lat="29.017149" lon="104.774932"><ele>332.82742</ele><time>2026-04-04T20:39:33.000Z</time></trkpt>
        <trkpt lat="29.017127" lon="104.774879"><ele>331.8086</ele><time>2026-04-04T20:39:37.000Z</time></trkpt>
        <trkpt lat="29.017097" lon="104.774838"><ele>330.8583</ele><time>2026-04-04T20:39:42.000Z</time></trkpt>
        <trkpt lat="29.017048" lon="104.774828"><ele>330.25464</ele><time>2026-04-04T20:39:55.000Z</time></trkpt>
        <trkpt lat="29.017065" lon="104.77478"><ele>329.1805</ele><time>2026-04-04T20:40:01.000Z</time></trkpt>
        <trkpt lat="29.017042" lon="104.774727"><ele>328.14728</ele><time>2026-04-04T20:40:10.000Z</time></trkpt>
        <trkpt lat="29.017055" lon="104.774779"><ele>327.54614</ele><time>2026-04-04T20:40:28.000Z</time></trkpt>
        <trkpt lat="29.017013" lon="104.77481"><ele>328.35938</ele><time>2026-04-04T20:40:34.000Z</time></trkpt>
        <trkpt lat="29.016967" lon="104.774778"><ele>328.42435</ele><time>2026-04-04T20:40:39.000Z</time></trkpt>
        <trkpt lat="29.016973" lon="104.774725"><ele>327.98044</ele><time>2026-04-04T20:41:05.000Z</time></trkpt>
        <trkpt lat="29.016985" lon="104.774674"><ele>326.5207</ele><time>2026-04-04T20:41:14.000Z</time></trkpt>
        <trkpt lat="29.016996" lon="104.774734"><ele>326.61615</ele><time>2026-04-04T20:41:55.000Z</time></trkpt>
        <trkpt lat="29.016982" lon="104.774795"><ele>330.39807</ele><time>2026-04-04T20:42:14.000Z</time></trkpt>
        <trkpt lat="29.016946" lon="104.774752"><ele>330.4221</ele><time>2026-04-04T20:42:21.000Z</time></trkpt>
        <trkpt lat="29.016903" lon="104.774721"><ele>328.911</ele><time>2026-04-04T20:42:29.000Z</time></trkpt>
        <trkpt lat="29.016862" lon="104.774698"><ele>327.80902</ele><time>2026-04-04T20:42:38.000Z</time></trkpt>
        <trkpt lat="29.01682" lon="104.774739"><ele>327.08914</ele><time>2026-04-04T20:42:57.000Z</time></trkpt>
        <trkpt lat="29.016814" lon="104.774687"><ele>327.14575</ele><time>2026-04-04T20:43:07.000Z</time></trkpt>
        <trkpt lat="29.016773" lon="104.77471"><ele>325.86478</ele><time>2026-04-04T20:43:24.000Z</time></trkpt>
        <trkpt lat="29.016712" lon="104.774714"><ele>326.0997</ele><time>2026-04-04T20:43:36.000Z</time></trkpt>
        <trkpt lat="29.016701" lon="104.774768"><ele>326.88293</ele><time>2026-04-04T20:43:41.000Z</time></trkpt>
        <trkpt lat="29.016696" lon="104.77471"><ele>327.79333</ele><time>2026-04-04T20:43:57.000Z</time></trkpt>
        <trkpt lat="29.016651" lon="104.774699"><ele>326.57278</ele><time>2026-04-04T20:44:10.000Z</time></trkpt>
        <trkpt lat="29.016606" lon="104.77469"><ele>326.46225</ele><time>2026-04-04T20:44:16.000Z</time></trkpt>
        <trkpt lat="29.016556" lon="104.774677"><ele>326.98016</ele><time>2026-04-04T20:44:21.000Z</time></trkpt>
        <trkpt lat="29.016508" lon="104.774679"><ele>326.6478</ele><time>2026-04-04T20:44:26.000Z</time></trkpt>
        <trkpt lat="29.016466" lon="104.774654"><ele>324.37054</ele><time>2026-04-04T20:44:32.000Z</time></trkpt>
        <trkpt lat="29.016412" lon="104.774675"><ele>323.87442</ele><time>2026-04-04T20:44:39.000Z</time></trkpt>
        <trkpt lat="29.016371" lon="104.774706"><ele>323.484</ele><time>2026-04-04T20:44:46.000Z</time></trkpt>
        <trkpt lat="29.01632" lon="104.774714"><ele>324.18115</ele><time>2026-04-04T20:44:55.000Z</time></trkpt>
        <trkpt lat="29.016272" lon="104.774713"><ele>322.6156</ele><time>2026-04-04T20:45:06.000Z</time></trkpt>
        <trkpt lat="29.016235" lon="104.774759"><ele>323.01874</ele><time>2026-04-04T20:45:12.000Z</time></trkpt>
        <trkpt lat="29.016193" lon="104.774791"><ele>326.44702</ele><time>2026-04-04T20:45:25.000Z</time></trkpt>
        <trkpt lat="29.016157" lon="104.774828"><ele>326.2525</ele><time>2026-04-04T20:46:20.000Z</time></trkpt>
        <trkpt lat="29.016115" lon="104.774859"><ele>324.45508</ele><time>2026-04-04T20:46:25.000Z</time></trkpt>
        <trkpt lat="29.016071" lon="104.774913"><ele>324.51114</ele><time>2026-04-04T20:46:29.000Z</time></trkpt>
        <trkpt lat="29.01603" lon="104.774962"><ele>325.7031</ele><time>2026-04-04T20:46:31.000Z</time></trkpt>
        <trkpt lat="29.015984" lon="104.774993"><ele>327.54932</ele><time>2026-04-04T20:46:34.000Z</time></trkpt>
        <trkpt lat="29.015939" lon="104.775003"><ele>327.88193</ele><time>2026-04-04T20:46:39.000Z</time></trkpt>
        <trkpt lat="29.015899" lon="104.775034"><ele>328.18604</ele><time>2026-04-04T20:46:41.000Z</time></trkpt>
        <trkpt lat="29.015888" lon="104.775085"><ele>332.7309</ele><time>2026-04-04T20:47:08.000Z</time></trkpt>
        <trkpt lat="29.015904" lon="104.775137"><ele>332.53464</ele><time>2026-04-04T20:47:15.000Z</time></trkpt>
        <trkpt lat="29.01592" lon="104.77519"><ele>334.2346</ele><time>2026-04-04T20:47:21.000Z</time></trkpt>
        <trkpt lat="29.015891" lon="104.775233"><ele>336.30368</ele><time>2026-04-04T20:47:40.000Z</time></trkpt>
        <trkpt lat="29.015869" lon="104.775282"><ele>337.6485</ele><time>2026-04-04T20:47:55.000Z</time></trkpt>
        <trkpt lat="29.015875" lon="104.775228"><ele>333.58533</ele><time>2026-04-04T20:48:15.000Z</time></trkpt>
        <trkpt lat="29.015907" lon="104.775182"><ele>332.6244</ele><time>2026-04-04T20:48:20.000Z</time></trkpt>
        <trkpt lat="29.015881" lon="104.775136"><ele>332.47348</ele><time>2026-04-04T20:48:25.000Z</time></trkpt>
        <trkpt lat="29.015905" lon="104.775069"><ele>331.9056</ele><time>2026-04-04T20:48:50.000Z</time></trkpt>
        <trkpt lat="29.015951" lon="104.775055"><ele>327.94888</ele><time>2026-04-04T20:50:07.000Z</time></trkpt>
        <trkpt lat="29.015988" lon="104.775017"><ele>326.73694</ele><time>2026-04-04T20:50:12.000Z</time></trkpt>
        <trkpt lat="29.016026" lon="104.774977"><ele>325.60114</ele><time>2026-04-04T20:50:16.000Z</time></trkpt>
        <trkpt lat="29.016049" lon="104.774923"><ele>324.8822</ele><time>2026-04-04T20:50:20.000Z</time></trkpt>
        <trkpt lat="29.016058" lon="104.774862"><ele>323.1362</ele><time>2026-04-04T20:50:24.000Z</time></trkpt>
        <trkpt lat="29.016029" lon="104.774821"><ele>322.1822</ele><time>2026-04-04T20:51:10.000Z</time></trkpt>
        <trkpt lat="29.01598" lon="104.774849"><ele>320.91565</ele><time>2026-04-04T20:51:16.000Z</time></trkpt>
        <trkpt lat="29.015931" lon="104.774849"><ele>320.23773</ele><time>2026-04-04T20:51:33.000Z</time></trkpt>
        <trkpt lat="29.015884" lon="104.774841"><ele>319.48685</ele><time>2026-04-04T20:51:41.000Z</time></trkpt>
        <trkpt lat="29.015846" lon="104.774804"><ele>318.5603</ele><time>2026-04-04T20:51:49.000Z</time></trkpt>
        <trkpt lat="29.015793" lon="104.774789"><ele>317.63492</ele><time>2026-04-04T20:51:56.000Z</time></trkpt>
        <trkpt lat="29.015749" lon="104.774769"><ele>316.19443</ele><time>2026-04-04T20:52:01.000Z</time></trkpt>
        <trkpt lat="29.015698" lon="104.774772"><ele>315.42035</ele><time>2026-04-04T20:52:07.000Z</time></trkpt>
        <trkpt lat="29.015644" lon="104.77477"><ele>314.1751</ele><time>2026-04-04T20:52:12.000Z</time></trkpt>
        <trkpt lat="29.015599" lon="104.774779"><ele>314.2128</ele><time>2026-04-04T20:52:17.000Z</time></trkpt>
        <trkpt lat="29.015552" lon="104.774767"><ele>313.51465</ele><time>2026-04-04T20:52:24.000Z</time></trkpt>
        <trkpt lat="29.0155" lon="104.774764"><ele>313.39566</ele><time>2026-04-04T20:52:32.000Z</time></trkpt>
        <trkpt lat="29.015453" lon="104.774758"><ele>314.5167</ele><time>2026-04-04T20:52:37.000Z</time></trkpt>
        <trkpt lat="29.015409" lon="104.774772"><ele>313.7696</ele><time>2026-04-04T20:52:43.000Z</time></trkpt>
        <trkpt lat="29.015369" lon="104.774741"><ele>315.19516</ele><time>2026-04-04T20:53:04.000Z</time></trkpt>
        <trkpt lat="29.015326" lon="104.774759"><ele>315.56848</ele><time>2026-04-04T20:53:23.000Z</time></trkpt>
        <trkpt lat="29.015283" lon="104.774797"><ele>315.61954</ele><time>2026-04-04T20:53:30.000Z</time></trkpt>
        <trkpt lat="29.015235" lon="104.774798"><ele>316.85095</ele><time>2026-04-04T20:53:36.000Z</time></trkpt>
        <trkpt lat="29.015184" lon="104.7748"><ele>318.20648</ele><time>2026-04-04T20:53:48.000Z</time></trkpt>
        <trkpt lat="29.015142" lon="104.774777"><ele>318.9455</ele><time>2026-04-04T20:53:54.000Z</time></trkpt>
        <trkpt lat="29.015132" lon="104.774726"><ele>319.8861</ele><time>2026-04-04T20:54:07.000Z</time></trkpt>
        <trkpt lat="29.015099" lon="104.774687"><ele>320.378</ele><time>2026-04-04T20:54:17.000Z</time></trkpt>
        <trkpt lat="29.015069" lon="104.774646"><ele>320.31113</ele><time>2026-04-04T20:54:22.000Z</time></trkpt>
        <trkpt lat="29.015049" lon="104.774588"><ele>320.38205</ele><time>2026-04-04T20:54:34.000Z</time></trkpt>
        <trkpt lat="29.015085" lon="104.774521"><ele>303.12607</ele><time>2026-04-04T20:54:39.000Z</time></trkpt>
        <trkpt lat="29.015047" lon="104.77448"><ele>318.68845</ele><time>2026-04-04T20:54:43.000Z</time></trkpt>
        <trkpt lat="29.015048" lon="104.774428"><ele>319.97745</ele><time>2026-04-04T20:54:47.000Z</time></trkpt>
        <trkpt lat="29.015036" lon="104.774374"><ele>319.8897</ele><time>2026-04-04T20:54:52.000Z</time></trkpt>
        <trkpt lat="29.015012" lon="104.774316"><ele>319.64688</ele><time>2026-04-04T20:54:58.000Z</time></trkpt>
        <trkpt lat="29.014997" lon="104.774245"><ele>319.13232</ele><time>2026-04-04T20:55:03.000Z</time></trkpt>
        <trkpt lat="29.015007" lon="104.77419"><ele>319.733</ele><time>2026-04-04T20:55:08.000Z</time></trkpt>
        <trkpt lat="29.015001" lon="104.774134"><ele>319.255</ele><time>2026-04-04T20:55:12.000Z</time></trkpt>
        <trkpt lat="29.015004" lon="104.774078"><ele>317.1538</ele><time>2026-04-04T20:55:17.000Z</time></trkpt>
        <trkpt lat="29.015029" lon="104.774033"><ele>318.1156</ele><time>2026-04-04T20:55:21.000Z</time></trkpt>
        <trkpt lat="29.015052" lon="104.773975"><ele>317.63745</ele><time>2026-04-04T20:55:26.000Z</time></trkpt>
        <trkpt lat="29.015061" lon="104.773915"><ele>315.9009</ele><time>2026-04-04T20:55:30.000Z</time></trkpt>
        <trkpt lat="29.015078" lon="104.773866"><ele>316.1302</ele><time>2026-04-04T20:55:35.000Z</time></trkpt>
        <trkpt lat="29.015092" lon="104.773806"><ele>314.8685</ele><time>2026-04-04T20:55:39.000Z</time></trkpt>
        <trkpt lat="29.01509" lon="104.773749"><ele>315.062</ele><time>2026-04-04T20:55:44.000Z</time></trkpt>
        <trkpt lat="29.015075" lon="104.773694"><ele>315.0228</ele><time>2026-04-04T20:55:49.000Z</time></trkpt>
        <trkpt lat="29.015035" lon="104.773663"><ele>315.46594</ele><time>2026-04-04T20:55:54.000Z</time></trkpt>
        <trkpt lat="29.01499" lon="104.773637"><ele>315.40234</ele><time>2026-04-04T20:55:59.000Z</time></trkpt>
        <trkpt lat="29.014939" lon="104.773629"><ele>315.00284</ele><time>2026-04-04T20:56:03.000Z</time></trkpt>
        <trkpt lat="29.014893" lon="104.773621"><ele>315.22723</ele><time>2026-04-04T20:56:07.000Z</time></trkpt>
        <trkpt lat="29.014845" lon="104.773605"><ele>315.53555</ele><time>2026-04-04T20:56:12.000Z</time></trkpt>
        <trkpt lat="29.014802" lon="104.773589"><ele>315.77707</ele><time>2026-04-04T20:56:16.000Z</time></trkpt>
        <trkpt lat="29.014754" lon="104.77357"><ele>315.24692</ele><time>2026-04-04T20:56:20.000Z</time></trkpt>
        <trkpt lat="29.014713" lon="104.773545"><ele>314.40137</ele><time>2026-04-04T20:56:27.000Z</time></trkpt>
        <trkpt lat="29.014665" lon="104.773527"><ele>315.0172</ele><time>2026-04-04T20:56:32.000Z</time></trkpt>
        <trkpt lat="29.014619" lon="104.77351"><ele>313.19012</ele><time>2026-04-04T20:56:37.000Z</time></trkpt>
        <trkpt lat="29.014569" lon="104.773494"><ele>314.7309</ele><time>2026-04-04T20:56:41.000Z</time></trkpt>
        <trkpt lat="29.014522" lon="104.773482"><ele>314.68024</ele><time>2026-04-04T20:56:45.000Z</time></trkpt>
        <trkpt lat="29.014481" lon="104.773457"><ele>312.13416</ele><time>2026-04-04T20:56:58.000Z</time></trkpt>
        <trkpt lat="29.014431" lon="104.773461"><ele>310.3881</ele><time>2026-04-04T20:57:05.000Z</time></trkpt>
        <trkpt lat="29.014376" lon="104.773485"><ele>309.8592</ele><time>2026-04-04T20:57:13.000Z</time></trkpt>
        <trkpt lat="29.014328" lon="104.773513"><ele>310.72946</ele><time>2026-04-04T20:57:19.000Z</time></trkpt>
        <trkpt lat="29.01428" lon="104.773531"><ele>310.95776</ele><time>2026-04-04T20:57:24.000Z</time></trkpt>
        <trkpt lat="29.014238" lon="104.773566"><ele>311.27206</ele><time>2026-04-04T20:57:29.000Z</time></trkpt>
        <trkpt lat="29.014211" lon="104.773609"><ele>312.51498</ele><time>2026-04-04T20:57:34.000Z</time></trkpt>
        <trkpt lat="29.014184" lon="104.773655"><ele>313.71588</ele><time>2026-04-04T20:57:42.000Z</time></trkpt>
        <trkpt lat="29.014157" lon="104.773705"><ele>315.1367</ele><time>2026-04-04T20:57:49.000Z</time></trkpt>
        <trkpt lat="29.014132" lon="104.773763"><ele>316.7059</ele><time>2026-04-04T20:57:56.000Z</time></trkpt>
        <trkpt lat="29.014118" lon="104.773821"><ele>317.6949</ele><time>2026-04-04T20:58:01.000Z</time></trkpt>
        <trkpt lat="29.014103" lon="104.773876"><ele>318.9731</ele><time>2026-04-04T20:58:06.000Z</time></trkpt>
        <trkpt lat="29.014097" lon="104.773933"><ele>320.1888</ele><time>2026-04-04T20:58:13.000Z</time></trkpt>
        <trkpt lat="29.014088" lon="104.773985"><ele>321.5896</ele><time>2026-04-04T20:58:21.000Z</time></trkpt>
        <trkpt lat="29.014075" lon="104.774036"><ele>323.45547</ele><time>2026-04-04T20:58:28.000Z</time></trkpt>
        <trkpt lat="29.014062" lon="104.774085"><ele>324.79022</ele><time>2026-04-04T20:58:34.000Z</time></trkpt>
        <trkpt lat="29.014054" lon="104.77414"><ele>326.13138</ele><time>2026-04-04T20:58:40.000Z</time></trkpt>
        <trkpt lat="29.014034" lon="104.774187"><ele>327.03796</ele><time>2026-04-04T20:58:47.000Z</time></trkpt>
        <trkpt lat="29.014021" lon="104.774241"><ele>328.1748</ele><time>2026-04-04T20:58:54.000Z</time></trkpt>
        <trkpt lat="29.014009" lon="104.774303"><ele>330.15515</ele><time>2026-04-04T20:59:00.000Z</time></trkpt>
        <trkpt lat="29.013995" lon="104.774354"><ele>330.8047</ele><time>2026-04-04T20:59:05.000Z</time></trkpt>
        <trkpt lat="29.01397" lon="104.774405"><ele>332.0196</ele><time>2026-04-04T20:59:10.000Z</time></trkpt>
        <trkpt lat="29.013948" lon="104.774455"><ele>332.44815</ele><time>2026-04-04T20:59:16.000Z</time></trkpt>
        <trkpt lat="29.013916" lon="104.774507"><ele>333.55</ele><time>2026-04-04T20:59:22.000Z</time></trkpt>
        <trkpt lat="29.013885" lon="104.774553"><ele>334.62497</ele><time>2026-04-04T20:59:28.000Z</time></trkpt>
        <trkpt lat="29.013844" lon="104.774586"><ele>334.41275</ele><time>2026-04-04T20:59:48.000Z</time></trkpt>
        <trkpt lat="29.013817" lon="104.774639"><ele>334.1359</ele><time>2026-04-04T20:59:55.000Z</time></trkpt>
        <trkpt lat="29.013768" lon="104.774665"><ele>331.3335</ele><time>2026-04-04T21:00:48.000Z</time></trkpt>
        <trkpt lat="29.013728" lon="104.774699"><ele>331.2602</ele><time>2026-04-04T21:00:53.000Z</time></trkpt>
        <trkpt lat="29.013677" lon="104.774715"><ele>329.78085</ele><time>2026-04-04T21:00:59.000Z</time></trkpt>
        <trkpt lat="29.01355" lon="104.774752"><ele>325.69745</ele><time>2026-04-04T21:03:15.000Z</time></trkpt>
        <trkpt lat="29.0135" lon="104.774777"><ele>327.542</ele><time>2026-04-04T21:03:20.000Z</time></trkpt>
        <trkpt lat="29.013445" lon="104.774804"><ele>328.20013</ele><time>2026-04-04T21:03:25.000Z</time></trkpt>
        <trkpt lat="29.013398" lon="104.774835"><ele>328.81818</ele><time>2026-04-04T21:03:29.000Z</time></trkpt>
        <trkpt lat="29.01336" lon="104.774876"><ele>328.53232</ele><time>2026-04-04T21:03:34.000Z</time></trkpt>
        <trkpt lat="29.013419" lon="104.774783"><ele>328.48935</ele><time>2026-04-04T21:05:52.000Z</time></trkpt>
        <trkpt lat="29.013461" lon="104.774744"><ele>328.712</ele><time>2026-04-04T21:05:56.000Z</time></trkpt>
        <trkpt lat="29.013506" lon="104.774725"><ele>327.2874</ele><time>2026-04-04T21:06:00.000Z</time></trkpt>
        <trkpt lat="29.013554" lon="104.7747"><ele>327.15573</ele><time>2026-04-04T21:06:05.000Z</time></trkpt>
        <trkpt lat="29.013605" lon="104.774688"><ele>325.8413</ele><time>2026-04-04T21:06:10.000Z</time></trkpt>
        <trkpt lat="29.01365" lon="104.774646"><ele>325.5309</ele><time>2026-04-04T21:06:15.000Z</time></trkpt>
        <trkpt lat="29.013696" lon="104.774624"><ele>327.47708</ele><time>2026-04-04T21:06:19.000Z</time></trkpt>
        <trkpt lat="29.013751" lon="104.774612"><ele>327.00073</ele><time>2026-04-04T21:06:24.000Z</time></trkpt>
        <trkpt lat="29.013799" lon="104.774581"><ele>328.74274</ele><time>2026-04-04T21:06:30.000Z</time></trkpt>
        <trkpt lat="29.013818" lon="104.774521"><ele>329.66708</ele><time>2026-04-04T21:06:35.000Z</time></trkpt>
        <trkpt lat="29.013854" lon="104.774475"><ele>329.12686</ele><time>2026-04-04T21:06:41.000Z</time></trkpt>
        <trkpt lat="29.013882" lon="104.774433"><ele>328.78168</ele><time>2026-04-04T21:06:46.000Z</time></trkpt>
        <trkpt lat="29.013909" lon="104.77439"><ele>327.07748</ele><time>2026-04-04T21:06:51.000Z</time></trkpt>
        <trkpt lat="29.013931" lon="104.774332"><ele>326.97937</ele><time>2026-04-04T21:06:58.000Z</time></trkpt>
        <trkpt lat="29.013954" lon="104.774283"><ele>326.92435</ele><time>2026-04-04T21:07:03.000Z</time></trkpt>
        <trkpt lat="29.013975" lon="104.774234"><ele>327.2156</ele><time>2026-04-04T21:07:08.000Z</time></trkpt>
        <trkpt lat="29.013986" lon="104.774175"><ele>326.7159</ele><time>2026-04-04T21:07:13.000Z</time></trkpt>
        <trkpt lat="29.013989" lon="104.77412"><ele>325.73273</ele><time>2026-04-04T21:07:17.000Z</time></trkpt>
        <trkpt lat="29.014001" lon="104.774066"><ele>324.13223</ele><time>2026-04-04T21:07:24.000Z</time></trkpt>
        <trkpt lat="29.014022" lon="104.774016"><ele>322.97513</ele><time>2026-04-04T21:07:31.000Z</time></trkpt>
        <trkpt lat="29.014034" lon="104.773965"><ele>322.68088</ele><time>2026-04-04T21:07:38.000Z</time></trkpt>
        <trkpt lat="29.014054" lon="104.773918"><ele>321.4443</ele><time>2026-04-04T21:07:45.000Z</time></trkpt>
        <trkpt lat="29.014067" lon="104.773863"><ele>320.79495</ele><time>2026-04-04T21:07:50.000Z</time></trkpt>
        <trkpt lat="29.014088" lon="104.773806"><ele>319.57758</ele><time>2026-04-04T21:07:55.000Z</time></trkpt>
        <trkpt lat="29.014113" lon="104.773755"><ele>318.63843</ele><time>2026-04-04T21:08:00.000Z</time></trkpt>
        <trkpt lat="29.014139" lon="104.773708"><ele>317.59555</ele><time>2026-04-04T21:08:05.000Z</time></trkpt>
        <trkpt lat="29.014162" lon="104.773659"><ele>315.75357</ele><time>2026-04-04T21:08:10.000Z</time></trkpt>
        <trkpt lat="29.014195" lon="104.773616"><ele>314.9414</ele><time>2026-04-04T21:08:15.000Z</time></trkpt>
        <trkpt lat="29.014234" lon="104.773573"><ele>314.08902</ele><time>2026-04-04T21:08:20.000Z</time></trkpt>
        <trkpt lat="29.014258" lon="104.773525"><ele>313.85507</ele><time>2026-04-04T21:08:24.000Z</time></trkpt>
        <trkpt lat="29.014242" lon="104.773468"><ele>312.10965</ele><time>2026-04-04T21:08:30.000Z</time></trkpt>
        <trkpt lat="29.014221" lon="104.77342"><ele>311.17883</ele><time>2026-04-04T21:08:34.000Z</time></trkpt>
        <trkpt lat="29.014194" lon="104.773373"><ele>310.31467</ele><time>2026-04-04T21:08:53.000Z</time></trkpt>
        <trkpt lat="29.014196" lon="104.773316"><ele>308.98257</ele><time>2026-04-04T21:09:25.000Z</time></trkpt>
        <trkpt lat="29.014184" lon="104.773263"><ele>309.22394</ele><time>2026-04-04T21:09:35.000Z</time></trkpt>
        <trkpt lat="29.014165" lon="104.773213"><ele>310.06613</ele><time>2026-04-04T21:09:40.000Z</time></trkpt>
        <trkpt lat="29.014157" lon="104.773159"><ele>309.97934</ele><time>2026-04-04T21:09:45.000Z</time></trkpt>
        <trkpt lat="29.014122" lon="104.773124"><ele>311.006</ele><time>2026-04-04T21:09:50.000Z</time></trkpt>
        <trkpt lat="29.014083" lon="104.773085"><ele>311.3222</ele><time>2026-04-04T21:09:55.000Z</time></trkpt>
        <trkpt lat="29.014035" lon="104.773055"><ele>312.475</ele><time>2026-04-04T21:10:01.000Z</time></trkpt>
        <trkpt lat="29.01399" lon="104.773036"><ele>313.03894</ele><time>2026-04-04T21:10:07.000Z</time></trkpt>
        <trkpt lat="29.01395" lon="104.773012"><ele>314.5895</ele><time>2026-04-04T21:10:12.000Z</time></trkpt>
        <trkpt lat="29.013896" lon="104.772995"><ele>314.97803</ele><time>2026-04-04T21:10:17.000Z</time></trkpt>
        <trkpt lat="29.013851" lon="104.772966"><ele>316.82346</ele><time>2026-04-04T21:10:21.000Z</time></trkpt>
        <trkpt lat="29.013801" lon="104.772945"><ele>317.68784</ele><time>2026-04-04T21:10:26.000Z</time></trkpt>
        <trkpt lat="29.013759" lon="104.772919"><ele>318.78204</ele><time>2026-04-04T21:10:30.000Z</time></trkpt>
        <trkpt lat="29.013717" lon="104.772899"><ele>320.06873</ele><time>2026-04-04T21:10:34.000Z</time></trkpt>
        <trkpt lat="29.01367" lon="104.772881"><ele>320.61374</ele><time>2026-04-04T21:10:39.000Z</time></trkpt>
        <trkpt lat="29.013622" lon="104.772865"><ele>321.45395</ele><time>2026-04-04T21:10:44.000Z</time></trkpt>
        <trkpt lat="29.013579" lon="104.772838"><ele>321.65402</ele><time>2026-04-04T21:10:49.000Z</time></trkpt>
        <trkpt lat="29.013529" lon="104.772833"><ele>319.99307</ele><time>2026-04-04T21:10:56.000Z</time></trkpt>
        <trkpt lat="29.013485" lon="104.772813"><ele>320.742</ele><time>2026-04-04T21:11:01.000Z</time></trkpt>
        <trkpt lat="29.013439" lon="104.772787"><ele>321.45923</ele><time>2026-04-04T21:11:06.000Z</time></trkpt>
        <trkpt lat="29.01338" lon="104.772774"><ele>321.0275</ele><time>2026-04-04T21:11:12.000Z</time></trkpt>
        <trkpt lat="29.013338" lon="104.772745"><ele>321.10104</ele><time>2026-04-04T21:11:17.000Z</time></trkpt>
        <trkpt lat="29.013303" lon="104.772712"><ele>321.0331</ele><time>2026-04-04T21:11:21.000Z</time></trkpt>
        <trkpt lat="29.013257" lon="104.772678"><ele>321.01227</ele><time>2026-04-04T21:11:26.000Z</time></trkpt>
        <trkpt lat="29.013209" lon="104.772661"><ele>322.54623</ele><time>2026-04-04T21:11:31.000Z</time></trkpt>
        <trkpt lat="29.013159" lon="104.77266"><ele>322.89456</ele><time>2026-04-04T21:11:36.000Z</time></trkpt>
        <trkpt lat="29.01311" lon="104.77265"><ele>322.75018</ele><time>2026-04-04T21:11:41.000Z</time></trkpt>
        <trkpt lat="29.013065" lon="104.772628"><ele>321.71802</ele><time>2026-04-04T21:11:46.000Z</time></trkpt>
        <trkpt lat="29.013016" lon="104.772606"><ele>320.69702</ele><time>2026-04-04T21:11:51.000Z</time></trkpt>
        <trkpt lat="29.012971" lon="104.7726"><ele>320.91284</ele><time>2026-04-04T21:12:00.000Z</time></trkpt>
        <trkpt lat="29.012922" lon="104.772589"><ele>321.02625</ele><time>2026-04-04T21:12:06.000Z</time></trkpt>
        <trkpt lat="29.012876" lon="104.772582"><ele>321.9456</ele><time>2026-04-04T21:12:11.000Z</time></trkpt>
        <trkpt lat="29.012816" lon="104.772602"><ele>324.64548</ele><time>2026-04-04T21:12:30.000Z</time></trkpt>
        <trkpt lat="29.012764" lon="104.772601"><ele>325.70877</ele><time>2026-04-04T21:13:00.000Z</time></trkpt>
        <trkpt lat="29.012716" lon="104.772594"><ele>324.93515</ele><time>2026-04-04T21:13:03.000Z</time></trkpt>
        <trkpt lat="29.012665" lon="104.772572"><ele>325.14783</ele><time>2026-04-04T21:13:07.000Z</time></trkpt>
        <trkpt lat="29.012621" lon="104.772561"><ele>325.66165</ele><time>2026-04-04T21:13:11.000Z</time></trkpt>
        <trkpt lat="29.012566" lon="104.772565"><ele>326.01465</ele><time>2026-04-04T21:13:17.000Z</time></trkpt>
        <trkpt lat="29.012514" lon="104.772556"><ele>326.30563</ele><time>2026-04-04T21:13:23.000Z</time></trkpt>
        <trkpt lat="29.012471" lon="104.772575"><ele>327.51492</ele><time>2026-04-04T21:13:28.000Z</time></trkpt>
        <trkpt lat="29.012423" lon="104.772597"><ele>328.525</ele><time>2026-04-04T21:13:33.000Z</time></trkpt>
        <trkpt lat="29.012387" lon="104.772628"><ele>329.0798</ele><time>2026-04-04T21:13:45.000Z</time></trkpt>
        <trkpt lat="29.012423" lon="104.772669"><ele>328.71988</ele><time>2026-04-04T21:14:11.000Z</time></trkpt>
        <trkpt lat="29.012415" lon="104.772572"><ele>327.9553</ele><time>2026-04-04T21:14:14.000Z</time></trkpt>
        <trkpt lat="29.012408" lon="104.772623"><ele>328.97995</ele><time>2026-04-04T21:14:17.000Z</time></trkpt>
        <trkpt lat="29.01237" lon="104.772657"><ele>327.39056</ele><time>2026-04-04T21:14:22.000Z</time></trkpt>
        <trkpt lat="29.012336" lon="104.7727"><ele>329.30786</ele><time>2026-04-04T21:14:33.000Z</time></trkpt>
        <trkpt lat="29.012293" lon="104.772724"><ele>327.98358</ele><time>2026-04-04T21:14:37.000Z</time></trkpt>
        <trkpt lat="29.012236" lon="104.772743"><ele>326.731</ele><time>2026-04-04T21:14:41.000Z</time></trkpt>
        <trkpt lat="29.012186" lon="104.772748"><ele>327.1798</ele><time>2026-04-04T21:14:44.000Z</time></trkpt>
        <trkpt lat="29.01214" lon="104.772754"><ele>326.99768</ele><time>2026-04-04T21:14:47.000Z</time></trkpt>
        <trkpt lat="29.012093" lon="104.772739"><ele>326.1169</ele><time>2026-04-04T21:14:51.000Z</time></trkpt>
        <trkpt lat="29.012038" lon="104.772721"><ele>326.90768</ele><time>2026-04-04T21:14:55.000Z</time></trkpt>
        <trkpt lat="29.011988" lon="104.77271"><ele>327.56323</ele><time>2026-04-04T21:14:59.000Z</time></trkpt>
        <trkpt lat="29.011933" lon="104.772699"><ele>328.2271</ele><time>2026-04-04T21:15:03.000Z</time></trkpt>
        <trkpt lat="29.011884" lon="104.772691"><ele>328.86362</ele><time>2026-04-04T21:15:07.000Z</time></trkpt>
        <trkpt lat="29.011838" lon="104.772675"><ele>329.68872</ele><time>2026-04-04T21:15:10.000Z</time></trkpt>
        <trkpt lat="29.011786" lon="104.772653"><ele>329.7699</ele><time>2026-04-04T21:15:14.000Z</time></trkpt>
        <trkpt lat="29.011737" lon="104.772642"><ele>328.94733</ele><time>2026-04-04T21:15:18.000Z</time></trkpt>
        <trkpt lat="29.011701" lon="104.77261"><ele>329.71863</ele><time>2026-04-04T21:15:26.000Z</time></trkpt>
        <trkpt lat="29.011652" lon="104.772586"><ele>330.84152</ele><time>2026-04-04T21:15:31.000Z</time></trkpt>
        <trkpt lat="29.011606" lon="104.772567"><ele>331.25784</ele><time>2026-04-04T21:15:35.000Z</time></trkpt>
        <trkpt lat="29.011558" lon="104.772558"><ele>332.29077</ele><time>2026-04-04T21:15:39.000Z</time></trkpt>
        <trkpt lat="29.011515" lon="104.772574"><ele>331.7431</ele><time>2026-04-04T21:16:05.000Z</time></trkpt>
        <trkpt lat="29.011465" lon="104.772566"><ele>332.41724</ele><time>2026-04-04T21:16:11.000Z</time></trkpt>
        <trkpt lat="29.011421" lon="104.772544"><ele>333.1088</ele><time>2026-04-04T21:16:16.000Z</time></trkpt>
        <trkpt lat="29.011392" lon="104.77249"><ele>333.52655</ele><time>2026-04-04T21:16:18.000Z</time></trkpt>
        <trkpt lat="29.011351" lon="104.772467"><ele>331.42365</ele><time>2026-04-04T21:16:24.000Z</time></trkpt>
        <trkpt lat="29.011352" lon="104.772519"><ele>330.01947</ele><time>2026-04-04T21:16:44.000Z</time></trkpt>
        <trkpt lat="29.011312" lon="104.772489"><ele>330.45447</ele><time>2026-04-04T21:17:00.000Z</time></trkpt>
        <trkpt lat="29.011278" lon="104.772453"><ele>329.29932</ele><time>2026-04-04T21:17:05.000Z</time></trkpt>
        <trkpt lat="29.011242" lon="104.772414"><ele>328.59998</ele><time>2026-04-04T21:17:11.000Z</time></trkpt>
        <trkpt lat="29.011198" lon="104.772371"><ele>327.717</ele><time>2026-04-04T21:17:17.000Z</time></trkpt>
        <trkpt lat="29.011161" lon="104.772316"><ele>325.7009</ele><time>2026-04-04T21:17:22.000Z</time></trkpt>
        <trkpt lat="29.011126" lon="104.772282"><ele>324.79385</ele><time>2026-04-04T21:17:31.000Z</time></trkpt>
        <trkpt lat="29.01109" lon="104.772251"><ele>323.10275</ele><time>2026-04-04T21:17:36.000Z</time></trkpt>
        <trkpt lat="29.011048" lon="104.772228"><ele>322.59238</ele><time>2026-04-04T21:17:40.000Z</time></trkpt>
        <trkpt lat="29.011001" lon="104.772241"><ele>322.96332</ele><time>2026-04-04T21:17:54.000Z</time></trkpt>
        <trkpt lat="29.010955" lon="104.772256"><ele>323.30237</ele><time>2026-04-04T21:18:05.000Z</time></trkpt>
        <trkpt lat="29.010908" lon="104.772265"><ele>322.10025</ele><time>2026-04-04T21:18:10.000Z</time></trkpt>
        <trkpt lat="29.010855" lon="104.772285"><ele>322.12653</ele><time>2026-04-04T21:18:15.000Z</time></trkpt>
        <trkpt lat="29.010797" lon="104.772299"><ele>322.07135</ele><time>2026-04-04T21:18:20.000Z</time></trkpt>
        <trkpt lat="29.010739" lon="104.772315"><ele>320.16727</ele><time>2026-04-04T21:18:25.000Z</time></trkpt>
        <trkpt lat="29.010686" lon="104.772308"><ele>319.22855</ele><time>2026-04-04T21:18:28.000Z</time></trkpt>
        <trkpt lat="29.010632" lon="104.772322"><ele>320.44125</ele><time>2026-04-04T21:18:32.000Z</time></trkpt>
        <trkpt lat="29.010592" lon="104.772351"><ele>320.63046</ele><time>2026-04-04T21:18:36.000Z</time></trkpt>
        <trkpt lat="29.010547" lon="104.772359"><ele>321.13348</ele><time>2026-04-04T21:18:40.000Z</time></trkpt>
        <trkpt lat="29.010497" lon="104.772376"><ele>321.9963</ele><time>2026-04-04T21:18:45.000Z</time></trkpt>
        <trkpt lat="29.010452" lon="104.772391"><ele>321.85147</ele><time>2026-04-04T21:18:50.000Z</time></trkpt>
        <trkpt lat="29.010419" lon="104.772433"><ele>322.06485</ele><time>2026-04-04T21:18:57.000Z</time></trkpt>
        <trkpt lat="29.01038" lon="104.772405"><ele>322.92734</ele><time>2026-04-04T21:19:17.000Z</time></trkpt>
        <trkpt lat="29.010329" lon="104.772392"><ele>322.46814</ele><time>2026-04-04T21:19:44.000Z</time></trkpt>
        <trkpt lat="29.010277" lon="104.772396"><ele>322.20816</ele><time>2026-04-04T21:20:08.000Z</time></trkpt>
        <trkpt lat="29.010236" lon="104.772423"><ele>321.65283</ele><time>2026-04-04T21:20:18.000Z</time></trkpt>
        <trkpt lat="29.01019" lon="104.772443"><ele>322.43484</ele><time>2026-04-04T21:20:34.000Z</time></trkpt>
        <trkpt lat="29.010145" lon="104.772457"><ele>321.80917</ele><time>2026-04-04T21:20:41.000Z</time></trkpt>
        <trkpt lat="29.010098" lon="104.77245"><ele>322.1207</ele><time>2026-04-04T21:20:50.000Z</time></trkpt>
        <trkpt lat="29.010058" lon="104.772491"><ele>321.44202</ele><time>2026-04-04T21:21:12.000Z</time></trkpt>
        <trkpt lat="29.010018" lon="104.772528"><ele>322.0932</ele><time>2026-04-04T21:21:17.000Z</time></trkpt>
        <trkpt lat="29.009978" lon="104.772559"><ele>322.2559</ele><time>2026-04-04T21:21:23.000Z</time></trkpt>
        <trkpt lat="29.009945" lon="104.772598"><ele>323.2273</ele><time>2026-04-04T21:22:05.000Z</time></trkpt>
        <trkpt lat="29.009899" lon="104.772596"><ele>323.13992</ele><time>2026-04-04T21:22:18.000Z</time></trkpt>
        <trkpt lat="29.009855" lon="104.772626"><ele>320.77695</ele><time>2026-04-04T21:22:25.000Z</time></trkpt>
        <trkpt lat="29.009811" lon="104.772646"><ele>319.4334</ele><time>2026-04-04T21:22:32.000Z</time></trkpt>
        <trkpt lat="29.00979" lon="104.772693"><ele>313.34784</ele><time>2026-04-04T21:23:22.000Z</time></trkpt>
        <trkpt lat="29.00977" lon="104.77274"><ele>312.59598</ele><time>2026-04-04T21:23:33.000Z</time></trkpt>
        <trkpt lat="29.009673" lon="104.772775"><ele>322.3809</ele><time>2026-04-04T21:23:50.000Z</time></trkpt>
        <trkpt lat="29.009627" lon="104.772763"><ele>323.1436</ele><time>2026-04-04T21:24:09.000Z</time></trkpt>
        <trkpt lat="29.009585" lon="104.772787"><ele>322.90985</ele><time>2026-04-04T21:24:18.000Z</time></trkpt>
        <trkpt lat="29.009538" lon="104.77277"><ele>321.92804</ele><time>2026-04-04T21:24:27.000Z</time></trkpt>
        <trkpt lat="29.009496" lon="104.772803"><ele>320.4952</ele><time>2026-04-04T21:24:38.000Z</time></trkpt>
        <trkpt lat="29.009457" lon="104.772834"><ele>320.86197</ele><time>2026-04-04T21:24:48.000Z</time></trkpt>
        <trkpt lat="29.009412" lon="104.772852"><ele>321.0698</ele><time>2026-04-04T21:24:58.000Z</time></trkpt>
        <trkpt lat="29.009363" lon="104.772857"><ele>320.65793</ele><time>2026-04-04T21:25:09.000Z</time></trkpt>
        <trkpt lat="29.009326" lon="104.772892"><ele>320.69214</ele><time>2026-04-04T21:25:39.000Z</time></trkpt>
        <trkpt lat="29.009289" lon="104.772929"><ele>319.56158</ele><time>2026-04-04T21:25:47.000Z</time></trkpt>
        <trkpt lat="29.009242" lon="104.772937"><ele>318.81412</ele><time>2026-04-04T21:25:53.000Z</time></trkpt>
        <trkpt lat="29.009197" lon="104.772948"><ele>317.76895</ele><time>2026-04-04T21:25:59.000Z</time></trkpt>
        <trkpt lat="29.00914" lon="104.772967"><ele>316.2832</ele><time>2026-04-04T21:26:04.000Z</time></trkpt>
        <trkpt lat="29.009099" lon="104.772996"><ele>317.21075</ele><time>2026-04-04T21:26:09.000Z</time></trkpt>
        <trkpt lat="29.009051" lon="104.772989"><ele>317.36124</ele><time>2026-04-04T21:26:14.000Z</time></trkpt>
        <trkpt lat="29.008997" lon="104.772997"><ele>316.95004</ele><time>2026-04-04T21:26:19.000Z</time></trkpt>
        <trkpt lat="29.008954" lon="104.772974"><ele>316.5864</ele><time>2026-04-04T21:26:24.000Z</time></trkpt>
        <trkpt lat="29.008936" lon="104.772918"><ele>317.26938</ele><time>2026-04-04T21:26:31.000Z</time></trkpt>
        <trkpt lat="29.008904" lon="104.772879"><ele>317.13156</ele><time>2026-04-04T21:26:39.000Z</time></trkpt>
        <trkpt lat="29.008902" lon="104.772827"><ele>317.09067</ele><time>2026-04-04T21:26:48.000Z</time></trkpt>
        <trkpt lat="29.008906" lon="104.772767"><ele>316.6803</ele><time>2026-04-04T21:27:22.000Z</time></trkpt>
        <trkpt lat="29.008908" lon="104.772708"><ele>315.4948</ele><time>2026-04-04T21:27:28.000Z</time></trkpt>
        <trkpt lat="29.008891" lon="104.772655"><ele>315.95078</ele><time>2026-04-04T21:27:34.000Z</time></trkpt>
        <trkpt lat="29.008891" lon="104.772602"><ele>314.99448</ele><time>2026-04-04T21:27:38.000Z</time></trkpt>
        <trkpt lat="29.008882" lon="104.772547"><ele>313.00034</ele><time>2026-04-04T21:27:43.000Z</time></trkpt>
        <trkpt lat="29.008878" lon="104.772481"><ele>312.48538</ele><time>2026-04-04T21:27:48.000Z</time></trkpt>
        <trkpt lat="29.008867" lon="104.772418"><ele>312.94678</ele><time>2026-04-04T21:27:53.000Z</time></trkpt>
        <trkpt lat="29.008849" lon="104.772363"><ele>311.7049</ele><time>2026-04-04T21:27:58.000Z</time></trkpt>
        <trkpt lat="29.00882" lon="104.77231"><ele>312.18332</ele><time>2026-04-04T21:28:03.000Z</time></trkpt>
        <trkpt lat="29.008781" lon="104.772272"><ele>311.65305</ele><time>2026-04-04T21:28:08.000Z</time></trkpt>
        <trkpt lat="29.00873" lon="104.772255"><ele>312.0617</ele><time>2026-04-04T21:28:13.000Z</time></trkpt>
        <trkpt lat="29.008675" lon="104.772253"><ele>314.4296</ele><time>2026-04-04T21:28:21.000Z</time></trkpt>
        <trkpt lat="29.008629" lon="104.772243"><ele>315.57562</ele><time>2026-04-04T21:28:29.000Z</time></trkpt>
        <trkpt lat="29.008579" lon="104.772249"><ele>317.242</ele><time>2026-04-04T21:28:37.000Z</time></trkpt>
        <trkpt lat="29.008529" lon="104.772245"><ele>318.77988</ele><time>2026-04-04T21:28:42.000Z</time></trkpt>
        <trkpt lat="29.008479" lon="104.772223"><ele>318.8747</ele><time>2026-04-04T21:28:46.000Z</time></trkpt>
        <trkpt lat="29.008433" lon="104.772226"><ele>319.44922</ele><time>2026-04-04T21:28:50.000Z</time></trkpt>
        <trkpt lat="29.008389" lon="104.77221"><ele>319.4611</ele><time>2026-04-04T21:28:56.000Z</time></trkpt>
        <trkpt lat="29.008345" lon="104.772189"><ele>319.5367</ele><time>2026-04-04T21:29:00.000Z</time></trkpt>
        <trkpt lat="29.0083" lon="104.772102"><ele>318.7233</ele><time>2026-04-04T21:29:27.000Z</time></trkpt>
        <trkpt lat="29.008298" lon="104.772166"><ele>318.67157</ele><time>2026-04-04T21:29:28.000Z</time></trkpt>
        <trkpt lat="29.008155" lon="104.772066"><ele>318.83203</ele><time>2026-04-04T21:30:04.000Z</time></trkpt>
        <trkpt lat="29.008107" lon="104.772015"><ele>319.4358</ele><time>2026-04-04T21:30:12.000Z</time></trkpt>
        <trkpt lat="29.008062" lon="104.771989"><ele>319.6156</ele><time>2026-04-04T21:30:17.000Z</time></trkpt>
        <trkpt lat="29.008014" lon="104.771975"><ele>319.64258</ele><time>2026-04-04T21:30:21.000Z</time></trkpt>
        <trkpt lat="29.007977" lon="104.771941"><ele>320.32117</ele><time>2026-04-04T21:30:25.000Z</time></trkpt>
        <trkpt lat="29.007916" lon="104.771936"><ele>321.35144</ele><time>2026-04-04T21:30:37.000Z</time></trkpt>
        <trkpt lat="29.007869" lon="104.77194"><ele>321.4071</ele><time>2026-04-04T21:30:45.000Z</time></trkpt>
        <trkpt lat="29.007886" lon="104.77199"><ele>323.73483</ele><time>2026-04-04T21:31:05.000Z</time></trkpt>
        <trkpt lat="29.007894" lon="104.771939"><ele>323.143</ele><time>2026-04-04T21:31:34.000Z</time></trkpt>
        <trkpt lat="29.007934" lon="104.771907"><ele>320.36047</ele><time>2026-04-04T21:32:01.000Z</time></trkpt>
        <trkpt lat="29.00791" lon="104.77184"><ele>321.1215</ele><time>2026-04-04T21:32:30.000Z</time></trkpt>
        <trkpt lat="29.007966" lon="104.771799"><ele>318.25354</ele><time>2026-04-04T21:33:05.000Z</time></trkpt>
        <trkpt lat="29.007974" lon="104.771745"><ele>317.2429</ele><time>2026-04-04T21:33:20.000Z</time></trkpt>
        <trkpt lat="29.008006" lon="104.771699"><ele>316.211</ele><time>2026-04-04T21:33:31.000Z</time></trkpt>
        <trkpt lat="29.00804" lon="104.771665"><ele>315.20923</ele><time>2026-04-04T21:33:37.000Z</time></trkpt>
        <trkpt lat="29.008063" lon="104.771612"><ele>313.3175</ele><time>2026-04-04T21:33:46.000Z</time></trkpt>
        <trkpt lat="29.008098" lon="104.771578"><ele>312.72668</ele><time>2026-04-04T21:33:51.000Z</time></trkpt>
        <trkpt lat="29.008108" lon="104.77152"><ele>312.03647</ele><time>2026-04-04T21:33:57.000Z</time></trkpt>
        <trkpt lat="29.008092" lon="104.771467"><ele>312.22293</ele><time>2026-04-04T21:34:02.000Z</time></trkpt>
        <trkpt lat="29.008088" lon="104.771415"><ele>313.4408</ele><time>2026-04-04T21:34:24.000Z</time></trkpt>
        <trkpt lat="29.008069" lon="104.771368"><ele>313.7706</ele><time>2026-04-04T21:34:36.000Z</time></trkpt>
        <trkpt lat="29.008046" lon="104.771311"><ele>312.74136</ele><time>2026-04-04T21:34:43.000Z</time></trkpt>
        <trkpt lat="29.008023" lon="104.771261"><ele>312.18484</ele><time>2026-04-04T21:35:29.000Z</time></trkpt>
        <trkpt lat="29.007994" lon="104.771214"><ele>312.42615</ele><time>2026-04-04T21:35:34.000Z</time></trkpt>
        <trkpt lat="29.007959" lon="104.771174"><ele>314.17603</ele><time>2026-04-04T21:35:38.000Z</time></trkpt>
        <trkpt lat="29.007923" lon="104.771124"><ele>316.29248</ele><time>2026-04-04T21:35:42.000Z</time></trkpt>
        <trkpt lat="29.007881" lon="104.77108"><ele>317.94894</ele><time>2026-04-04T21:35:52.000Z</time></trkpt>
        <trkpt lat="29.007845" lon="104.771045"><ele>317.52042</ele><time>2026-04-04T21:35:56.000Z</time></trkpt>
        <trkpt lat="29.007806" lon="104.771003"><ele>317.34036</ele><time>2026-04-04T21:36:01.000Z</time></trkpt>
        <trkpt lat="29.007867" lon="104.771038"><ele>316.2717</ele><time>2026-04-04T21:36:11.000Z</time></trkpt>
        <trkpt lat="29.007917" lon="104.771036"><ele>316.84232</ele><time>2026-04-04T21:36:14.000Z</time></trkpt>
        <trkpt lat="29.007968" lon="104.771038"><ele>317.14752</ele><time>2026-04-04T21:36:20.000Z</time></trkpt>
        <trkpt lat="29.008025" lon="104.771045"><ele>317.2035</ele><time>2026-04-04T21:36:25.000Z</time></trkpt>
        <trkpt lat="29.008043" lon="104.771101"><ele>317.27365</ele><time>2026-04-04T21:36:31.000Z</time></trkpt>
        <trkpt lat="29.008058" lon="104.771052"><ele>316.86465</ele><time>2026-04-04T21:37:10.000Z</time></trkpt>
        <trkpt lat="29.00804" lon="104.7711"><ele>316.2917</ele><time>2026-04-04T21:37:43.000Z</time></trkpt>
        <trkpt lat="29.008065" lon="104.771143"><ele>317.18738</ele><time>2026-04-04T21:38:28.000Z</time></trkpt>
        <trkpt lat="29.008066" lon="104.771146"><ele>317.07755</ele><time>2026-04-04T21:38:45.000Z</time></trkpt>
        <trkpt lat="29.008047" lon="104.771085"><ele>317.01813</ele><time>2026-04-04T21:39:00.000Z</time></trkpt>
        <trkpt lat="29.008099" lon="104.771094"><ele>316.81378</ele><time>2026-04-04T21:40:13.000Z</time></trkpt>
        <trkpt lat="29.008147" lon="104.771092"><ele>316.08798</ele><time>2026-04-04T21:41:45.000Z</time></trkpt>
        <trkpt lat="29.008111" lon="104.77103"><ele>317.01935</ele><time>2026-04-04T21:42:55.000Z</time></trkpt>
        <trkpt lat="29.008071" lon="104.770999"><ele>317.43362</ele><time>2026-04-04T21:43:09.000Z</time></trkpt>
        <trkpt lat="29.00802" lon="104.77099"><ele>317.79977</ele><time>2026-04-04T21:43:23.000Z</time></trkpt>
        <trkpt lat="29.007981" lon="104.771016"><ele>316.86917</ele><time>2026-04-04T21:43:35.000Z</time></trkpt>
        <trkpt lat="29.007929" lon="104.770998"><ele>316.52374</ele><time>2026-04-04T21:43:51.000Z</time></trkpt>
        <trkpt lat="29.00789" lon="104.771044"><ele>317.36688</ele><time>2026-04-04T21:44:00.000Z</time></trkpt>
        <trkpt lat="29.007843" lon="104.771052"><ele>317.38446</ele><time>2026-04-04T21:44:17.000Z</time></trkpt>
        <trkpt lat="29.007809" lon="104.771014"><ele>315.61856</ele><time>2026-04-04T21:44:32.000Z</time></trkpt>
        <trkpt lat="29.007789" lon="104.77096"><ele>315.03317</ele><time>2026-04-04T21:44:44.000Z</time></trkpt>
        <trkpt lat="29.007774" lon="104.770905"><ele>314.68958</ele><time>2026-04-04T21:44:53.000Z</time></trkpt>
        <trkpt lat="29.007725" lon="104.770888"><ele>316.2655</ele><time>2026-04-04T21:45:52.000Z</time></trkpt>
        <trkpt lat="29.007647" lon="104.77082"><ele>315.22702</ele><time>2026-04-04T21:46:04.000Z</time></trkpt>
        <trkpt lat="29.007625" lon="104.770774"><ele>317.59113</ele><time>2026-04-04T21:46:11.000Z</time></trkpt>
        <trkpt lat="29.007615" lon="104.770715"><ele>319.03964</ele><time>2026-04-04T21:46:19.000Z</time></trkpt>
        <trkpt lat="29.007611" lon="104.770656"><ele>319.31613</ele><time>2026-04-04T21:46:28.000Z</time></trkpt>
        <trkpt lat="29.007658" lon="104.770636"><ele>317.39212</ele><time>2026-04-04T21:47:27.000Z</time></trkpt>
        <trkpt lat="29.007652" lon="104.770575"><ele>317.88147</ele><time>2026-04-04T21:47:37.000Z</time></trkpt>
        <trkpt lat="29.007635" lon="104.770516"><ele>318.5992</ele><time>2026-04-04T21:47:42.000Z</time></trkpt>
        <trkpt lat="29.007616" lon="104.770469"><ele>319.1842</ele><time>2026-04-04T21:47:46.000Z</time></trkpt>
        <trkpt lat="29.007576" lon="104.770416"><ele>320.31506</ele><time>2026-04-04T21:47:51.000Z</time></trkpt>
        <trkpt lat="29.007546" lon="104.770363"><ele>320.80945</ele><time>2026-04-04T21:47:57.000Z</time></trkpt>
        <trkpt lat="29.007515" lon="104.770317"><ele>321.00464</ele><time>2026-04-04T21:48:02.000Z</time></trkpt>
        <trkpt lat="29.007533" lon="104.770269"><ele>319.73108</ele><time>2026-04-04T21:48:11.000Z</time></trkpt>
        <trkpt lat="29.007501" lon="104.770233"><ele>320.99268</ele><time>2026-04-04T21:48:28.000Z</time></trkpt>
        <trkpt lat="29.00752" lon="104.77018"><ele>320.47043</ele><time>2026-04-04T21:48:35.000Z</time></trkpt>
        <trkpt lat="29.007548" lon="104.770138"><ele>320.7875</ele><time>2026-04-04T21:48:45.000Z</time></trkpt>
        <trkpt lat="29.007561" lon="104.770082"><ele>321.48288</ele><time>2026-04-04T21:48:54.000Z</time></trkpt>
        <trkpt lat="29.007589" lon="104.770032"><ele>322.2817</ele><time>2026-04-04T21:49:04.000Z</time></trkpt>
        <trkpt lat="29.007623" lon="104.769992"><ele>323.47607</ele><time>2026-04-04T21:49:14.000Z</time></trkpt>
        <trkpt lat="29.007632" lon="104.769921"><ele>323.22113</ele><time>2026-04-04T21:49:29.000Z</time></trkpt>
        <trkpt lat="29.007658" lon="104.769878"><ele>323.69882</ele><time>2026-04-04T21:49:55.000Z</time></trkpt>
        <trkpt lat="29.007682" lon="104.769828"><ele>323.95813</ele><time>2026-04-04T21:50:03.000Z</time></trkpt>
        <trkpt lat="29.007725" lon="104.769807"><ele>324.87732</ele><time>2026-04-04T21:50:08.000Z</time></trkpt>
        <trkpt lat="29.007745" lon="104.769747"><ele>326.63736</ele><time>2026-04-04T21:50:15.000Z</time></trkpt>
        <trkpt lat="29.007759" lon="104.769694"><ele>328.25616</ele><time>2026-04-04T21:50:20.000Z</time></trkpt>
        <trkpt lat="29.007777" lon="104.769642"><ele>329.35312</ele><time>2026-04-04T21:50:28.000Z</time></trkpt>
        <trkpt lat="29.007788" lon="104.76959"><ele>330.32083</ele><time>2026-04-04T21:50:36.000Z</time></trkpt>
        <trkpt lat="29.007767" lon="104.769541"><ele>331.04037</ele><time>2026-04-04T21:50:41.000Z</time></trkpt>
        <trkpt lat="29.007791" lon="104.769496"><ele>331.42596</ele><time>2026-04-04T21:51:05.000Z</time></trkpt>
        <trkpt lat="29.007812" lon="104.76944"><ele>331.54977</ele><time>2026-04-04T21:51:15.000Z</time></trkpt>
        <trkpt lat="29.007816" lon="104.769387"><ele>331.24716</ele><time>2026-04-04T21:51:23.000Z</time></trkpt>
        <trkpt lat="29.007815" lon="104.769326"><ele>330.5795</ele><time>2026-04-04T21:51:31.000Z</time></trkpt>
        <trkpt lat="29.007847" lon="104.769274"><ele>330.56537</ele><time>2026-04-04T21:51:37.000Z</time></trkpt>
        <trkpt lat="29.007879" lon="104.769234"><ele>330.7416</ele><time>2026-04-04T21:51:42.000Z</time></trkpt>
        <trkpt lat="29.007914" lon="104.7692"><ele>331.25824</ele><time>2026-04-04T21:51:46.000Z</time></trkpt>
        <trkpt lat="29.007954" lon="104.769173"><ele>331.76163</ele><time>2026-04-04T21:51:51.000Z</time></trkpt>
        <trkpt lat="29.007965" lon="104.769229"><ele>333.5055</ele><time>2026-04-04T21:51:55.000Z</time></trkpt>
        <trkpt lat="29.007953" lon="104.769283"><ele>334.54486</ele><time>2026-04-04T21:51:59.000Z</time></trkpt>
        <trkpt lat="29.007948" lon="104.769344"><ele>335.22482</ele><time>2026-04-04T21:52:05.000Z</time></trkpt>
        <trkpt lat="29.00794" lon="104.769403"><ele>335.52414</ele><time>2026-04-04T21:52:15.000Z</time></trkpt>
        <trkpt lat="29.007913" lon="104.769451"><ele>335.21582</ele><time>2026-04-04T21:52:26.000Z</time></trkpt>
        <trkpt lat="29.007941" lon="104.769402"><ele>333.92572</ele><time>2026-04-04T21:53:08.000Z</time></trkpt>
        <trkpt lat="29.007945" lon="104.76935"><ele>333.3407</ele><time>2026-04-04T21:53:13.000Z</time></trkpt>
        <trkpt lat="29.00795" lon="104.769292"><ele>333.7855</ele><time>2026-04-04T21:53:20.000Z</time></trkpt>
        <trkpt lat="29.007956" lon="104.76922"><ele>333.57538</ele><time>2026-04-04T21:53:26.000Z</time></trkpt>
        <trkpt lat="29.007965" lon="104.76915"><ele>333.3165</ele><time>2026-04-04T21:53:31.000Z</time></trkpt>
        <trkpt lat="29.007985" lon="104.7691"><ele>333.20462</ele><time>2026-04-04T21:53:34.000Z</time></trkpt>
        <trkpt lat="29.008017" lon="104.769064"><ele>334.09946</ele><time>2026-04-04T21:53:40.000Z</time></trkpt>
        <trkpt lat="29.008055" lon="104.769021"><ele>334.96698</ele><time>2026-04-04T21:53:46.000Z</time></trkpt>
        <trkpt lat="29.008095" lon="104.768978"><ele>335.43375</ele><time>2026-04-04T21:53:53.000Z</time></trkpt>
        <trkpt lat="29.008116" lon="104.76893"><ele>337.2705</ele><time>2026-04-04T21:53:59.000Z</time></trkpt>
        <trkpt lat="29.008145" lon="104.768884"><ele>337.923</ele><time>2026-04-04T21:54:04.000Z</time></trkpt>
        <trkpt lat="29.008161" lon="104.768835"><ele>337.6361</ele><time>2026-04-04T21:54:10.000Z</time></trkpt>
        <trkpt lat="29.008202" lon="104.768799"><ele>338.26074</ele><time>2026-04-04T21:54:15.000Z</time></trkpt>
        <trkpt lat="29.008244" lon="104.768759"><ele>338.44183</ele><time>2026-04-04T21:54:20.000Z</time></trkpt>
        <trkpt lat="29.008277" lon="104.768719"><ele>338.53442</ele><time>2026-04-04T21:54:26.000Z</time></trkpt>
        <trkpt lat="29.008312" lon="104.768682"><ele>338.4678</ele><time>2026-04-04T21:54:31.000Z</time></trkpt>
        <trkpt lat="29.008341" lon="104.768631"><ele>338.46024</ele><time>2026-04-04T21:54:39.000Z</time></trkpt>
        <trkpt lat="29.008374" lon="104.768594"><ele>338.3829</ele><time>2026-04-04T21:54:45.000Z</time></trkpt>
        <trkpt lat="29.008404" lon="104.768551"><ele>337.94727</ele><time>2026-04-04T21:54:51.000Z</time></trkpt>
        <trkpt lat="29.008424" lon="104.7685"><ele>337.92374</ele><time>2026-04-04T21:54:58.000Z</time></trkpt>
        <trkpt lat="29.00841" lon="104.768444"><ele>338.41696</ele><time>2026-04-04T21:55:07.000Z</time></trkpt>
        <trkpt lat="29.008411" lon="104.76839"><ele>339.40503</ele><time>2026-04-04T21:55:15.000Z</time></trkpt>
        <trkpt lat="29.008377" lon="104.768353"><ele>339.71994</ele><time>2026-04-04T21:55:23.000Z</time></trkpt>
        <trkpt lat="29.008385" lon="104.768302"><ele>339.67377</ele><time>2026-04-04T21:55:28.000Z</time></trkpt>
        <trkpt lat="29.008392" lon="104.768247"><ele>339.83154</ele><time>2026-04-04T21:55:34.000Z</time></trkpt>
        <trkpt lat="29.008378" lon="104.768194"><ele>339.99823</ele><time>2026-04-04T21:55:40.000Z</time></trkpt>
        <trkpt lat="29.008394" lon="104.768143"><ele>340.00244</ele><time>2026-04-04T21:55:44.000Z</time></trkpt>
        <trkpt lat="29.00843" lon="104.768101"><ele>339.04932</ele><time>2026-04-04T21:55:50.000Z</time></trkpt>
        <trkpt lat="29.008433" lon="104.768044"><ele>339.33224</ele><time>2026-04-04T21:55:53.000Z</time></trkpt>
        <trkpt lat="29.008442" lon="104.767986"><ele>338.76514</ele><time>2026-04-04T21:55:58.000Z</time></trkpt>
        <trkpt lat="29.008432" lon="104.767934"><ele>339.61612</ele><time>2026-04-04T21:56:10.000Z</time></trkpt>
        <trkpt lat="29.008432" lon="104.76788"><ele>340.80484</ele><time>2026-04-04T21:56:20.000Z</time></trkpt>
        <trkpt lat="29.00844" lon="104.767827"><ele>341.81522</ele><time>2026-04-04T21:56:29.000Z</time></trkpt>
        <trkpt lat="29.008422" lon="104.767763"><ele>342.82364</ele><time>2026-04-04T21:56:35.000Z</time></trkpt>
        <trkpt lat="29.008411" lon="104.767712"><ele>343.06912</ele><time>2026-04-04T21:56:38.000Z</time></trkpt>
        <trkpt lat="29.008394" lon="104.767651"><ele>344.22162</ele><time>2026-04-04T21:56:42.000Z</time></trkpt>
        <trkpt lat="29.008381" lon="104.767592"><ele>345.0693</ele><time>2026-04-04T21:56:48.000Z</time></trkpt>
        <trkpt lat="29.008375" lon="104.767539"><ele>344.25787</ele><time>2026-04-04T21:56:55.000Z</time></trkpt>
        <trkpt lat="29.00839" lon="104.767479"><ele>344.44815</ele><time>2026-04-04T21:57:00.000Z</time></trkpt>
        <trkpt lat="29.008397" lon="104.767429"><ele>344.28793</ele><time>2026-04-04T21:57:09.000Z</time></trkpt>
        <trkpt lat="29.00843" lon="104.767384"><ele>345.11447</ele><time>2026-04-04T21:57:22.000Z</time></trkpt>
        <trkpt lat="29.008478" lon="104.767354"><ele>343.67422</ele><time>2026-04-04T21:57:27.000Z</time></trkpt>
        <trkpt lat="29.008518" lon="104.767317"><ele>343.048</ele><time>2026-04-04T21:57:32.000Z</time></trkpt>
        <trkpt lat="29.008558" lon="104.767282"><ele>341.20523</ele><time>2026-04-04T21:57:40.000Z</time></trkpt>
        <trkpt lat="29.008604" lon="104.767265"><ele>339.55246</ele><time>2026-04-04T21:57:56.000Z</time></trkpt>
        <trkpt lat="29.008649" lon="104.767242"><ele>338.466</ele><time>2026-04-04T21:58:01.000Z</time></trkpt>
        <trkpt lat="29.008691" lon="104.76722"><ele>338.7097</ele><time>2026-04-04T21:58:09.000Z</time></trkpt>
        <trkpt lat="29.008648" lon="104.767237"><ele>338.8866</ele><time>2026-04-04T21:58:24.000Z</time></trkpt>
      </trkseg>
      <trkseg>
        <trkpt lat="29.008876" lon="104.767069"><ele>337.06747</ele><time>2026-04-04T21:59:29.000Z</time></trkpt>
        <trkpt lat="29.008804" lon="104.767072"><ele>339.71555</ele><time>2026-04-04T21:59:33.000Z</time></trkpt>
        <trkpt lat="29.008823" lon="104.767122"><ele>341.66507</ele><time>2026-04-04T22:00:12.000Z</time></trkpt>
        <trkpt lat="29.008792" lon="104.76716"><ele>341.44046</ele><time>2026-04-04T22:00:37.000Z</time></trkpt>
        <trkpt lat="29.008745" lon="104.767181"><ele>341.32843</ele><time>2026-04-04T22:00:41.000Z</time></trkpt>
        <trkpt lat="29.008703" lon="104.767203"><ele>341.34335</ele><time>2026-04-04T22:00:45.000Z</time></trkpt>
        <trkpt lat="29.008661" lon="104.767222"><ele>341.7538</ele><time>2026-04-04T22:00:49.000Z</time></trkpt>
        <trkpt lat="29.008618" lon="104.76724"><ele>341.89343</ele><time>2026-04-04T22:00:53.000Z</time></trkpt>
        <trkpt lat="29.008567" lon="104.767254"><ele>341.18582</ele><time>2026-04-04T22:00:58.000Z</time></trkpt>
        <trkpt lat="29.008531" lon="104.767295"><ele>343.11652</ele><time>2026-04-04T22:01:03.000Z</time></trkpt>
        <trkpt lat="29.008479" lon="104.767319"><ele>344.4541</ele><time>2026-04-04T22:01:08.000Z</time></trkpt>
        <trkpt lat="29.008431" lon="104.767345"><ele>346.01</ele><time>2026-04-04T22:01:13.000Z</time></trkpt>
        <trkpt lat="29.008391" lon="104.767372"><ele>346.0544</ele><time>2026-04-04T22:01:18.000Z</time></trkpt>
        <trkpt lat="29.008354" lon="104.767413"><ele>347.7743</ele><time>2026-04-04T22:01:23.000Z</time></trkpt>
        <trkpt lat="29.008329" lon="104.767457"><ele>347.96588</ele><time>2026-04-04T22:01:27.000Z</time></trkpt>
        <trkpt lat="29.008315" lon="104.767512"><ele>348.08325</ele><time>2026-04-04T22:01:32.000Z</time></trkpt>
        <trkpt lat="29.008303" lon="104.767567"><ele>348.95883</ele><time>2026-04-04T22:01:38.000Z</time></trkpt>
        <trkpt lat="29.008304" lon="104.76762"><ele>348.94232</ele><time>2026-04-04T22:01:45.000Z</time></trkpt>
        <trkpt lat="29.008313" lon="104.767675"><ele>348.7009</ele><time>2026-04-04T22:01:53.000Z</time></trkpt>
        <trkpt lat="29.00833" lon="104.76773"><ele>348.15472</ele><time>2026-04-04T22:02:00.000Z</time></trkpt>
        <trkpt lat="29.00835" lon="104.767778"><ele>347.97107</ele><time>2026-04-04T22:02:07.000Z</time></trkpt>
        <trkpt lat="29.008366" lon="104.767827"><ele>347.44547</ele><time>2026-04-04T22:02:13.000Z</time></trkpt>
        <trkpt lat="29.008374" lon="104.767885"><ele>346.91656</ele><time>2026-04-04T22:02:18.000Z</time></trkpt>
        <trkpt lat="29.008375" lon="104.767942"><ele>345.63635</ele><time>2026-04-04T22:02:23.000Z</time></trkpt>
        <trkpt lat="29.008365" lon="104.768006"><ele>344.48346</ele><time>2026-04-04T22:02:33.000Z</time></trkpt>
        <trkpt lat="29.008351" lon="104.768056"><ele>343.8254</ele><time>2026-04-04T22:02:37.000Z</time></trkpt>
        <trkpt lat="29.008327" lon="104.768108"><ele>343.19376</ele><time>2026-04-04T22:02:43.000Z</time></trkpt>
        <trkpt lat="29.008315" lon="104.768172"><ele>343.4895</ele><time>2026-04-04T22:02:49.000Z</time></trkpt>
        <trkpt lat="29.008306" lon="104.768223"><ele>342.91876</ele><time>2026-04-04T22:02:54.000Z</time></trkpt>
        <trkpt lat="29.008307" lon="104.768277"><ele>342.47256</ele><time>2026-04-04T22:02:59.000Z</time></trkpt>
        <trkpt lat="29.008296" lon="104.768335"><ele>342.66946</ele><time>2026-04-04T22:03:04.000Z</time></trkpt>
        <trkpt lat="29.008303" lon="104.768392"><ele>341.7295</ele><time>2026-04-04T22:03:09.000Z</time></trkpt>
        <trkpt lat="29.008308" lon="104.768447"><ele>341.53955</ele><time>2026-04-04T22:03:14.000Z</time></trkpt>
        <trkpt lat="29.008316" lon="104.768506"><ele>341.32996</ele><time>2026-04-04T22:03:19.000Z</time></trkpt>
        <trkpt lat="29.008319" lon="104.768565"><ele>340.76828</ele><time>2026-04-04T22:03:26.000Z</time></trkpt>
        <trkpt lat="29.008311" lon="104.768617"><ele>340.25116</ele><time>2026-04-04T22:03:32.000Z</time></trkpt>
        <trkpt lat="29.008278" lon="104.76867"><ele>339.44516</ele><time>2026-04-04T22:03:48.000Z</time></trkpt>
        <trkpt lat="29.008254" lon="104.768717"><ele>338.62936</ele><time>2026-04-04T22:03:55.000Z</time></trkpt>
        <trkpt lat="29.008217" lon="104.768758"><ele>338.44858</ele><time>2026-04-04T22:04:06.000Z</time></trkpt>
        <trkpt lat="29.008171" lon="104.768805"><ele>337.12103</ele><time>2026-04-04T22:04:11.000Z</time></trkpt>
        <trkpt lat="29.008136" lon="104.76885"><ele>336.7755</ele><time>2026-04-04T22:04:16.000Z</time></trkpt>
        <trkpt lat="29.008096" lon="104.768885"><ele>336.7725</ele><time>2026-04-04T22:04:20.000Z</time></trkpt>
        <trkpt lat="29.008076" lon="104.768941"><ele>335.9038</ele><time>2026-04-04T22:04:24.000Z</time></trkpt>
        <trkpt lat="29.008038" lon="104.768985"><ele>335.31302</ele><time>2026-04-04T22:04:28.000Z</time></trkpt>
        <trkpt lat="29.008004" lon="104.769025"><ele>335.18097</ele><time>2026-04-04T22:04:32.000Z</time></trkpt>
        <trkpt lat="29.007972" lon="104.769063"><ele>335.08325</ele><time>2026-04-04T22:04:36.000Z</time></trkpt>
        <trkpt lat="29.007934" lon="104.769109"><ele>333.4066</ele><time>2026-04-04T22:04:41.000Z</time></trkpt>
        <trkpt lat="29.007896" lon="104.769137"><ele>331.92746</ele><time>2026-04-04T22:04:45.000Z</time></trkpt>
        <trkpt lat="29.00786" lon="104.769183"><ele>331.10205</ele><time>2026-04-04T22:04:50.000Z</time></trkpt>
        <trkpt lat="29.007832" lon="104.769228"><ele>331.25122</ele><time>2026-04-04T22:04:55.000Z</time></trkpt>
        <trkpt lat="29.007801" lon="104.769287"><ele>330.6509</ele><time>2026-04-04T22:05:00.000Z</time></trkpt>
        <trkpt lat="29.007775" lon="104.769344"><ele>330.03137</ele><time>2026-04-04T22:05:04.000Z</time></trkpt>
        <trkpt lat="29.007755" lon="104.7694"><ele>330.81467</ele><time>2026-04-04T22:05:08.000Z</time></trkpt>
        <trkpt lat="29.007743" lon="104.76946"><ele>330.9779</ele><time>2026-04-04T22:05:13.000Z</time></trkpt>
        <trkpt lat="29.007717" lon="104.769507"><ele>328.49332</ele><time>2026-04-04T22:05:18.000Z</time></trkpt>
        <trkpt lat="29.007698" lon="104.769557"><ele>326.74182</ele><time>2026-04-04T22:05:23.000Z</time></trkpt>
        <trkpt lat="29.007685" lon="104.76961"><ele>324.29523</ele><time>2026-04-04T22:05:28.000Z</time></trkpt>
        <trkpt lat="29.007676" lon="104.76967"><ele>322.23514</ele><time>2026-04-04T22:05:34.000Z</time></trkpt>
        <trkpt lat="29.00766" lon="104.769725"><ele>322.4997</ele><time>2026-04-04T22:05:39.000Z</time></trkpt>
        <trkpt lat="29.007652" lon="104.769775"><ele>318.61423</ele><time>2026-04-04T22:05:47.000Z</time></trkpt>
        <trkpt lat="29.007627" lon="104.769818"><ele>319.44626</ele><time>2026-04-04T22:05:52.000Z</time></trkpt>
        <trkpt lat="29.007589" lon="104.76986"><ele>319.6725</ele><time>2026-04-04T22:05:57.000Z</time></trkpt>
        <trkpt lat="29.007562" lon="104.769906"><ele>319.67264</ele><time>2026-04-04T22:06:02.000Z</time></trkpt>
        <trkpt lat="29.007539" lon="104.769959"><ele>318.17017</ele><time>2026-04-04T22:06:07.000Z</time></trkpt>
        <trkpt lat="29.007518" lon="104.770011"><ele>318.0724</ele><time>2026-04-04T22:06:14.000Z</time></trkpt>
        <trkpt lat="29.00749" lon="104.770057"><ele>318.77744</ele><time>2026-04-04T22:06:19.000Z</time></trkpt>
        <trkpt lat="29.007463" lon="104.770099"><ele>319.24203</ele><time>2026-04-04T22:06:22.000Z</time></trkpt>
        <trkpt lat="29.007457" lon="104.770158"><ele>318.73035</ele><time>2026-04-04T22:06:27.000Z</time></trkpt>
        <trkpt lat="29.007413" lon="104.770202"><ele>317.8342</ele><time>2026-04-04T22:06:56.000Z</time></trkpt>
        <trkpt lat="29.007389" lon="104.770252"><ele>316.39755</ele><time>2026-04-04T22:06:59.000Z</time></trkpt>
        <trkpt lat="29.00737" lon="104.770304"><ele>317.00082</ele><time>2026-04-04T22:07:11.000Z</time></trkpt>
        <trkpt lat="29.007363" lon="104.770355"><ele>318.49667</ele><time>2026-04-04T22:07:25.000Z</time></trkpt>
        <trkpt lat="29.007324" lon="104.770325"><ele>318.90195</ele><time>2026-04-04T22:07:51.000Z</time></trkpt>
        <trkpt lat="29.007293" lon="104.770285"><ele>318.03305</ele><time>2026-04-04T22:07:58.000Z</time></trkpt>
        <trkpt lat="29.007263" lon="104.770246"><ele>317.7648</ele><time>2026-04-04T22:08:05.000Z</time></trkpt>
        <trkpt lat="29.007213" lon="104.770241"><ele>317.56458</ele><time>2026-04-04T22:08:12.000Z</time></trkpt>
        <trkpt lat="29.007158" lon="104.770243"><ele>317.59222</ele><time>2026-04-04T22:08:19.000Z</time></trkpt>
        <trkpt lat="29.007104" lon="104.770241"><ele>318.65762</ele><time>2026-04-04T22:08:28.000Z</time></trkpt>
        <trkpt lat="29.007064" lon="104.770275"><ele>318.2366</ele><time>2026-04-04T22:08:36.000Z</time></trkpt>
        <trkpt lat="29.007011" lon="104.770272"><ele>319.10574</ele><time>2026-04-04T22:08:45.000Z</time></trkpt>
        <trkpt lat="29.006971" lon="104.770249"><ele>318.194</ele><time>2026-04-04T22:09:04.000Z</time></trkpt>
        <trkpt lat="29.006924" lon="104.770231"><ele>317.88885</ele><time>2026-04-04T22:09:09.000Z</time></trkpt>
        <trkpt lat="29.006876" lon="104.770219"><ele>318.4932</ele><time>2026-04-04T22:09:18.000Z</time></trkpt>
        <trkpt lat="29.006826" lon="104.770214"><ele>317.6314</ele><time>2026-04-04T22:09:23.000Z</time></trkpt>
        <trkpt lat="29.006779" lon="104.770205"><ele>318.72885</ele><time>2026-04-04T22:09:29.000Z</time></trkpt>
        <trkpt lat="29.00674" lon="104.770167"><ele>318.54218</ele><time>2026-04-04T22:09:35.000Z</time></trkpt>
        <trkpt lat="29.006702" lon="104.770126"><ele>319.5491</ele><time>2026-04-04T22:09:41.000Z</time></trkpt>
        <trkpt lat="29.006645" lon="104.770121"><ele>318.64447</ele><time>2026-04-04T22:09:47.000Z</time></trkpt>
        <trkpt lat="29.006593" lon="104.770137"><ele>318.6004</ele><time>2026-04-04T22:09:53.000Z</time></trkpt>
        <trkpt lat="29.006547" lon="104.770145"><ele>318.11145</ele><time>2026-04-04T22:09:57.000Z</time></trkpt>
        <trkpt lat="29.006513" lon="104.770195"><ele>317.49988</ele><time>2026-04-04T22:10:02.000Z</time></trkpt>
        <trkpt lat="29.006463" lon="104.770218"><ele>317.23343</ele><time>2026-04-04T22:10:07.000Z</time></trkpt>
        <trkpt lat="29.006413" lon="104.770209"><ele>316.7651</ele><time>2026-04-04T22:10:12.000Z</time></trkpt>
        <trkpt lat="29.006358" lon="104.770225"><ele>316.2535</ele><time>2026-04-04T22:10:17.000Z</time></trkpt>
        <trkpt lat="29.006312" lon="104.77023"><ele>316.0946</ele><time>2026-04-04T22:10:22.000Z</time></trkpt>
        <trkpt lat="29.006267" lon="104.770209"><ele>317.45868</ele><time>2026-04-04T22:10:27.000Z</time></trkpt>
        <trkpt lat="29.006227" lon="104.770239"><ele>316.89288</ele><time>2026-04-04T22:10:46.000Z</time></trkpt>
        <trkpt lat="29.006182" lon="104.770231"><ele>317.43414</ele><time>2026-04-04T22:10:50.000Z</time></trkpt>
        <trkpt lat="29.00614" lon="104.770263"><ele>317.9711</ele><time>2026-04-04T22:10:56.000Z</time></trkpt>
        <trkpt lat="29.006119" lon="104.770313"><ele>317.89114</ele><time>2026-04-04T22:11:07.000Z</time></trkpt>
        <trkpt lat="29.006067" lon="104.770308"><ele>318.0536</ele><time>2026-04-04T22:12:02.000Z</time></trkpt>
        <trkpt lat="29.006015" lon="104.770324"><ele>318.7287</ele><time>2026-04-04T22:12:07.000Z</time></trkpt>
        <trkpt lat="29.005992" lon="104.770374"><ele>317.8236</ele><time>2026-04-04T22:12:25.000Z</time></trkpt>
        <trkpt lat="29.005963" lon="104.77042"><ele>318.48642</ele><time>2026-04-04T22:12:36.000Z</time></trkpt>
        <trkpt lat="29.00591" lon="104.770407"><ele>317.7768</ele><time>2026-04-04T22:12:42.000Z</time></trkpt>
        <trkpt lat="29.005874" lon="104.77037"><ele>316.22766</ele><time>2026-04-04T22:12:51.000Z</time></trkpt>
        <trkpt lat="29.005834" lon="104.770337"><ele>317.31345</ele><time>2026-04-04T22:12:59.000Z</time></trkpt>
        <trkpt lat="29.005779" lon="104.77036"><ele>317.1267</ele><time>2026-04-04T22:13:13.000Z</time></trkpt>
        <trkpt lat="29.005724" lon="104.770372"><ele>318.2939</ele><time>2026-04-04T22:13:17.000Z</time></trkpt>
        <trkpt lat="29.005692" lon="104.770409"><ele>317.33585</ele><time>2026-04-04T22:13:36.000Z</time></trkpt>
        <trkpt lat="29.005645" lon="104.770398"><ele>318.24286</ele><time>2026-04-04T22:14:21.000Z</time></trkpt>
        <trkpt lat="29.005597" lon="104.770401"><ele>319.4798</ele><time>2026-04-04T22:14:30.000Z</time></trkpt>
        <trkpt lat="29.005555" lon="104.77038"><ele>321.05975</ele><time>2026-04-04T22:15:10.000Z</time></trkpt>
        <trkpt lat="29.005502" lon="104.770375"><ele>321.6936</ele><time>2026-04-04T22:15:17.000Z</time></trkpt>
        <trkpt lat="29.005455" lon="104.770368"><ele>322.60245</ele><time>2026-04-04T22:15:23.000Z</time></trkpt>
        <trkpt lat="29.005411" lon="104.770328"><ele>323.33755</ele><time>2026-04-04T22:16:00.000Z</time></trkpt>
        <trkpt lat="29.005368" lon="104.770311"><ele>323.6863</ele><time>2026-04-04T22:16:05.000Z</time></trkpt>
        <trkpt lat="29.005321" lon="104.770293"><ele>324.3053</ele><time>2026-04-04T22:16:09.000Z</time></trkpt>
        <trkpt lat="29.005279" lon="104.770314"><ele>325.3178</ele><time>2026-04-04T22:16:15.000Z</time></trkpt>
        <trkpt lat="29.005235" lon="104.770326"><ele>326.15198</ele><time>2026-04-04T22:16:21.000Z</time></trkpt>
        <trkpt lat="29.005179" lon="104.770309"><ele>327.5001</ele><time>2026-04-04T22:16:48.000Z</time></trkpt>
        <trkpt lat="29.005131" lon="104.770328"><ele>327.5825</ele><time>2026-04-04T22:16:54.000Z</time></trkpt>
        <trkpt lat="29.005094" lon="104.77036"><ele>327.74606</ele><time>2026-04-04T22:16:59.000Z</time></trkpt>
        <trkpt lat="29.005056" lon="104.770328"><ele>328.45584</ele><time>2026-04-04T22:17:04.000Z</time></trkpt>
        <trkpt lat="29.005007" lon="104.770337"><ele>328.56607</ele><time>2026-04-04T22:17:11.000Z</time></trkpt>
        <trkpt lat="29.004988" lon="104.770392"><ele>329.89902</ele><time>2026-04-04T22:17:18.000Z</time></trkpt>
        <trkpt lat="29.004968" lon="104.77044"><ele>330.52347</ele><time>2026-04-04T22:17:25.000Z</time></trkpt>
        <trkpt lat="29.004942" lon="104.770393"><ele>330.22662</ele><time>2026-04-04T22:17:30.000Z</time></trkpt>
        <trkpt lat="29.004891" lon="104.770406"><ele>329.22842</ele><time>2026-04-04T22:17:37.000Z</time></trkpt>
        <trkpt lat="29.004849" lon="104.770373"><ele>329.9982</ele><time>2026-04-04T22:18:11.000Z</time></trkpt>
        <trkpt lat="29.004876" lon="104.770422"><ele>329.24252</ele><time>2026-04-04T22:18:20.000Z</time></trkpt>
        <trkpt lat="29.00484" lon="104.770354"><ele>328.84723</ele><time>2026-04-04T22:18:35.000Z</time></trkpt>
        <trkpt lat="29.004829" lon="104.770404"><ele>329.07678</ele><time>2026-04-04T22:18:51.000Z</time></trkpt>
        <trkpt lat="29.004879" lon="104.770412"><ele>328.55728</ele><time>2026-04-04T22:20:16.000Z</time></trkpt>
        <trkpt lat="29.004923" lon="104.770383"><ele>327.84897</ele><time>2026-04-04T22:20:26.000Z</time></trkpt>
        <trkpt lat="29.004966" lon="104.770351"><ele>327.82272</ele><time>2026-04-04T22:20:31.000Z</time></trkpt>
        <trkpt lat="29.005006" lon="104.770326"><ele>328.20465</ele><time>2026-04-04T22:20:42.000Z</time></trkpt>
        <trkpt lat="29.005009" lon="104.770274"><ele>328.4373</ele><time>2026-04-04T22:21:00.000Z</time></trkpt>
        <trkpt lat="29.00505" lon="104.770303"><ele>327.94827</ele><time>2026-04-04T22:21:11.000Z</time></trkpt>
        <trkpt lat="29.005108" lon="104.77031"><ele>327.84705</ele><time>2026-04-04T22:21:15.000Z</time></trkpt>
        <trkpt lat="29.005188" lon="104.770283"><ele>329.45483</ele><time>2026-04-04T22:21:18.000Z</time></trkpt>
        <trkpt lat="29.005246" lon="104.770279"><ele>327.42938</ele><time>2026-04-04T22:21:21.000Z</time></trkpt>
        <trkpt lat="29.005298" lon="104.770291"><ele>326.37387</ele><time>2026-04-04T22:21:27.000Z</time></trkpt>
        <trkpt lat="29.005341" lon="104.770317"><ele>324.89722</ele><time>2026-04-04T22:21:34.000Z</time></trkpt>
        <trkpt lat="29.005392" lon="104.770328"><ele>325.1974</ele><time>2026-04-04T22:21:41.000Z</time></trkpt>
        <trkpt lat="29.005429" lon="104.770363"><ele>324.22668</ele><time>2026-04-04T22:22:17.000Z</time></trkpt>
        <trkpt lat="29.005453" lon="104.770317"><ele>323.65378</ele><time>2026-04-04T22:22:22.000Z</time></trkpt>
        <trkpt lat="29.005549" lon="104.770293"><ele>322.3802</ele><time>2026-04-04T22:22:36.000Z</time></trkpt>
        <trkpt lat="29.005594" lon="104.770311"><ele>321.8874</ele><time>2026-04-04T22:22:41.000Z</time></trkpt>
        <trkpt lat="29.005592" lon="104.770363"><ele>320.21307</ele><time>2026-04-04T22:22:59.000Z</time></trkpt>
        <trkpt lat="29.0056" lon="104.770414"><ele>319.48846</ele><time>2026-04-04T22:23:32.000Z</time></trkpt>
        <trkpt lat="29.005616" lon="104.770465"><ele>319.61865</ele><time>2026-04-04T22:23:49.000Z</time></trkpt>
        <trkpt lat="29.005625" lon="104.770519"><ele>319.23434</ele><time>2026-04-04T22:23:58.000Z</time></trkpt>
        <trkpt lat="29.005608" lon="104.770567"><ele>318.1683</ele><time>2026-04-04T22:24:09.000Z</time></trkpt>
        <trkpt lat="29.005565" lon="104.77055"><ele>319.31418</ele><time>2026-04-04T22:24:18.000Z</time></trkpt>
        <trkpt lat="29.005554" lon="104.770599"><ele>320.75128</ele><time>2026-04-04T22:25:02.000Z</time></trkpt>
        <trkpt lat="29.005578" lon="104.770549"><ele>319.1687</ele><time>2026-04-04T22:25:16.000Z</time></trkpt>
        <trkpt lat="29.00554" lon="104.770517"><ele>320.77597</ele><time>2026-04-04T22:25:54.000Z</time></trkpt>
        <trkpt lat="29.005591" lon="104.770534"><ele>319.29913</ele><time>2026-04-04T22:26:28.000Z</time></trkpt>
        <trkpt lat="29.005639" lon="104.770543"><ele>315.89636</ele><time>2026-04-04T22:26:35.000Z</time></trkpt>
        <trkpt lat="29.005628" lon="104.770492"><ele>315.5173</ele><time>2026-04-04T22:26:43.000Z</time></trkpt>
        <trkpt lat="29.00561" lon="104.77044"><ele>317.66705</ele><time>2026-04-04T22:26:51.000Z</time></trkpt>
        <trkpt lat="29.005576" lon="104.770403"><ele>320.02194</ele><time>2026-04-04T22:27:11.000Z</time></trkpt>
        <trkpt lat="29.005575" lon="104.77035"><ele>319.1171</ele><time>2026-04-04T22:27:19.000Z</time></trkpt>
        <trkpt lat="29.005576" lon="104.770403"><ele>320.50797</ele><time>2026-04-04T22:27:57.000Z</time></trkpt>
        <trkpt lat="29.00562" lon="104.770371"><ele>319.83655</ele><time>2026-04-04T22:28:11.000Z</time></trkpt>
        <trkpt lat="29.005577" lon="104.770402"><ele>320.26523</ele><time>2026-04-04T22:29:26.000Z</time></trkpt>
        <trkpt lat="29.005606" lon="104.770463"><ele>320.55774</ele><time>2026-04-04T22:30:05.000Z</time></trkpt>
        <trkpt lat="29.005624" lon="104.770516"><ele>319.4493</ele><time>2026-04-04T22:30:14.000Z</time></trkpt>
        <trkpt lat="29.00562" lon="104.770571"><ele>318.44122</ele><time>2026-04-04T22:30:22.000Z</time></trkpt>
        <trkpt lat="29.005575" lon="104.770573"><ele>318.99377</ele><time>2026-04-04T22:30:39.000Z</time></trkpt>
        <trkpt lat="29.005547" lon="104.770532"><ele>319.53497</ele><time>2026-04-04T22:30:45.000Z</time></trkpt>
        <trkpt lat="29.005507" lon="104.770505"><ele>320.19073</ele><time>2026-04-04T22:30:58.000Z</time></trkpt>
        <trkpt lat="29.005459" lon="104.770516"><ele>321.66217</ele><time>2026-04-04T22:31:30.000Z</time></trkpt>
        <trkpt lat="29.005413" lon="104.770532"><ele>322.66388</ele><time>2026-04-04T22:31:47.000Z</time></trkpt>
        <trkpt lat="29.005376" lon="104.770501"><ele>323.3772</ele><time>2026-04-04T22:32:21.000Z</time></trkpt>
        <trkpt lat="29.005336" lon="104.770526"><ele>324.59323</ele><time>2026-04-04T22:32:44.000Z</time></trkpt>
        <trkpt lat="29.005306" lon="104.77057"><ele>325.27023</ele><time>2026-04-04T22:33:47.000Z</time></trkpt>
        <trkpt lat="29.005289" lon="104.77063"><ele>326.505</ele><time>2026-04-04T22:34:06.000Z</time></trkpt>
        <trkpt lat="29.00529" lon="104.770571"><ele>325.8604</ele><time>2026-04-04T22:34:29.000Z</time></trkpt>
        <trkpt lat="29.005258" lon="104.770534"><ele>326.14377</ele><time>2026-04-04T22:34:50.000Z</time></trkpt>
        <trkpt lat="29.005298" lon="104.770565"><ele>325.65726</ele><time>2026-04-04T22:35:16.000Z</time></trkpt>
        <trkpt lat="29.00535" lon="104.770567"><ele>325.17157</ele><time>2026-04-04T22:36:01.000Z</time></trkpt>
        <trkpt lat="29.005401" lon="104.770579"><ele>323.70206</ele><time>2026-04-04T22:36:12.000Z</time></trkpt>
        <trkpt lat="29.005441" lon="104.770611"><ele>323.02887</ele><time>2026-04-04T22:36:52.000Z</time></trkpt>
        <trkpt lat="29.005496" lon="104.770607"><ele>321.84976</ele><time>2026-04-04T22:37:14.000Z</time></trkpt>
        <trkpt lat="29.005521" lon="104.77065"><ele>321.58725</ele><time>2026-04-04T22:37:21.000Z</time></trkpt>
        <trkpt lat="29.00555" lon="104.770609"><ele>320.51996</ele><time>2026-04-04T22:37:31.000Z</time></trkpt>
        <trkpt lat="29.005568" lon="104.770658"><ele>319.4811</ele><time>2026-04-04T22:38:02.000Z</time></trkpt>
        <trkpt lat="29.005532" lon="104.77069"><ele>320.69385</ele><time>2026-04-04T22:38:12.000Z</time></trkpt>
        <trkpt lat="29.00547" lon="104.77069"><ele>322.89853</ele><time>2026-04-04T22:39:02.000Z</time></trkpt>
        <trkpt lat="29.005489" lon="104.770636"><ele>323.87936</ele><time>2026-04-04T22:39:17.000Z</time></trkpt>
        <trkpt lat="29.005482" lon="104.770687"><ele>325.50394</ele><time>2026-04-04T22:39:22.000Z</time></trkpt>
        <trkpt lat="29.005443" lon="104.770721"><ele>325.8174</ele><time>2026-04-04T22:39:40.000Z</time></trkpt>
        <trkpt lat="29.005348" lon="104.77071"><ele>327.69852</ele><time>2026-04-04T22:39:55.000Z</time></trkpt>
        <trkpt lat="29.005305" lon="104.770728"><ele>329.76776</ele><time>2026-04-04T22:40:19.000Z</time></trkpt>
        <trkpt lat="29.00526" lon="104.770711"><ele>329.69257</ele><time>2026-04-04T22:40:50.000Z</time></trkpt>
        <trkpt lat="29.005218" lon="104.770733"><ele>330.68085</ele><time>2026-04-04T22:41:03.000Z</time></trkpt>
        <trkpt lat="29.005196" lon="104.770782"><ele>331.84302</ele><time>2026-04-04T22:41:09.000Z</time></trkpt>
        <trkpt lat="29.00515" lon="104.77079"><ele>332.7781</ele><time>2026-04-04T22:41:19.000Z</time></trkpt>
        <trkpt lat="29.0051" lon="104.770801"><ele>334.23563</ele><time>2026-04-04T22:41:27.000Z</time></trkpt>
        <trkpt lat="29.005068" lon="104.770837"><ele>335.3376</ele><time>2026-04-04T22:41:33.000Z</time></trkpt>
        <trkpt lat="29.005026" lon="104.770868"><ele>336.84402</ele><time>2026-04-04T22:41:38.000Z</time></trkpt>
        <trkpt lat="29.004977" lon="104.770873"><ele>339.69424</ele><time>2026-04-04T22:41:50.000Z</time></trkpt>
        <trkpt lat="29.004933" lon="104.770852"><ele>338.13177</ele><time>2026-04-04T22:42:22.000Z</time></trkpt>
        <trkpt lat="29.004871" lon="104.770856"><ele>338.2067</ele><time>2026-04-04T22:42:28.000Z</time></trkpt>
        <trkpt lat="29.004829" lon="104.770884"><ele>338.8749</ele><time>2026-04-04T22:42:36.000Z</time></trkpt>
        <trkpt lat="29.004783" lon="104.770888"><ele>339.0933</ele><time>2026-04-04T22:42:45.000Z</time></trkpt>
        <trkpt lat="29.004738" lon="104.770888"><ele>339.36026</ele><time>2026-04-04T22:42:54.000Z</time></trkpt>
        <trkpt lat="29.004687" lon="104.770892"><ele>339.41217</ele><time>2026-04-04T22:43:02.000Z</time></trkpt>
        <trkpt lat="29.004642" lon="104.770902"><ele>339.91525</ele><time>2026-04-04T22:43:11.000Z</time></trkpt>
        <trkpt lat="29.004603" lon="104.770931"><ele>339.96878</ele><time>2026-04-04T22:43:22.000Z</time></trkpt>
        <trkpt lat="29.004576" lon="104.770981"><ele>341.28613</ele><time>2026-04-04T22:43:30.000Z</time></trkpt>
        <trkpt lat="29.004544" lon="104.771021"><ele>342.75363</ele><time>2026-04-04T22:43:51.000Z</time></trkpt>
        <trkpt lat="29.004591" lon="104.771026"><ele>343.14688</ele><time>2026-04-04T22:43:57.000Z</time></trkpt>
        <trkpt lat="29.004637" lon="104.771034"><ele>344.76062</ele><time>2026-04-04T22:44:05.000Z</time></trkpt>
        <trkpt lat="29.004654" lon="104.771083"><ele>346.01</ele><time>2026-04-04T22:44:13.000Z</time></trkpt>
        <trkpt lat="29.004669" lon="104.771136"><ele>348.30658</ele><time>2026-04-04T22:44:25.000Z</time></trkpt>
        <trkpt lat="29.004677" lon="104.771199"><ele>350.0104</ele><time>2026-04-04T22:44:36.000Z</time></trkpt>
        <trkpt lat="29.004709" lon="104.771238"><ele>350.6582</ele><time>2026-04-04T22:44:46.000Z</time></trkpt>
        <trkpt lat="29.004736" lon="104.77128"><ele>350.5186</ele><time>2026-04-04T22:44:53.000Z</time></trkpt>
        <trkpt lat="29.004769" lon="104.771319"><ele>351.48206</ele><time>2026-04-04T22:44:59.000Z</time></trkpt>
        <trkpt lat="29.004812" lon="104.771349"><ele>351.16205</ele><time>2026-04-04T22:45:06.000Z</time></trkpt>
        <trkpt lat="29.004845" lon="104.771385"><ele>351.7767</ele><time>2026-04-04T22:45:12.000Z</time></trkpt>
        <trkpt lat="29.004878" lon="104.771422"><ele>353.91376</ele><time>2026-04-04T22:45:23.000Z</time></trkpt>
        <trkpt lat="29.004929" lon="104.771436"><ele>354.5344</ele><time>2026-04-04T22:45:38.000Z</time></trkpt>
        <trkpt lat="29.004963" lon="104.771498"><ele>357.72418</ele><time>2026-04-04T22:45:48.000Z</time></trkpt>
        <trkpt lat="29.004966" lon="104.771558"><ele>357.4668</ele><time>2026-04-04T22:45:52.000Z</time></trkpt>
        <trkpt lat="29.004942" lon="104.771607"><ele>362.97217</ele><time>2026-04-04T22:46:03.000Z</time></trkpt>
        <trkpt lat="29.004909" lon="104.77165"><ele>365.09448</ele><time>2026-04-04T22:46:11.000Z</time></trkpt>
        <trkpt lat="29.004862" lon="104.771682"><ele>365.16296</ele><time>2026-04-04T22:46:17.000Z</time></trkpt>
        <trkpt lat="29.004841" lon="104.77173"><ele>365.40796</ele><time>2026-04-04T22:46:24.000Z</time></trkpt>
        <trkpt lat="29.004881" lon="104.771755"><ele>364.1221</ele><time>2026-04-04T22:46:45.000Z</time></trkpt>
        <trkpt lat="29.004856" lon="104.7718"><ele>367.4143</ele><time>2026-04-04T22:46:57.000Z</time></trkpt>
        <trkpt lat="29.004902" lon="104.771802"><ele>371.6852</ele><time>2026-04-04T22:47:30.000Z</time></trkpt>
        <trkpt lat="29.004891" lon="104.771856"><ele>376.34442</ele><time>2026-04-04T22:47:59.000Z</time></trkpt>
        <trkpt lat="29.00486" lon="104.771915"><ele>377.2217</ele><time>2026-04-04T22:48:17.000Z</time></trkpt>
        <trkpt lat="29.004878" lon="104.771967"><ele>378.15433</ele><time>2026-04-04T22:48:22.000Z</time></trkpt>
        <trkpt lat="29.004887" lon="104.772018"><ele>381.98517</ele><time>2026-04-04T22:48:38.000Z</time></trkpt>
        <trkpt lat="29.004864" lon="104.772067"><ele>384.04453</ele><time>2026-04-04T22:48:47.000Z</time></trkpt>
        <trkpt lat="29.00483" lon="104.772102"><ele>385.13156</ele><time>2026-04-04T22:48:58.000Z</time></trkpt>
        <trkpt lat="29.00482" lon="104.772154"><ele>385.3342</ele><time>2026-04-04T22:49:16.000Z</time></trkpt>
        <trkpt lat="29.004872" lon="104.772165"><ele>389.4623</ele><time>2026-04-04T22:50:04.000Z</time></trkpt>
        <trkpt lat="29.00492" lon="104.772176"><ele>389.9522</ele><time>2026-04-04T22:50:15.000Z</time></trkpt>
        <trkpt lat="29.004966" lon="104.772186"><ele>390.9626</ele><time>2026-04-04T22:50:24.000Z</time></trkpt>
        <trkpt lat="29.005007" lon="104.772163"><ele>391.64447</ele><time>2026-04-04T22:50:39.000Z</time></trkpt>
        <trkpt lat="29.004971" lon="104.772091"><ele>391.51178</ele><time>2026-04-04T22:50:56.000Z</time></trkpt>
        <trkpt lat="29.005016" lon="104.772056"><ele>390.38776</ele><time>2026-04-04T22:51:03.000Z</time></trkpt>
        <trkpt lat="29.005031" lon="104.772117"><ele>388.2825</ele><time>2026-04-04T22:51:34.000Z</time></trkpt>
        <trkpt lat="29.005053" lon="104.772163"><ele>390.08374</ele><time>2026-04-04T22:51:43.000Z</time></trkpt>
        <trkpt lat="29.005089" lon="104.772196"><ele>391.0998</ele><time>2026-04-04T22:51:50.000Z</time></trkpt>
        <trkpt lat="29.00513" lon="104.772221"><ele>392.17142</ele><time>2026-04-04T22:52:49.000Z</time></trkpt>
        <trkpt lat="29.005083" lon="104.77223"><ele>391.96423</ele><time>2026-04-04T22:53:11.000Z</time></trkpt>
        <trkpt lat="29.005064" lon="104.772179"><ele>394.01675</ele><time>2026-04-04T22:53:35.000Z</time></trkpt>
        <trkpt lat="29.005069" lon="104.772273"><ele>392.20575</ele><time>2026-04-04T22:53:55.000Z</time></trkpt>
        <trkpt lat="29.005028" lon="104.772301"><ele>394.5163</ele><time>2026-04-04T22:54:40.000Z</time></trkpt>
        <trkpt lat="29.00499" lon="104.772357"><ele>396.0463</ele><time>2026-04-04T22:54:49.000Z</time></trkpt>
        <trkpt lat="29.004957" lon="104.772404"><ele>398.08255</ele><time>2026-04-04T22:54:55.000Z</time></trkpt>
        <trkpt lat="29.004901" lon="104.772417"><ele>399.09534</ele><time>2026-04-04T22:55:03.000Z</time></trkpt>
        <trkpt lat="29.004851" lon="104.772453"><ele>398.05563</ele><time>2026-04-04T22:55:08.000Z</time></trkpt>
        <trkpt lat="29.004797" lon="104.77245"><ele>398.7215</ele><time>2026-04-04T22:55:11.000Z</time></trkpt>
        <trkpt lat="29.004774" lon="104.772509"><ele>400.41483</ele><time>2026-04-04T22:55:15.000Z</time></trkpt>
        <trkpt lat="29.004722" lon="104.77254"><ele>402.05823</ele><time>2026-04-04T22:55:20.000Z</time></trkpt>
        <trkpt lat="29.004663" lon="104.772562"><ele>402.1317</ele><time>2026-04-04T22:55:28.000Z</time></trkpt>
        <trkpt lat="29.00464" lon="104.772612"><ele>401.9486</ele><time>2026-04-04T22:55:32.000Z</time></trkpt>
        <trkpt lat="29.004589" lon="104.772645"><ele>401.48456</ele><time>2026-04-04T22:55:37.000Z</time></trkpt>
        <trkpt lat="29.004549" lon="104.772683"><ele>400.94122</ele><time>2026-04-04T22:55:41.000Z</time></trkpt>
        <trkpt lat="29.004553" lon="104.772744"><ele>400.67285</ele><time>2026-04-04T22:55:45.000Z</time></trkpt>
        <trkpt lat="29.004523" lon="104.7728"><ele>400.8377</ele><time>2026-04-04T22:55:50.000Z</time></trkpt>
        <trkpt lat="29.004501" lon="104.772864"><ele>400.1319</ele><time>2026-04-04T22:55:55.000Z</time></trkpt>
        <trkpt lat="29.004533" lon="104.772902"><ele>399.60938</ele><time>2026-04-04T22:55:59.000Z</time></trkpt>
        <trkpt lat="29.004583" lon="104.772928"><ele>401.18475</ele><time>2026-04-04T22:56:05.000Z</time></trkpt>
        <trkpt lat="29.004628" lon="104.772947"><ele>402.73328</ele><time>2026-04-04T22:56:10.000Z</time></trkpt>
        <trkpt lat="29.004673" lon="104.772977"><ele>403.57983</ele><time>2026-04-04T22:56:14.000Z</time></trkpt>
        <trkpt lat="29.004717" lon="104.773008"><ele>404.92322</ele><time>2026-04-04T22:56:21.000Z</time></trkpt>
        <trkpt lat="29.004754" lon="104.773052"><ele>405.85547</ele><time>2026-04-04T22:56:26.000Z</time></trkpt>
        <trkpt lat="29.004805" lon="104.773057"><ele>406.29465</ele><time>2026-04-04T22:56:30.000Z</time></trkpt>
        <trkpt lat="29.004851" lon="104.773061"><ele>406.1233</ele><time>2026-04-04T22:56:34.000Z</time></trkpt>
        <trkpt lat="29.004893" lon="104.773092"><ele>406.29556</ele><time>2026-04-04T22:56:37.000Z</time></trkpt>
        <trkpt lat="29.004921" lon="104.773142"><ele>405.9909</ele><time>2026-04-04T22:56:41.000Z</time></trkpt>
        <trkpt lat="29.004955" lon="104.77319"><ele>405.20883</ele><time>2026-04-04T22:56:45.000Z</time></trkpt>
        <trkpt lat="29.005002" lon="104.77321"><ele>404.60507</ele><time>2026-04-04T22:56:49.000Z</time></trkpt>
        <trkpt lat="29.004984" lon="104.773266"><ele>404.7875</ele><time>2026-04-04T22:57:45.000Z</time></trkpt>
        <trkpt lat="29.00503" lon="104.773318"><ele>402.70828</ele><time>2026-04-04T22:57:49.000Z</time></trkpt>
        <trkpt lat="29.004988" lon="104.773344"><ele>401.2467</ele><time>2026-04-04T22:57:58.000Z</time></trkpt>
        <trkpt lat="29.004965" lon="104.773391"><ele>401.7676</ele><time>2026-04-04T22:58:12.000Z</time></trkpt>
        <trkpt lat="29.004923" lon="104.77342"><ele>401.63748</ele><time>2026-04-04T22:58:16.000Z</time></trkpt>
        <trkpt lat="29.004905" lon="104.773475"><ele>401.8424</ele><time>2026-04-04T22:58:22.000Z</time></trkpt>
        <trkpt lat="29.004915" lon="104.773526"><ele>402.27832</ele><time>2026-04-04T22:58:28.000Z</time></trkpt>
        <trkpt lat="29.004897" lon="104.77358"><ele>402.89932</ele><time>2026-04-04T22:58:33.000Z</time></trkpt>
        <trkpt lat="29.004881" lon="104.773632"><ele>403.5539</ele><time>2026-04-04T22:58:38.000Z</time></trkpt>
        <trkpt lat="29.004866" lon="104.773691"><ele>403.82114</ele><time>2026-04-04T22:58:44.000Z</time></trkpt>
        <trkpt lat="29.004849" lon="104.77375"><ele>402.44772</ele><time>2026-04-04T22:58:50.000Z</time></trkpt>
        <trkpt lat="29.004837" lon="104.773806"><ele>402.04544</ele><time>2026-04-04T22:58:55.000Z</time></trkpt>
        <trkpt lat="29.004798" lon="104.773841"><ele>401.8234</ele><time>2026-04-04T22:59:00.000Z</time></trkpt>
        <trkpt lat="29.004751" lon="104.773889"><ele>401.08173</ele><time>2026-04-04T22:59:06.000Z</time></trkpt>
        <trkpt lat="29.004742" lon="104.773942"><ele>401.16068</ele><time>2026-04-04T22:59:09.000Z</time></trkpt>
        <trkpt lat="29.004715" lon="104.773996"><ele>400.77368</ele><time>2026-04-04T22:59:13.000Z</time></trkpt>
        <trkpt lat="29.004689" lon="104.774055"><ele>400.7994</ele><time>2026-04-04T22:59:17.000Z</time></trkpt>
        <trkpt lat="29.004683" lon="104.774109"><ele>400.4923</ele><time>2026-04-04T22:59:21.000Z</time></trkpt>
        <trkpt lat="29.004688" lon="104.774162"><ele>399.6414</ele><time>2026-04-04T22:59:26.000Z</time></trkpt>
        <trkpt lat="29.004719" lon="104.774201"><ele>398.4862</ele><time>2026-04-04T22:59:31.000Z</time></trkpt>
        <trkpt lat="29.004746" lon="104.774253"><ele>398.45645</ele><time>2026-04-04T22:59:36.000Z</time></trkpt>
        <trkpt lat="29.004777" lon="104.774306"><ele>397.81717</ele><time>2026-04-04T22:59:41.000Z</time></trkpt>
        <trkpt lat="29.004805" lon="104.774357"><ele>397.50882</ele><time>2026-04-04T22:59:46.000Z</time></trkpt>
        <trkpt lat="29.004837" lon="104.774395"><ele>396.845</ele><time>2026-04-04T22:59:50.000Z</time></trkpt>
        <trkpt lat="29.004864" lon="104.774444"><ele>396.5642</ele><time>2026-04-04T22:59:55.000Z</time></trkpt>
        <trkpt lat="29.004893" lon="104.774489"><ele>397.64728</ele><time>2026-04-04T23:00:00.000Z</time></trkpt>
        <trkpt lat="29.004904" lon="104.774545"><ele>397.6613</ele><time>2026-04-04T23:00:06.000Z</time></trkpt>
        <trkpt lat="29.004937" lon="104.774644"><ele>397.5674</ele><time>2026-04-04T23:01:54.000Z</time></trkpt>
        <trkpt lat="29.004938" lon="104.774699"><ele>398.0145</ele><time>2026-04-04T23:01:58.000Z</time></trkpt>
        <trkpt lat="29.004947" lon="104.77475"><ele>397.9678</ele><time>2026-04-04T23:02:02.000Z</time></trkpt>
        <trkpt lat="29.004968" lon="104.774803"><ele>397.51392</ele><time>2026-04-04T23:02:07.000Z</time></trkpt>
        <trkpt lat="29.004986" lon="104.774854"><ele>397.27032</ele><time>2026-04-04T23:02:12.000Z</time></trkpt>
        <trkpt lat="29.004991" lon="104.77491"><ele>397.48242</ele><time>2026-04-04T23:02:15.000Z</time></trkpt>
        <trkpt lat="29.005006" lon="104.774967"><ele>397.5122</ele><time>2026-04-04T23:02:20.000Z</time></trkpt>
        <trkpt lat="29.004996" lon="104.775018"><ele>397.13672</ele><time>2026-04-04T23:02:25.000Z</time></trkpt>
        <trkpt lat="29.005015" lon="104.775077"><ele>397.02567</ele><time>2026-04-04T23:02:30.000Z</time></trkpt>
        <trkpt lat="29.005042" lon="104.775122"><ele>395.54706</ele><time>2026-04-04T23:02:36.000Z</time></trkpt>
        <trkpt lat="29.005041" lon="104.775174"><ele>394.23257</ele><time>2026-04-04T23:02:41.000Z</time></trkpt>
        <trkpt lat="29.005063" lon="104.775228"><ele>393.3813</ele><time>2026-04-04T23:02:47.000Z</time></trkpt>
        <trkpt lat="29.005102" lon="104.775258"><ele>393.6438</ele><time>2026-04-04T23:02:51.000Z</time></trkpt>
        <trkpt lat="29.00514" lon="104.775289"><ele>392.8835</ele><time>2026-04-04T23:02:55.000Z</time></trkpt>
        <trkpt lat="29.005176" lon="104.775392"><ele>393.98834</ele><time>2026-04-04T23:04:49.000Z</time></trkpt>
        <trkpt lat="29.005156" lon="104.775447"><ele>396.3458</ele><time>2026-04-04T23:04:59.000Z</time></trkpt>
        <trkpt lat="29.005114" lon="104.775475"><ele>396.75867</ele><time>2026-04-04T23:05:09.000Z</time></trkpt>
        <trkpt lat="29.005085" lon="104.775516"><ele>396.37405</ele><time>2026-04-04T23:05:30.000Z</time></trkpt>
        <trkpt lat="29.005069" lon="104.775571"><ele>396.30518</ele><time>2026-04-04T23:05:35.000Z</time></trkpt>
        <trkpt lat="29.005048" lon="104.77562"><ele>396.12842</ele><time>2026-04-04T23:05:41.000Z</time></trkpt>
        <trkpt lat="29.005035" lon="104.775669"><ele>396.86996</ele><time>2026-04-04T23:05:50.000Z</time></trkpt>
        <trkpt lat="29.005054" lon="104.775726"><ele>397.66382</ele><time>2026-04-04T23:06:40.000Z</time></trkpt>
        <trkpt lat="29.005078" lon="104.775782"><ele>398.15616</ele><time>2026-04-04T23:06:47.000Z</time></trkpt>
        <trkpt lat="29.005088" lon="104.77584"><ele>398.8734</ele><time>2026-04-04T23:06:52.000Z</time></trkpt>
        <trkpt lat="29.005075" lon="104.775894"><ele>398.37775</ele><time>2026-04-04T23:06:56.000Z</time></trkpt>
        <trkpt lat="29.005059" lon="104.775943"><ele>398.9631</ele><time>2026-04-04T23:07:01.000Z</time></trkpt>
        <trkpt lat="29.005067" lon="104.775995"><ele>398.5525</ele><time>2026-04-04T23:07:10.000Z</time></trkpt>
        <trkpt lat="29.005074" lon="104.77605"><ele>398.20844</ele><time>2026-04-04T23:07:15.000Z</time></trkpt>
        <trkpt lat="29.005097" lon="104.776098"><ele>398.6259</ele><time>2026-04-04T23:07:23.000Z</time></trkpt>
        <trkpt lat="29.005104" lon="104.776153"><ele>399.84848</ele><time>2026-04-04T23:08:13.000Z</time></trkpt>
        <trkpt lat="29.005115" lon="104.776211"><ele>402.13644</ele><time>2026-04-04T23:08:58.000Z</time></trkpt>
        <trkpt lat="29.005137" lon="104.77626"><ele>401.99393</ele><time>2026-04-04T23:09:03.000Z</time></trkpt>
        <trkpt lat="29.005129" lon="104.776321"><ele>402.46323</ele><time>2026-04-04T23:09:11.000Z</time></trkpt>
        <trkpt lat="29.005081" lon="104.776349"><ele>402.47473</ele><time>2026-04-04T23:09:17.000Z</time></trkpt>
        <trkpt lat="29.005037" lon="104.77639"><ele>402.65668</ele><time>2026-04-04T23:09:23.000Z</time></trkpt>
        <trkpt lat="29.004997" lon="104.776426"><ele>401.2911</ele><time>2026-04-04T23:09:29.000Z</time></trkpt>
        <trkpt lat="29.004962" lon="104.776459"><ele>400.77454</ele><time>2026-04-04T23:09:35.000Z</time></trkpt>
        <trkpt lat="29.004928" lon="104.776495"><ele>400.86746</ele><time>2026-04-04T23:09:39.000Z</time></trkpt>
        <trkpt lat="29.004894" lon="104.776543"><ele>399.9415</ele><time>2026-04-04T23:09:44.000Z</time></trkpt>
        <trkpt lat="29.004877" lon="104.776593"><ele>400.54694</ele><time>2026-04-04T23:09:49.000Z</time></trkpt>
        <trkpt lat="29.004862" lon="104.776644"><ele>399.6821</ele><time>2026-04-04T23:09:54.000Z</time></trkpt>
        <trkpt lat="29.004854" lon="104.776695"><ele>399.87967</ele><time>2026-04-04T23:09:58.000Z</time></trkpt>
        <trkpt lat="29.004835" lon="104.776745"><ele>399.76404</ele><time>2026-04-04T23:10:03.000Z</time></trkpt>
        <trkpt lat="29.004818" lon="104.776803"><ele>399.43237</ele><time>2026-04-04T23:10:08.000Z</time></trkpt>
        <trkpt lat="29.004795" lon="104.776848"><ele>399.32556</ele><time>2026-04-04T23:10:12.000Z</time></trkpt>
        <trkpt lat="29.004757" lon="104.776885"><ele>399.4768</ele><time>2026-04-04T23:10:16.000Z</time></trkpt>
        <trkpt lat="29.004715" lon="104.776904"><ele>400.90442</ele><time>2026-04-04T23:10:42.000Z</time></trkpt>
        <trkpt lat="29.004671" lon="104.776928"><ele>401.1503</ele><time>2026-04-04T23:10:50.000Z</time></trkpt>
        <trkpt lat="29.004644" lon="104.776884"><ele>401.40662</ele><time>2026-04-04T23:11:00.000Z</time></trkpt>
        <trkpt lat="29.004599" lon="104.776878"><ele>401.22293</ele><time>2026-04-04T23:11:13.000Z</time></trkpt>
        <trkpt lat="29.004565" lon="104.776837"><ele>400.7847</ele><time>2026-04-04T23:11:17.000Z</time></trkpt>
        <trkpt lat="29.004519" lon="104.7768"><ele>399.4859</ele><time>2026-04-04T23:11:21.000Z</time></trkpt>
        <trkpt lat="29.004479" lon="104.776775"><ele>398.30936</ele><time>2026-04-04T23:11:28.000Z</time></trkpt>
        <trkpt lat="29.004429" lon="104.776777"><ele>397.61334</ele><time>2026-04-04T23:11:50.000Z</time></trkpt>
        <trkpt lat="29.00439" lon="104.776812"><ele>397.39975</ele><time>2026-04-04T23:12:22.000Z</time></trkpt>
        <trkpt lat="29.004343" lon="104.776812"><ele>397.94238</ele><time>2026-04-04T23:12:28.000Z</time></trkpt>
        <trkpt lat="29.004292" lon="104.776811"><ele>397.71964</ele><time>2026-04-04T23:13:37.000Z</time></trkpt>
        <trkpt lat="29.004245" lon="104.776836"><ele>396.22845</ele><time>2026-04-04T23:13:44.000Z</time></trkpt>
        <trkpt lat="29.004202" lon="104.776864"><ele>396.1454</ele><time>2026-04-04T23:13:55.000Z</time></trkpt>
        <trkpt lat="29.004162" lon="104.776895"><ele>395.1726</ele><time>2026-04-04T23:13:59.000Z</time></trkpt>
        <trkpt lat="29.004122" lon="104.776929"><ele>394.7296</ele><time>2026-04-04T23:14:04.000Z</time></trkpt>
        <trkpt lat="29.004086" lon="104.776962"><ele>394.54132</ele><time>2026-04-04T23:14:08.000Z</time></trkpt>
        <trkpt lat="29.004125" lon="104.77693"><ele>396.5768</ele><time>2026-04-04T23:14:38.000Z</time></trkpt>
        <trkpt lat="29.00416" lon="104.776896"><ele>397.15146</ele><time>2026-04-04T23:14:42.000Z</time></trkpt>
        <trkpt lat="29.0042" lon="104.77686"><ele>397.96243</ele><time>2026-04-04T23:14:47.000Z</time></trkpt>
        <trkpt lat="29.004246" lon="104.776831"><ele>398.35428</ele><time>2026-04-04T23:14:52.000Z</time></trkpt>
        <trkpt lat="29.004302" lon="104.776825"><ele>397.80917</ele><time>2026-04-04T23:14:59.000Z</time></trkpt>
        <trkpt lat="29.004352" lon="104.776815"><ele>398.65924</ele><time>2026-04-04T23:15:05.000Z</time></trkpt>
        <trkpt lat="29.004398" lon="104.776837"><ele>400.12274</ele><time>2026-04-04T23:15:30.000Z</time></trkpt>
        <trkpt lat="29.004407" lon="104.776786"><ele>400.42154</ele><time>2026-04-04T23:15:46.000Z</time></trkpt>
        <trkpt lat="29.00444" lon="104.776827"><ele>399.43512</ele><time>2026-04-04T23:16:05.000Z</time></trkpt>
        <trkpt lat="29.004466" lon="104.776876"><ele>399.04044</ele><time>2026-04-04T23:16:10.000Z</time></trkpt>
        <trkpt lat="29.004505" lon="104.776932"><ele>400.28632</ele><time>2026-04-04T23:16:14.000Z</time></trkpt>
        <trkpt lat="29.004541" lon="104.776971"><ele>400.9712</ele><time>2026-04-04T23:16:18.000Z</time></trkpt>
        <trkpt lat="29.00457" lon="104.77702"><ele>401.2303</ele><time>2026-04-04T23:16:23.000Z</time></trkpt>
        <trkpt lat="29.004593" lon="104.777069"><ele>400.01532</ele><time>2026-04-04T23:16:30.000Z</time></trkpt>
        <trkpt lat="29.004627" lon="104.777106"><ele>399.33127</ele><time>2026-04-04T23:16:34.000Z</time></trkpt>
        <trkpt lat="29.004613" lon="104.77716"><ele>398.772</ele><time>2026-04-04T23:16:39.000Z</time></trkpt>
        <trkpt lat="29.00461" lon="104.777212"><ele>396.55963</ele><time>2026-04-04T23:16:55.000Z</time></trkpt>
        <trkpt lat="29.004589" lon="104.777261"><ele>395.88147</ele><time>2026-04-04T23:17:03.000Z</time></trkpt>
        <trkpt lat="29.004556" lon="104.777309"><ele>394.86765</ele><time>2026-04-04T23:17:07.000Z</time></trkpt>
        <trkpt lat="29.004537" lon="104.777358"><ele>392.7272</ele><time>2026-04-04T23:17:13.000Z</time></trkpt>
        <trkpt lat="29.004517" lon="104.777407"><ele>391.90866</ele><time>2026-04-04T23:17:18.000Z</time></trkpt>
        <trkpt lat="29.0045" lon="104.777459"><ele>389.54688</ele><time>2026-04-04T23:17:23.000Z</time></trkpt>
        <trkpt lat="29.004475" lon="104.777506"><ele>388.2823</ele><time>2026-04-04T23:17:30.000Z</time></trkpt>
        <trkpt lat="29.004447" lon="104.777548"><ele>390.30194</ele><time>2026-04-04T23:17:41.000Z</time></trkpt>
        <trkpt lat="29.004424" lon="104.777599"><ele>389.76358</ele><time>2026-04-04T23:17:51.000Z</time></trkpt>
        <trkpt lat="29.004426" lon="104.777661"><ele>388.75632</ele><time>2026-04-04T23:18:08.000Z</time></trkpt>
        <trkpt lat="29.004428" lon="104.777721"><ele>387.13672</ele><time>2026-04-04T23:18:14.000Z</time></trkpt>
        <trkpt lat="29.004423" lon="104.777774"><ele>386.3317</ele><time>2026-04-04T23:18:19.000Z</time></trkpt>
        <trkpt lat="29.004416" lon="104.77783"><ele>384.354</ele><time>2026-04-04T23:18:24.000Z</time></trkpt>
        <trkpt lat="29.004401" lon="104.777888"><ele>383.08212</ele><time>2026-04-04T23:18:29.000Z</time></trkpt>
        <trkpt lat="29.004443" lon="104.777925"><ele>382.36618</ele><time>2026-04-04T23:18:33.000Z</time></trkpt>
        <trkpt lat="29.004487" lon="104.777915"><ele>381.1999</ele><time>2026-04-04T23:18:48.000Z</time></trkpt>
        <trkpt lat="29.004525" lon="104.777883"><ele>379.10367</ele><time>2026-04-04T23:19:03.000Z</time></trkpt>
        <trkpt lat="29.004528" lon="104.777832"><ele>378.37872</ele><time>2026-04-04T23:19:06.000Z</time></trkpt>
        <trkpt lat="29.004574" lon="104.777855"><ele>378.2017</ele><time>2026-04-04T23:19:09.000Z</time></trkpt>
        <trkpt lat="29.004599" lon="104.77791"><ele>378.75882</ele><time>2026-04-04T23:19:13.000Z</time></trkpt>
        <trkpt lat="29.004595" lon="104.777964"><ele>374.8361</ele><time>2026-04-04T23:19:21.000Z</time></trkpt>
        <trkpt lat="29.004563" lon="104.778003"><ele>372.215</ele><time>2026-04-04T23:19:29.000Z</time></trkpt>
        <trkpt lat="29.004534" lon="104.778048"><ele>371.95233</ele><time>2026-04-04T23:19:36.000Z</time></trkpt>
        <trkpt lat="29.004488" lon="104.778069"><ele>372.5381</ele><time>2026-04-04T23:19:45.000Z</time></trkpt>
        <trkpt lat="29.004434" lon="104.778073"><ele>373.65472</ele><time>2026-04-04T23:19:50.000Z</time></trkpt>
        <trkpt lat="29.004382" lon="104.778082"><ele>376.45532</ele><time>2026-04-04T23:19:55.000Z</time></trkpt>
        <trkpt lat="29.004373" lon="104.778138"><ele>376.0322</ele><time>2026-04-04T23:20:01.000Z</time></trkpt>
        <trkpt lat="29.004397" lon="104.778182"><ele>374.75247</ele><time>2026-04-04T23:20:05.000Z</time></trkpt>
        <trkpt lat="29.004444" lon="104.778169"><ele>373.5115</ele><time>2026-04-04T23:20:11.000Z</time></trkpt>
        <trkpt lat="29.004489" lon="104.778156"><ele>371.8302</ele><time>2026-04-04T23:20:17.000Z</time></trkpt>
        <trkpt lat="29.004533" lon="104.778147"><ele>369.64957</ele><time>2026-04-04T23:20:24.000Z</time></trkpt>
        <trkpt lat="29.004581" lon="104.778129"><ele>368.46518</ele><time>2026-04-04T23:20:29.000Z</time></trkpt>
        <trkpt lat="29.004628" lon="104.778114"><ele>366.8986</ele><time>2026-04-04T23:20:34.000Z</time></trkpt>
        <trkpt lat="29.004664" lon="104.778151"><ele>364.12622</ele><time>2026-04-04T23:20:41.000Z</time></trkpt>
        <trkpt lat="29.004623" lon="104.77819"><ele>361.37878</ele><time>2026-04-04T23:20:48.000Z</time></trkpt>
        <trkpt lat="29.004576" lon="104.778216"><ele>361.15353</ele><time>2026-04-04T23:20:54.000Z</time></trkpt>
        <trkpt lat="29.004532" lon="104.778235"><ele>361.95013</ele><time>2026-04-04T23:22:10.000Z</time></trkpt>
        <trkpt lat="29.004487" lon="104.778247"><ele>361.9358</ele><time>2026-04-04T23:22:14.000Z</time></trkpt>
        <trkpt lat="29.004442" lon="104.77826"><ele>362.23257</ele><time>2026-04-04T23:22:18.000Z</time></trkpt>
        <trkpt lat="29.004376" lon="104.778256"><ele>363.94418</ele><time>2026-04-04T23:22:21.000Z</time></trkpt>
        <trkpt lat="29.00432" lon="104.778255"><ele>366.74374</ele><time>2026-04-04T23:22:25.000Z</time></trkpt>
        <trkpt lat="29.004274" lon="104.77826"><ele>369.9671</ele><time>2026-04-04T23:22:29.000Z</time></trkpt>
        <trkpt lat="29.004224" lon="104.778291"><ele>372.10724</ele><time>2026-04-04T23:22:34.000Z</time></trkpt>
        <trkpt lat="29.004179" lon="104.778312"><ele>373.0105</ele><time>2026-04-04T23:22:39.000Z</time></trkpt>
        <trkpt lat="29.004143" lon="104.778349"><ele>373.86133</ele><time>2026-04-04T23:22:42.000Z</time></trkpt>
        <trkpt lat="29.004098" lon="104.778381"><ele>374.30963</ele><time>2026-04-04T23:22:45.000Z</time></trkpt>
        <trkpt lat="29.004054" lon="104.778392"><ele>375.11417</ele><time>2026-04-04T23:22:48.000Z</time></trkpt>
        <trkpt lat="29.004027" lon="104.778445"><ele>375.29294</ele><time>2026-04-04T23:22:51.000Z</time></trkpt>
        <trkpt lat="29.004016" lon="104.778498"><ele>375.6027</ele><time>2026-04-04T23:22:54.000Z</time></trkpt>
        <trkpt lat="29.00401" lon="104.778567"><ele>376.73965</ele><time>2026-04-04T23:22:58.000Z</time></trkpt>
        <trkpt lat="29.004005" lon="104.778511"><ele>368.27518</ele><time>2026-04-04T23:23:09.000Z</time></trkpt>
        <trkpt lat="29.003996" lon="104.778453"><ele>368.6298</ele><time>2026-04-04T23:23:12.000Z</time></trkpt>
        <trkpt lat="29.00399" lon="104.778507"><ele>370.43103</ele><time>2026-04-04T23:23:21.000Z</time></trkpt>
        <trkpt lat="29.003991" lon="104.778566"><ele>369.34082</ele><time>2026-04-04T23:23:50.000Z</time></trkpt>
        <trkpt lat="29.003946" lon="104.778567"><ele>367.7428</ele><time>2026-04-04T23:24:10.000Z</time></trkpt>
        <trkpt lat="29.003864" lon="104.778632"><ele>366.4408</ele><time>2026-04-04T23:24:20.000Z</time></trkpt>
        <trkpt lat="29.003839" lon="104.778678"><ele>366.21436</ele><time>2026-04-04T23:24:24.000Z</time></trkpt>
        <trkpt lat="29.003808" lon="104.778728"><ele>366.25177</ele><time>2026-04-04T23:24:28.000Z</time></trkpt>
        <trkpt lat="29.003797" lon="104.778781"><ele>365.92496</ele><time>2026-04-04T23:24:32.000Z</time></trkpt>
        <trkpt lat="29.003758" lon="104.778824"><ele>365.16425</ele><time>2026-04-04T23:24:37.000Z</time></trkpt>
        <trkpt lat="29.003714" lon="104.778841"><ele>364.85913</ele><time>2026-04-04T23:24:41.000Z</time></trkpt>
        <trkpt lat="29.003684" lon="104.778892"><ele>362.83466</ele><time>2026-04-04T23:24:49.000Z</time></trkpt>
        <trkpt lat="29.003636" lon="104.778916"><ele>361.99057</ele><time>2026-04-04T23:24:56.000Z</time></trkpt>
        <trkpt lat="29.003609" lon="104.778961"><ele>360.8391</ele><time>2026-04-04T23:25:01.000Z</time></trkpt>
        <trkpt lat="29.003572" lon="104.778992"><ele>360.95856</ele><time>2026-04-04T23:25:06.000Z</time></trkpt>
        <trkpt lat="29.003524" lon="104.778974"><ele>360.42136</ele><time>2026-04-04T23:25:11.000Z</time></trkpt>
        <trkpt lat="29.003475" lon="104.778954"><ele>360.7391</ele><time>2026-04-04T23:25:16.000Z</time></trkpt>
        <trkpt lat="29.00342" lon="104.77897"><ele>361.92447</ele><time>2026-04-04T23:25:20.000Z</time></trkpt>
        <trkpt lat="29.003369" lon="104.778987"><ele>361.87592</ele><time>2026-04-04T23:25:26.000Z</time></trkpt>
        <trkpt lat="29.003324" lon="104.778975"><ele>362.13818</ele><time>2026-04-04T23:25:30.000Z</time></trkpt>
        <trkpt lat="29.003275" lon="104.77895"><ele>362.71942</ele><time>2026-04-04T23:25:35.000Z</time></trkpt>
        <trkpt lat="29.003241" lon="104.778909"><ele>365.02792</ele><time>2026-04-04T23:25:41.000Z</time></trkpt>
        <trkpt lat="29.003198" lon="104.778874"><ele>366.1298</ele><time>2026-04-04T23:25:47.000Z</time></trkpt>
        <trkpt lat="29.003146" lon="104.778889"><ele>365.92847</ele><time>2026-04-04T23:25:52.000Z</time></trkpt>
        <trkpt lat="29.003097" lon="104.778879"><ele>365.35483</ele><time>2026-04-04T23:25:55.000Z</time></trkpt>
        <trkpt lat="29.003056" lon="104.778855"><ele>365.60437</ele><time>2026-04-04T23:26:26.000Z</time></trkpt>
        <trkpt lat="29.00302" lon="104.778816"><ele>364.84503</ele><time>2026-04-04T23:26:53.000Z</time></trkpt>
        <trkpt lat="29.00298" lon="104.778773"><ele>364.11703</ele><time>2026-04-04T23:26:58.000Z</time></trkpt>
        <trkpt lat="29.002936" lon="104.778745"><ele>363.483</ele><time>2026-04-04T23:27:01.000Z</time></trkpt>
        <trkpt lat="29.00287" lon="104.778698"><ele>362.09793</ele><time>2026-04-04T23:27:05.000Z</time></trkpt>
        <trkpt lat="29.002815" lon="104.778685"><ele>362.04926</ele><time>2026-04-04T23:27:08.000Z</time></trkpt>
        <trkpt lat="29.002773" lon="104.778707"><ele>362.96982</ele><time>2026-04-04T23:27:11.000Z</time></trkpt>
        <trkpt lat="29.002727" lon="104.778723"><ele>363.2504</ele><time>2026-04-04T23:27:15.000Z</time></trkpt>
        <trkpt lat="29.002682" lon="104.778754"><ele>365.6035</ele><time>2026-04-04T23:27:28.000Z</time></trkpt>
        <trkpt lat="29.002643" lon="104.778804"><ele>364.15247</ele><time>2026-04-04T23:27:32.000Z</time></trkpt>
        <trkpt lat="29.00261" lon="104.778761"><ele>362.01578</ele><time>2026-04-04T23:27:43.000Z</time></trkpt>
        <trkpt lat="29.002553" lon="104.778766"><ele>361.434</ele><time>2026-04-04T23:27:47.000Z</time></trkpt>
        <trkpt lat="29.002484" lon="104.778762"><ele>361.9541</ele><time>2026-04-04T23:27:52.000Z</time></trkpt>
        <trkpt lat="29.002431" lon="104.77876"><ele>362.83197</ele><time>2026-04-04T23:27:57.000Z</time></trkpt>
        <trkpt lat="29.002382" lon="104.778773"><ele>362.88687</ele><time>2026-04-04T23:28:02.000Z</time></trkpt>
        <trkpt lat="29.002323" lon="104.778771"><ele>363.3257</ele><time>2026-04-04T23:28:05.000Z</time></trkpt>
        <trkpt lat="29.002284" lon="104.778808"><ele>360.8054</ele><time>2026-04-04T23:28:08.000Z</time></trkpt>
        <trkpt lat="29.002229" lon="104.778829"><ele>362.09134</ele><time>2026-04-04T23:28:12.000Z</time></trkpt>
        <trkpt lat="29.002179" lon="104.778829"><ele>362.4153</ele><time>2026-04-04T23:28:15.000Z</time></trkpt>
        <trkpt lat="29.002128" lon="104.778827"><ele>363.87738</ele><time>2026-04-04T23:28:19.000Z</time></trkpt>
        <trkpt lat="29.00208" lon="104.778846"><ele>364.6775</ele><time>2026-04-04T23:28:24.000Z</time></trkpt>
        <trkpt lat="29.002043" lon="104.778806"><ele>364.06332</ele><time>2026-04-04T23:28:28.000Z</time></trkpt>
        <trkpt lat="29.001997" lon="104.778784"><ele>365.41623</ele><time>2026-04-04T23:28:32.000Z</time></trkpt>
        <trkpt lat="29.00195" lon="104.778795"><ele>366.08823</ele><time>2026-04-04T23:28:35.000Z</time></trkpt>
        <trkpt lat="29.001928" lon="104.778846"><ele>365.90356</ele><time>2026-04-04T23:28:39.000Z</time></trkpt>
        <trkpt lat="29.001927" lon="104.778906"><ele>365.52045</ele><time>2026-04-04T23:28:46.000Z</time></trkpt>
        <trkpt lat="29.001899" lon="104.778947"><ele>366.00784</ele><time>2026-04-04T23:28:49.000Z</time></trkpt>
        <trkpt lat="29.001901" lon="104.779012"><ele>367.39764</ele><time>2026-04-04T23:28:54.000Z</time></trkpt>
        <trkpt lat="29.001928" lon="104.779055"><ele>367.9317</ele><time>2026-04-04T23:28:58.000Z</time></trkpt>
        <trkpt lat="29.001977" lon="104.779064"><ele>368.54022</ele><time>2026-04-04T23:29:02.000Z</time></trkpt>
        <trkpt lat="29.002028" lon="104.779069"><ele>368.31635</ele><time>2026-04-04T23:29:07.000Z</time></trkpt>
        <trkpt lat="29.002081" lon="104.779074"><ele>367.87015</ele><time>2026-04-04T23:29:18.000Z</time></trkpt>
        <trkpt lat="29.002134" lon="104.779099"><ele>367.9719</ele><time>2026-04-04T23:29:25.000Z</time></trkpt>
        <trkpt lat="29.002188" lon="104.779118"><ele>368.15292</ele><time>2026-04-04T23:29:28.000Z</time></trkpt>
        <trkpt lat="29.002229" lon="104.779142"><ele>367.96228</ele><time>2026-04-04T23:29:39.000Z</time></trkpt>
        <trkpt lat="29.002265" lon="104.77911"><ele>365.09003</ele><time>2026-04-04T23:30:07.000Z</time></trkpt>
        <trkpt lat="29.002309" lon="104.77913"><ele>365.6106</ele><time>2026-04-04T23:30:13.000Z</time></trkpt>
        <trkpt lat="29.002359" lon="104.779123"><ele>364.3436</ele><time>2026-04-04T23:30:19.000Z</time></trkpt>
        <trkpt lat="29.002406" lon="104.779129"><ele>363.43216</ele><time>2026-04-04T23:30:24.000Z</time></trkpt>
        <trkpt lat="29.00245" lon="104.779162"><ele>362.01776</ele><time>2026-04-04T23:30:31.000Z</time></trkpt>
        <trkpt lat="29.00249" lon="104.779189"><ele>360.35464</ele><time>2026-04-04T23:30:45.000Z</time></trkpt>
        <trkpt lat="29.002448" lon="104.779218"><ele>360.887</ele><time>2026-04-04T23:30:55.000Z</time></trkpt>
        <trkpt lat="29.002491" lon="104.779235"><ele>360.9124</ele><time>2026-04-04T23:30:59.000Z</time></trkpt>
        <trkpt lat="29.00254" lon="104.779249"><ele>360.77728</ele><time>2026-04-04T23:31:03.000Z</time></trkpt>
        <trkpt lat="29.002586" lon="104.779258"><ele>361.11877</ele><time>2026-04-04T23:31:09.000Z</time></trkpt>
        <trkpt lat="29.002643" lon="104.779278"><ele>362.84232</ele><time>2026-04-04T23:31:18.000Z</time></trkpt>
        <trkpt lat="29.002693" lon="104.779288"><ele>363.10507</ele><time>2026-04-04T23:31:23.000Z</time></trkpt>
        <trkpt lat="29.002745" lon="104.779294"><ele>363.59592</ele><time>2026-04-04T23:31:29.000Z</time></trkpt>
        <trkpt lat="29.002794" lon="104.779316"><ele>363.30414</ele><time>2026-04-04T23:31:34.000Z</time></trkpt>
        <trkpt lat="29.002841" lon="104.779354"><ele>363.5618</ele><time>2026-04-04T23:31:39.000Z</time></trkpt>
        <trkpt lat="29.00288" lon="104.779402"><ele>363.62164</ele><time>2026-04-04T23:31:44.000Z</time></trkpt>
        <trkpt lat="29.002907" lon="104.779454"><ele>363.06744</ele><time>2026-04-04T23:31:48.000Z</time></trkpt>
        <trkpt lat="29.00293" lon="104.779502"><ele>363.66162</ele><time>2026-04-04T23:31:53.000Z</time></trkpt>
        <trkpt lat="29.002974" lon="104.77954"><ele>363.54813</ele><time>2026-04-04T23:31:57.000Z</time></trkpt>
        <trkpt lat="29.003017" lon="104.779562"><ele>362.80292</ele><time>2026-04-04T23:32:03.000Z</time></trkpt>
        <trkpt lat="29.003071" lon="104.779566"><ele>361.82733</ele><time>2026-04-04T23:32:07.000Z</time></trkpt>
        <trkpt lat="29.003116" lon="104.779555"><ele>359.63824</ele><time>2026-04-04T23:32:12.000Z</time></trkpt>
        <trkpt lat="29.003167" lon="104.779573"><ele>358.94153</ele><time>2026-04-04T23:32:19.000Z</time></trkpt>
        <trkpt lat="29.003207" lon="104.779613"><ele>357.69913</ele><time>2026-04-04T23:32:28.000Z</time></trkpt>
        <trkpt lat="29.003249" lon="104.779644"><ele>357.00134</ele><time>2026-04-04T23:32:34.000Z</time></trkpt>
        <trkpt lat="29.003281" lon="104.779691"><ele>356.49747</ele><time>2026-04-04T23:32:40.000Z</time></trkpt>
        <trkpt lat="29.00332" lon="104.779733"><ele>355.28342</ele><time>2026-04-04T23:32:46.000Z</time></trkpt>
        <trkpt lat="29.003356" lon="104.77977"><ele>354.52402</ele><time>2026-04-04T23:32:51.000Z</time></trkpt>
        <trkpt lat="29.003397" lon="104.779804"><ele>353.01273</ele><time>2026-04-04T23:32:57.000Z</time></trkpt>
        <trkpt lat="29.003426" lon="104.779856"><ele>353.38483</ele><time>2026-04-04T23:33:03.000Z</time></trkpt>
        <trkpt lat="29.003449" lon="104.779908"><ele>352.91144</ele><time>2026-04-04T23:33:09.000Z</time></trkpt>
        <trkpt lat="29.003429" lon="104.779958"><ele>355.58786</ele><time>2026-04-04T23:33:26.000Z</time></trkpt>
        <trkpt lat="29.003428" lon="104.780018"><ele>355.41434</ele><time>2026-04-04T23:33:38.000Z</time></trkpt>
        <trkpt lat="29.003408" lon="104.780073"><ele>352.98245</ele><time>2026-04-04T23:33:58.000Z</time></trkpt>
        <trkpt lat="29.003441" lon="104.780115"><ele>355.6753</ele><time>2026-04-04T23:34:05.000Z</time></trkpt>
        <trkpt lat="29.003451" lon="104.780167"><ele>359.13254</ele><time>2026-04-04T23:34:13.000Z</time></trkpt>
        <trkpt lat="29.003434" lon="104.780219"><ele>357.3523</ele><time>2026-04-04T23:34:21.000Z</time></trkpt>
        <trkpt lat="29.003466" lon="104.780256"><ele>357.7937</ele><time>2026-04-04T23:35:03.000Z</time></trkpt>
        <trkpt lat="29.003489" lon="104.780374"><ele>360.89542</ele><time>2026-04-04T23:35:15.000Z</time></trkpt>
        <trkpt lat="29.003509" lon="104.780423"><ele>364.04855</ele><time>2026-04-04T23:35:21.000Z</time></trkpt>
        <trkpt lat="29.003533" lon="104.780468"><ele>370.59155</ele><time>2026-04-04T23:35:33.000Z</time></trkpt>
        <trkpt lat="29.003579" lon="104.780476"><ele>372.64243</ele><time>2026-04-04T23:35:51.000Z</time></trkpt>
        <trkpt lat="29.003625" lon="104.780483"><ele>372.8089</ele><time>2026-04-04T23:35:59.000Z</time></trkpt>
        <trkpt lat="29.003672" lon="104.780462"><ele>370.3197</ele><time>2026-04-04T23:36:19.000Z</time></trkpt>
        <trkpt lat="29.003725" lon="104.780473"><ele>370.85217</ele><time>2026-04-04T23:36:27.000Z</time></trkpt>
        <trkpt lat="29.003757" lon="104.780509"><ele>371.4255</ele><time>2026-04-04T23:36:34.000Z</time></trkpt>
        <trkpt lat="29.003806" lon="104.780542"><ele>372.3544</ele><time>2026-04-04T23:36:43.000Z</time></trkpt>
        <trkpt lat="29.003849" lon="104.780558"><ele>371.56027</ele><time>2026-04-04T23:36:48.000Z</time></trkpt>
        <trkpt lat="29.00389" lon="104.7806"><ele>372.5822</ele><time>2026-04-04T23:36:56.000Z</time></trkpt>
        <trkpt lat="29.003934" lon="104.780625"><ele>372.61807</ele><time>2026-04-04T23:37:01.000Z</time></trkpt>
        <trkpt lat="29.003995" lon="104.780623"><ele>371.7817</ele><time>2026-04-04T23:37:09.000Z</time></trkpt>
        <trkpt lat="29.004042" lon="104.780628"><ele>371.97397</ele><time>2026-04-04T23:37:14.000Z</time></trkpt>
        <trkpt lat="29.004095" lon="104.780635"><ele>372.9597</ele><time>2026-04-04T23:37:21.000Z</time></trkpt>
        <trkpt lat="29.004141" lon="104.780653"><ele>373.85785</ele><time>2026-04-04T23:37:26.000Z</time></trkpt>
        <trkpt lat="29.004189" lon="104.780655"><ele>374.4425</ele><time>2026-04-04T23:37:33.000Z</time></trkpt>
        <trkpt lat="29.004242" lon="104.78066"><ele>375.30948</ele><time>2026-04-04T23:38:01.000Z</time></trkpt>
        <trkpt lat="29.004286" lon="104.780677"><ele>374.2086</ele><time>2026-04-04T23:38:06.000Z</time></trkpt>
        <trkpt lat="29.004343" lon="104.780651"><ele>374.76926</ele><time>2026-04-04T23:38:09.000Z</time></trkpt>
        <trkpt lat="29.004402" lon="104.780672"><ele>375.98706</ele><time>2026-04-04T23:38:13.000Z</time></trkpt>
        <trkpt lat="29.004451" lon="104.780688"><ele>375.62067</ele><time>2026-04-04T23:38:17.000Z</time></trkpt>
        <trkpt lat="29.004501" lon="104.780705"><ele>373.5792</ele><time>2026-04-04T23:38:21.000Z</time></trkpt>
        <trkpt lat="29.00455" lon="104.780695"><ele>373.26108</ele><time>2026-04-04T23:38:25.000Z</time></trkpt>
        <trkpt lat="29.004592" lon="104.780667"><ele>373.28864</ele><time>2026-04-04T23:38:29.000Z</time></trkpt>
        <trkpt lat="29.00464" lon="104.780647"><ele>371.09213</ele><time>2026-04-04T23:38:50.000Z</time></trkpt>
        <trkpt lat="29.004689" lon="104.780628"><ele>369.56268</ele><time>2026-04-04T23:38:56.000Z</time></trkpt>
        <trkpt lat="29.004733" lon="104.780603"><ele>368.93018</ele><time>2026-04-04T23:39:02.000Z</time></trkpt>
        <trkpt lat="29.004785" lon="104.780585"><ele>367.2766</ele><time>2026-04-04T23:39:08.000Z</time></trkpt>
        <trkpt lat="29.00483" lon="104.780569"><ele>367.10135</ele><time>2026-04-04T23:39:13.000Z</time></trkpt>
        <trkpt lat="29.00487" lon="104.780547"><ele>364.5991</ele><time>2026-04-04T23:39:19.000Z</time></trkpt>
        <trkpt lat="29.00488" lon="104.78049"><ele>363.15802</ele><time>2026-04-04T23:39:25.000Z</time></trkpt>
        <trkpt lat="29.004907" lon="104.78044"><ele>362.2514</ele><time>2026-04-04T23:39:31.000Z</time></trkpt>
        <trkpt lat="29.004935" lon="104.780397"><ele>361.50668</ele><time>2026-04-04T23:39:35.000Z</time></trkpt>
        <trkpt lat="29.004957" lon="104.780346"><ele>360.02625</ele><time>2026-04-04T23:39:39.000Z</time></trkpt>
        <trkpt lat="29.005007" lon="104.78035"><ele>360.13214</ele><time>2026-04-04T23:39:44.000Z</time></trkpt>
        <trkpt lat="29.005052" lon="104.780371"><ele>359.26935</ele><time>2026-04-04T23:39:53.000Z</time></trkpt>
        <trkpt lat="29.005097" lon="104.780407"><ele>358.6409</ele><time>2026-04-04T23:40:09.000Z</time></trkpt>
        <trkpt lat="29.005141" lon="104.780427"><ele>357.6738</ele><time>2026-04-04T23:40:16.000Z</time></trkpt>
        <trkpt lat="29.005186" lon="104.780444"><ele>357.94733</ele><time>2026-04-04T23:40:21.000Z</time></trkpt>
        <trkpt lat="29.005236" lon="104.780437"><ele>357.49374</ele><time>2026-04-04T23:40:27.000Z</time></trkpt>
        <trkpt lat="29.005277" lon="104.780414"><ele>357.8596</ele><time>2026-04-04T23:40:31.000Z</time></trkpt>
        <trkpt lat="29.005328" lon="104.780401"><ele>357.16672</ele><time>2026-04-04T23:40:36.000Z</time></trkpt>
        <trkpt lat="29.005375" lon="104.780414"><ele>356.523</ele><time>2026-04-04T23:40:40.000Z</time></trkpt>
        <trkpt lat="29.005422" lon="104.78043"><ele>356.18875</ele><time>2026-04-04T23:40:45.000Z</time></trkpt>
        <trkpt lat="29.005452" lon="104.780478"><ele>355.48257</ele><time>2026-04-04T23:40:53.000Z</time></trkpt>
        <trkpt lat="29.005471" lon="104.780531"><ele>356.1598</ele><time>2026-04-04T23:40:59.000Z</time></trkpt>
        <trkpt lat="29.005507" lon="104.780569"><ele>356.81702</ele><time>2026-04-04T23:41:16.000Z</time></trkpt>
        <trkpt lat="29.005529" lon="104.78062"><ele>357.63443</ele><time>2026-04-04T23:41:29.000Z</time></trkpt>
        <trkpt lat="29.005505" lon="104.780671"><ele>358.50674</ele><time>2026-04-04T23:41:34.000Z</time></trkpt>
        <trkpt lat="29.005472" lon="104.780718"><ele>357.5947</ele><time>2026-04-04T23:41:39.000Z</time></trkpt>
        <trkpt lat="29.005443" lon="104.780759"><ele>359.1155</ele><time>2026-04-04T23:41:45.000Z</time></trkpt>
        <trkpt lat="29.00541" lon="104.780803"><ele>360.1008</ele><time>2026-04-04T23:41:51.000Z</time></trkpt>
        <trkpt lat="29.005378" lon="104.780847"><ele>360.97293</ele><time>2026-04-04T23:41:57.000Z</time></trkpt>
        <trkpt lat="29.005349" lon="104.780891"><ele>361.32962</ele><time>2026-04-04T23:42:04.000Z</time></trkpt>
        <trkpt lat="29.005323" lon="104.780937"><ele>362.28635</ele><time>2026-04-04T23:42:10.000Z</time></trkpt>
        <trkpt lat="29.005307" lon="104.78099"><ele>363.10507</ele><time>2026-04-04T23:42:17.000Z</time></trkpt>
        <trkpt lat="29.005322" lon="104.781048"><ele>363.8964</ele><time>2026-04-04T23:42:23.000Z</time></trkpt>
        <trkpt lat="29.005369" lon="104.781082"><ele>365.31104</ele><time>2026-04-04T23:42:28.000Z</time></trkpt>
        <trkpt lat="29.005412" lon="104.781108"><ele>363.23947</ele><time>2026-04-04T23:42:34.000Z</time></trkpt>
        <trkpt lat="29.005435" lon="104.781158"><ele>362.13922</ele><time>2026-04-04T23:43:04.000Z</time></trkpt>
        <trkpt lat="29.005447" lon="104.781211"><ele>361.63403</ele><time>2026-04-04T23:43:08.000Z</time></trkpt>
        <trkpt lat="29.005438" lon="104.781262"><ele>361.89346</ele><time>2026-04-04T23:43:11.000Z</time></trkpt>
        <trkpt lat="29.005417" lon="104.781319"><ele>362.08072</ele><time>2026-04-04T23:43:16.000Z</time></trkpt>
        <trkpt lat="29.00541" lon="104.781379"><ele>362.92188</ele><time>2026-04-04T23:43:29.000Z</time></trkpt>
        <trkpt lat="29.005399" lon="104.781434"><ele>363.0034</ele><time>2026-04-04T23:43:34.000Z</time></trkpt>
        <trkpt lat="29.005396" lon="104.781495"><ele>363.01367</ele><time>2026-04-04T23:43:39.000Z</time></trkpt>
        <trkpt lat="29.005404" lon="104.781551"><ele>363.32285</ele><time>2026-04-04T23:43:43.000Z</time></trkpt>
        <trkpt lat="29.005435" lon="104.781596"><ele>362.6049</ele><time>2026-04-04T23:43:47.000Z</time></trkpt>
        <trkpt lat="29.005443" lon="104.781649"><ele>362.25595</ele><time>2026-04-04T23:43:50.000Z</time></trkpt>
        <trkpt lat="29.005477" lon="104.781698"><ele>361.36508</ele><time>2026-04-04T23:43:54.000Z</time></trkpt>
        <trkpt lat="29.005439" lon="104.781757"><ele>360.76132</ele><time>2026-04-04T23:43:58.000Z</time></trkpt>
        <trkpt lat="29.005413" lon="104.781801"><ele>360.19653</ele><time>2026-04-04T23:44:02.000Z</time></trkpt>
        <trkpt lat="29.005372" lon="104.781825"><ele>359.822</ele><time>2026-04-04T23:44:05.000Z</time></trkpt>
        <trkpt lat="29.005325" lon="104.781865"><ele>360.3999</ele><time>2026-04-04T23:44:10.000Z</time></trkpt>
        <trkpt lat="29.005273" lon="104.781856"><ele>361.6377</ele><time>2026-04-04T23:44:16.000Z</time></trkpt>
        <trkpt lat="29.005226" lon="104.781833"><ele>362.37646</ele><time>2026-04-04T23:44:19.000Z</time></trkpt>
        <trkpt lat="29.00519" lon="104.781874"><ele>364.31534</ele><time>2026-04-04T23:44:25.000Z</time></trkpt>
        <trkpt lat="29.005171" lon="104.781924"><ele>365.2175</ele><time>2026-04-04T23:44:30.000Z</time></trkpt>
        <trkpt lat="29.00515" lon="104.781982"><ele>365.226</ele><time>2026-04-04T23:44:33.000Z</time></trkpt>
        <trkpt lat="29.005151" lon="104.782038"><ele>365.181</ele><time>2026-04-04T23:44:39.000Z</time></trkpt>
        <trkpt lat="29.005125" lon="104.782082"><ele>364.88797</ele><time>2026-04-04T23:44:44.000Z</time></trkpt>
        <trkpt lat="29.005084" lon="104.782132"><ele>364.214</ele><time>2026-04-04T23:44:50.000Z</time></trkpt>
        <trkpt lat="29.005062" lon="104.782178"><ele>364.43243</ele><time>2026-04-04T23:44:54.000Z</time></trkpt>
        <trkpt lat="29.005054" lon="104.782235"><ele>363.24292</ele><time>2026-04-04T23:44:59.000Z</time></trkpt>
        <trkpt lat="29.005039" lon="104.782297"><ele>363.07077</ele><time>2026-04-04T23:45:02.000Z</time></trkpt>
        <trkpt lat="29.005006" lon="104.782344"><ele>361.3777</ele><time>2026-04-04T23:45:05.000Z</time></trkpt>
        <trkpt lat="29.004951" lon="104.782368"><ele>362.37674</ele><time>2026-04-04T23:45:09.000Z</time></trkpt>
        <trkpt lat="29.004912" lon="104.782404"><ele>363.7946</ele><time>2026-04-04T23:45:12.000Z</time></trkpt>
        <trkpt lat="29.004867" lon="104.782417"><ele>365.03784</ele><time>2026-04-04T23:45:17.000Z</time></trkpt>
        <trkpt lat="29.004814" lon="104.782438"><ele>367.68643</ele><time>2026-04-04T23:45:30.000Z</time></trkpt>
        <trkpt lat="29.004704" lon="104.782515"><ele>369.78323</ele><time>2026-04-04T23:45:49.000Z</time></trkpt>
        <trkpt lat="29.004626" lon="104.782447"><ele>373.20483</ele><time>2026-04-04T23:45:59.000Z</time></trkpt>
        <trkpt lat="29.004582" lon="104.782466"><ele>376.39655</ele><time>2026-04-04T23:46:15.000Z</time></trkpt>
        <trkpt lat="29.00453" lon="104.782447"><ele>377.90643</ele><time>2026-04-04T23:46:23.000Z</time></trkpt>
        <trkpt lat="29.004477" lon="104.782484"><ele>379.3947</ele><time>2026-04-04T23:46:29.000Z</time></trkpt>
        <trkpt lat="29.004442" lon="104.78252"><ele>382.56277</ele><time>2026-04-04T23:46:40.000Z</time></trkpt>
        <trkpt lat="29.004411" lon="104.782563"><ele>383.42328</ele><time>2026-04-04T23:46:44.000Z</time></trkpt>
        <trkpt lat="29.004385" lon="104.782611"><ele>385.15356</ele><time>2026-04-04T23:46:48.000Z</time></trkpt>
        <trkpt lat="29.00438" lon="104.78267"><ele>384.2147</ele><time>2026-04-04T23:47:05.000Z</time></trkpt>
        <trkpt lat="29.004355" lon="104.782715"><ele>385.07864</ele><time>2026-04-04T23:47:08.000Z</time></trkpt>
        <trkpt lat="29.004322" lon="104.782751"><ele>387.49826</ele><time>2026-04-04T23:47:36.000Z</time></trkpt>
        <trkpt lat="29.004285" lon="104.782795"><ele>389.05612</ele><time>2026-04-04T23:47:49.000Z</time></trkpt>
        <trkpt lat="29.004291" lon="104.782847"><ele>389.7917</ele><time>2026-04-04T23:48:00.000Z</time></trkpt>
        <trkpt lat="29.004519" lon="104.782898"><ele>375.89355</ele><time>2026-04-04T23:48:23.000Z</time></trkpt>
        <trkpt lat="29.004462" lon="104.782924"><ele>376.46503</ele><time>2026-04-04T23:48:25.000Z</time></trkpt>
        <trkpt lat="29.004444" lon="104.782981"><ele>378.13486</ele><time>2026-04-04T23:48:31.000Z</time></trkpt>
        <trkpt lat="29.004424" lon="104.783028"><ele>381.05273</ele><time>2026-04-04T23:48:39.000Z</time></trkpt>
        <trkpt lat="29.004405" lon="104.783084"><ele>383.39154</ele><time>2026-04-04T23:48:49.000Z</time></trkpt>
        <trkpt lat="29.004432" lon="104.783147"><ele>383.3151</ele><time>2026-04-04T23:48:55.000Z</time></trkpt>
        <trkpt lat="29.004407" lon="104.783196"><ele>383.6441</ele><time>2026-04-04T23:49:05.000Z</time></trkpt>
        <trkpt lat="29.004377" lon="104.783236"><ele>385.4204</ele><time>2026-04-04T23:49:20.000Z</time></trkpt>
        <trkpt lat="29.004413" lon="104.783268"><ele>385.4829</ele><time>2026-04-04T23:49:56.000Z</time></trkpt>
        <trkpt lat="29.004412" lon="104.783321"><ele>383.76865</ele><time>2026-04-04T23:50:11.000Z</time></trkpt>
        <trkpt lat="29.004386" lon="104.783369"><ele>383.43454</ele><time>2026-04-04T23:50:46.000Z</time></trkpt>
        <trkpt lat="29.004407" lon="104.783419"><ele>384.30096</ele><time>2026-04-04T23:50:54.000Z</time></trkpt>
        <trkpt lat="29.004393" lon="104.783468"><ele>384.85562</ele><time>2026-04-04T23:51:10.000Z</time></trkpt>
        <trkpt lat="29.004407" lon="104.783518"><ele>384.64215</ele><time>2026-04-04T23:51:16.000Z</time></trkpt>
        <trkpt lat="29.00441" lon="104.783577"><ele>384.46048</ele><time>2026-04-04T23:51:22.000Z</time></trkpt>
        <trkpt lat="29.004444" lon="104.783624"><ele>384.56036</ele><time>2026-04-04T23:51:28.000Z</time></trkpt>
        <trkpt lat="29.004466" lon="104.783671"><ele>384.57614</ele><time>2026-04-04T23:51:32.000Z</time></trkpt>
        <trkpt lat="29.004478" lon="104.783723"><ele>387.32602</ele><time>2026-04-04T23:51:39.000Z</time></trkpt>
        <trkpt lat="29.004482" lon="104.783776"><ele>390.21924</ele><time>2026-04-04T23:51:45.000Z</time></trkpt>
        <trkpt lat="29.004462" lon="104.783829"><ele>392.18</ele><time>2026-04-04T23:51:51.000Z</time></trkpt>
        <trkpt lat="29.004435" lon="104.783876"><ele>394.24756</ele><time>2026-04-04T23:51:58.000Z</time></trkpt>
        <trkpt lat="29.004424" lon="104.783929"><ele>394.73053</ele><time>2026-04-04T23:52:16.000Z</time></trkpt>
        <trkpt lat="29.004445" lon="104.783984"><ele>395.32672</ele><time>2026-04-04T23:52:25.000Z</time></trkpt>
        <trkpt lat="29.004427" lon="104.784036"><ele>396.41348</ele><time>2026-04-04T23:52:29.000Z</time></trkpt>
        <trkpt lat="29.004448" lon="104.784085"><ele>397.6279</ele><time>2026-04-04T23:52:34.000Z</time></trkpt>
        <trkpt lat="29.004441" lon="104.784146"><ele>398.6589</ele><time>2026-04-04T23:52:39.000Z</time></trkpt>
        <trkpt lat="29.004462" lon="104.784195"><ele>401.8598</ele><time>2026-04-04T23:52:47.000Z</time></trkpt>
        <trkpt lat="29.004508" lon="104.784201"><ele>401.05756</ele><time>2026-04-04T23:53:00.000Z</time></trkpt>
        <trkpt lat="29.004539" lon="104.784163"><ele>401.5803</ele><time>2026-04-04T23:53:11.000Z</time></trkpt>
        <trkpt lat="29.004567" lon="104.784117"><ele>400.3226</ele><time>2026-04-04T23:53:18.000Z</time></trkpt>
        <trkpt lat="29.004534" lon="104.784155"><ele>400.06598</ele><time>2026-04-04T23:53:31.000Z</time></trkpt>
        <trkpt lat="29.004501" lon="104.784096"><ele>401.67383</ele><time>2026-04-04T23:54:06.000Z</time></trkpt>
        <trkpt lat="29.004473" lon="104.784043"><ele>403.63077</ele><time>2026-04-04T23:54:17.000Z</time></trkpt>
        <trkpt lat="29.004519" lon="104.784026"><ele>400.712</ele><time>2026-04-04T23:54:37.000Z</time></trkpt>
        <trkpt lat="29.00453" lon="104.783972"><ele>399.68774</ele><time>2026-04-04T23:54:46.000Z</time></trkpt>
        <trkpt lat="29.004553" lon="104.783994"><ele>398.26462</ele><time>2026-04-04T23:54:54.000Z</time></trkpt>
        <trkpt lat="29.004602" lon="104.784021"><ele>397.92142</ele><time>2026-04-04T23:55:00.000Z</time></trkpt>
        <trkpt lat="29.004647" lon="104.784032"><ele>397.58932</ele><time>2026-04-04T23:55:05.000Z</time></trkpt>
        <trkpt lat="29.004696" lon="104.784036"><ele>396.148</ele><time>2026-04-04T23:55:21.000Z</time></trkpt>
        <trkpt lat="29.004806" lon="104.783929"><ele>392.96844</ele><time>2026-04-04T23:55:36.000Z</time></trkpt>
        <trkpt lat="29.004847" lon="104.78389"><ele>390.90768</ele><time>2026-04-04T23:55:43.000Z</time></trkpt>
        <trkpt lat="29.00489" lon="104.783851"><ele>390.57324</ele><time>2026-04-04T23:55:47.000Z</time></trkpt>
        <trkpt lat="29.004949" lon="104.783816"><ele>388.12488</ele><time>2026-04-04T23:55:52.000Z</time></trkpt>
        <trkpt lat="29.004998" lon="104.783847"><ele>386.5947</ele><time>2026-04-04T23:55:58.000Z</time></trkpt>
        <trkpt lat="29.005038" lon="104.783884"><ele>386.55603</ele><time>2026-04-04T23:56:02.000Z</time></trkpt>
        <trkpt lat="29.005085" lon="104.783887"><ele>387.45132</ele><time>2026-04-04T23:56:07.000Z</time></trkpt>
        <trkpt lat="29.005129" lon="104.783927"><ele>387.11194</ele><time>2026-04-04T23:56:12.000Z</time></trkpt>
        <trkpt lat="29.005167" lon="104.783964"><ele>388.64523</ele><time>2026-04-04T23:56:18.000Z</time></trkpt>
        <trkpt lat="29.005193" lon="104.78401"><ele>390.66003</ele><time>2026-04-04T23:56:23.000Z</time></trkpt>
        <trkpt lat="29.005229" lon="104.784058"><ele>391.58398</ele><time>2026-04-04T23:56:28.000Z</time></trkpt>
        <trkpt lat="29.005271" lon="104.784085"><ele>392.7475</ele><time>2026-04-04T23:56:32.000Z</time></trkpt>
        <trkpt lat="29.005313" lon="104.784104"><ele>393.29196</ele><time>2026-04-04T23:56:37.000Z</time></trkpt>
        <trkpt lat="29.005371" lon="104.784124"><ele>393.75592</ele><time>2026-04-04T23:56:39.000Z</time></trkpt>
        <trkpt lat="29.005395" lon="104.784168"><ele>395.26736</ele><time>2026-04-04T23:56:45.000Z</time></trkpt>
        <trkpt lat="29.005401" lon="104.784221"><ele>397.01376</ele><time>2026-04-04T23:56:53.000Z</time></trkpt>
        <trkpt lat="29.005451" lon="104.784225"><ele>398.30005</ele><time>2026-04-04T23:57:03.000Z</time></trkpt>
        <trkpt lat="29.005473" lon="104.78427"><ele>398.21115</ele><time>2026-04-04T23:58:32.000Z</time></trkpt>
        <trkpt lat="29.005568" lon="104.7843"><ele>398.9133</ele><time>2026-04-04T23:58:46.000Z</time></trkpt>
        <trkpt lat="29.00552" lon="104.784278"><ele>399.24747</ele><time>2026-04-04T23:58:52.000Z</time></trkpt>
        <trkpt lat="29.005511" lon="104.784268"><ele>398.6334</ele><time>2026-04-04T23:59:10.000Z</time></trkpt>
        <trkpt lat="29.00556" lon="104.784289"><ele>399.21915</ele><time>2026-04-04T23:59:14.000Z</time></trkpt>
        <trkpt lat="29.005609" lon="104.784293"><ele>399.93686</ele><time>2026-04-04T23:59:20.000Z</time></trkpt>
        <trkpt lat="29.005665" lon="104.784302"><ele>399.75015</ele><time>2026-04-04T23:59:42.000Z</time></trkpt>
        <trkpt lat="29.005717" lon="104.784307"><ele>400.93164</ele><time>2026-04-04T23:59:48.000Z</time></trkpt>
        <trkpt lat="29.005761" lon="104.784282"><ele>400.84857</ele><time>2026-04-04T23:59:54.000Z</time></trkpt>
        <trkpt lat="29.005813" lon="104.78429"><ele>400.1597</ele><time>2026-04-05T00:00:01.000Z</time></trkpt>
        <trkpt lat="29.005864" lon="104.784305"><ele>400.31934</ele><time>2026-04-05T00:00:08.000Z</time></trkpt>
        <trkpt lat="29.005909" lon="104.784296"><ele>400.5971</ele><time>2026-04-05T00:00:38.000Z</time></trkpt>
        <trkpt lat="29.00591" lon="104.784355"><ele>400.87347</ele><time>2026-04-05T00:01:18.000Z</time></trkpt>
        <trkpt lat="29.005937" lon="104.784309"><ele>402.51385</ele><time>2026-04-05T00:01:34.000Z</time></trkpt>
        <trkpt lat="29.005985" lon="104.784283"><ele>401.84976</ele><time>2026-04-05T00:01:50.000Z</time></trkpt>
        <trkpt lat="29.006035" lon="104.784279"><ele>402.71188</ele><time>2026-04-05T00:01:57.000Z</time></trkpt>
        <trkpt lat="29.006083" lon="104.784286"><ele>402.35748</ele><time>2026-04-05T00:02:02.000Z</time></trkpt>
        <trkpt lat="29.006131" lon="104.784311"><ele>402.5395</ele><time>2026-04-05T00:02:12.000Z</time></trkpt>
        <trkpt lat="29.006175" lon="104.784294"><ele>403.00027</ele><time>2026-04-05T00:02:17.000Z</time></trkpt>
        <trkpt lat="29.006225" lon="104.78428"><ele>402.78687</ele><time>2026-04-05T00:02:24.000Z</time></trkpt>
        <trkpt lat="29.006273" lon="104.784269"><ele>403.08145</ele><time>2026-04-05T00:02:37.000Z</time></trkpt>
        <trkpt lat="29.006315" lon="104.784238"><ele>403.3481</ele><time>2026-04-05T00:02:45.000Z</time></trkpt>
        <trkpt lat="29.006364" lon="104.784257"><ele>402.63788</ele><time>2026-04-05T00:02:51.000Z</time></trkpt>
        <trkpt lat="29.006415" lon="104.784235"><ele>402.8452</ele><time>2026-04-05T00:02:56.000Z</time></trkpt>
        <trkpt lat="29.006464" lon="104.784235"><ele>403.59094</ele><time>2026-04-05T00:03:02.000Z</time></trkpt>
        <trkpt lat="29.006501" lon="104.78427"><ele>404.47562</ele><time>2026-04-05T00:03:06.000Z</time></trkpt>
        <trkpt lat="29.006561" lon="104.784253"><ele>405.60635</ele><time>2026-04-05T00:03:13.000Z</time></trkpt>
        <trkpt lat="29.006615" lon="104.784276"><ele>406.6875</ele><time>2026-04-05T00:03:20.000Z</time></trkpt>
        <trkpt lat="29.006664" lon="104.784302"><ele>407.97507</ele><time>2026-04-05T00:03:25.000Z</time></trkpt>
        <trkpt lat="29.006692" lon="104.784355"><ele>408.4916</ele><time>2026-04-05T00:03:29.000Z</time></trkpt>
        <trkpt lat="29.006696" lon="104.78441"><ele>408.05893</ele><time>2026-04-05T00:03:34.000Z</time></trkpt>
        <trkpt lat="29.006725" lon="104.784452"><ele>409.04526</ele><time>2026-04-05T00:03:47.000Z</time></trkpt>
        <trkpt lat="29.00676" lon="104.78449"><ele>408.08316</ele><time>2026-04-05T00:04:01.000Z</time></trkpt>
        <trkpt lat="29.006793" lon="104.784527"><ele>407.92636</ele><time>2026-04-05T00:04:10.000Z</time></trkpt>
        <trkpt lat="29.006827" lon="104.784561"><ele>408.2615</ele><time>2026-04-05T00:04:22.000Z</time></trkpt>
        <trkpt lat="29.006872" lon="104.78459"><ele>406.91562</ele><time>2026-04-05T00:04:42.000Z</time></trkpt>
        <trkpt lat="29.006919" lon="104.784618"><ele>406.73715</ele><time>2026-04-05T00:04:47.000Z</time></trkpt>
        <trkpt lat="29.006955" lon="104.784653"><ele>406.1305</ele><time>2026-04-05T00:04:52.000Z</time></trkpt>
        <trkpt lat="29.006994" lon="104.784691"><ele>404.86172</ele><time>2026-04-05T00:05:02.000Z</time></trkpt>
        <trkpt lat="29.007019" lon="104.784737"><ele>404.4932</ele><time>2026-04-05T00:05:06.000Z</time></trkpt>
        <trkpt lat="29.007051" lon="104.784781"><ele>403.88583</ele><time>2026-04-05T00:05:12.000Z</time></trkpt>
        <trkpt lat="29.007073" lon="104.784828"><ele>403.91208</ele><time>2026-04-05T00:05:17.000Z</time></trkpt>
        <trkpt lat="29.007072" lon="104.784881"><ele>403.54483</ele><time>2026-04-05T00:05:22.000Z</time></trkpt>
        <trkpt lat="29.007096" lon="104.784932"><ele>402.65756</ele><time>2026-04-05T00:05:29.000Z</time></trkpt>
        <trkpt lat="29.007123" lon="104.784974"><ele>401.95343</ele><time>2026-04-05T00:05:34.000Z</time></trkpt>
        <trkpt lat="29.007169" lon="104.784992"><ele>401.93008</ele><time>2026-04-05T00:05:39.000Z</time></trkpt>
        <trkpt lat="29.007211" lon="104.785026"><ele>403.46506</ele><time>2026-04-05T00:05:43.000Z</time></trkpt>
        <trkpt lat="29.00725" lon="104.784976"><ele>403.68442</ele><time>2026-04-05T00:05:50.000Z</time></trkpt>
        <trkpt lat="29.007267" lon="104.784914"><ele>403.67978</ele><time>2026-04-05T00:05:55.000Z</time></trkpt>
        <trkpt lat="29.007279" lon="104.784859"><ele>403.24835</ele><time>2026-04-05T00:05:59.000Z</time></trkpt>
        <trkpt lat="29.007294" lon="104.784805"><ele>402.7524</ele><time>2026-04-05T00:06:03.000Z</time></trkpt>
        <trkpt lat="29.0073" lon="104.784753"><ele>402.54874</ele><time>2026-04-05T00:06:07.000Z</time></trkpt>
        <trkpt lat="29.007332" lon="104.784712"><ele>402.1377</ele><time>2026-04-05T00:06:12.000Z</time></trkpt>
        <trkpt lat="29.007371" lon="104.784675"><ele>402.0712</ele><time>2026-04-05T00:06:17.000Z</time></trkpt>
        <trkpt lat="29.007409" lon="104.784644"><ele>402.31122</ele><time>2026-04-05T00:06:22.000Z</time></trkpt>
        <trkpt lat="29.007451" lon="104.784609"><ele>402.57843</ele><time>2026-04-05T00:06:27.000Z</time></trkpt>
        <trkpt lat="29.007488" lon="104.784578"><ele>402.34732</ele><time>2026-04-05T00:06:32.000Z</time></trkpt>
        <trkpt lat="29.00752" lon="104.784541"><ele>402.64606</ele><time>2026-04-05T00:06:38.000Z</time></trkpt>
        <trkpt lat="29.007562" lon="104.784515"><ele>402.63205</ele><time>2026-04-05T00:07:04.000Z</time></trkpt>
      </trkseg>
  </trk>
</gpx>